<?xml version="1.0" encoding="UTF-8" ?>
<gpx version="1.1" xmlns:xsi="http://www.w3.org/2001/XMLSchema-instance"
    xmlns="http://www.topografix.com/GPX/1/1"
    xsi:schemaLocation="http://www.topografix.com/GPX/1/1 http://www.topografix.com/GPX/1/1/gpx.xsd"
    creator="Openrunner - https://www.openrunner.com" >	<trk>
	                   <name>28_T2_260906-25119527</name>
						<trkseg>
					<trkpt lat="50.359570" lon="4.364610">
						<ele>202</ele>
						<time>2026-09-04T16:13:39Z</time>
					</trkpt>
					<trkpt lat="50.359560" lon="4.364630">
						<ele>202</ele>
						<time>2026-09-04T16:13:39Z</time>
					</trkpt>
					<trkpt lat="50.359430" lon="4.365020">
						<ele>202</ele>
						<time>2026-09-04T16:13:44Z</time>
					</trkpt>
					<trkpt lat="50.359580" lon="4.365160">
						<ele>203</ele>
						<time>2026-09-04T16:13:47Z</time>
					</trkpt>
					<trkpt lat="50.359630" lon="4.365230">
						<ele>204</ele>
						<time>2026-09-04T16:13:49Z</time>
					</trkpt>
					<trkpt lat="50.359600" lon="4.365390">
						<ele>204</ele>
						<time>2026-09-04T16:13:50Z</time>
					</trkpt>
					<trkpt lat="50.359550" lon="4.365720">
						<ele>206</ele>
						<time>2026-09-04T16:13:54Z</time>
					</trkpt>
					<trkpt lat="50.359390" lon="4.366570">
						<ele>205</ele>
						<time>2026-09-04T16:14:04Z</time>
					</trkpt>
					<trkpt lat="50.359240" lon="4.367420">
						<ele>204</ele>
						<time>2026-09-04T16:14:14Z</time>
					</trkpt>
					<trkpt lat="50.359200" lon="4.367510">
						<ele>204</ele>
						<time>2026-09-04T16:14:16Z</time>
					</trkpt>
					<trkpt lat="50.359050" lon="4.367760">
						<ele>205</ele>
						<time>2026-09-04T16:14:20Z</time>
					</trkpt>
					<trkpt lat="50.358980" lon="4.367900">
						<ele>206</ele>
						<time>2026-09-04T16:14:22Z</time>
					</trkpt>
					<trkpt lat="50.358900" lon="4.368210">
						<ele>208</ele>
						<time>2026-09-04T16:14:25Z</time>
					</trkpt>
					<trkpt lat="50.358870" lon="4.368460">
						<ele>209</ele>
						<time>2026-09-04T16:14:28Z</time>
					</trkpt>
					<trkpt lat="50.358850" lon="4.369160">
						<ele>211</ele>
						<time>2026-09-04T16:14:36Z</time>
					</trkpt>
					<trkpt lat="50.358950" lon="4.369410">
						<ele>211</ele>
						<time>2026-09-04T16:14:40Z</time>
					</trkpt>
					<trkpt lat="50.359000" lon="4.369520">
						<ele>211</ele>
						<time>2026-09-04T16:14:41Z</time>
					</trkpt>
					<trkpt lat="50.359030" lon="4.369550">
						<ele>210</ele>
						<time>2026-09-04T16:14:42Z</time>
					</trkpt>
					<trkpt lat="50.359080" lon="4.369590">
						<ele>210</ele>
						<time>2026-09-04T16:14:43Z</time>
					</trkpt>
					<trkpt lat="50.359290" lon="4.369760">
						<ele>209</ele>
						<time>2026-09-04T16:14:47Z</time>
					</trkpt>
					<trkpt lat="50.359510" lon="4.369910">
						<ele>208</ele>
						<time>2026-09-04T16:14:51Z</time>
					</trkpt>
					<trkpt lat="50.359600" lon="4.369950">
						<ele>207</ele>
						<time>2026-09-04T16:14:53Z</time>
					</trkpt>
					<trkpt lat="50.359670" lon="4.370000">
						<ele>207</ele>
						<time>2026-09-04T16:14:54Z</time>
					</trkpt>
					<trkpt lat="50.359690" lon="4.370010">
						<ele>207</ele>
						<time>2026-09-04T16:14:55Z</time>
					</trkpt>
					<trkpt lat="50.360040" lon="4.370110">
						<ele>205</ele>
						<time>2026-09-04T16:15:01Z</time>
					</trkpt>
					<trkpt lat="50.360090" lon="4.370110">
						<ele>205</ele>
						<time>2026-09-04T16:15:02Z</time>
					</trkpt>
					<trkpt lat="50.360170" lon="4.370130">
						<ele>205</ele>
						<time>2026-09-04T16:15:03Z</time>
					</trkpt>
					<trkpt lat="50.360270" lon="4.370140">
						<ele>206</ele>
						<time>2026-09-04T16:15:05Z</time>
					</trkpt>
					<trkpt lat="50.360270" lon="4.370270">
						<ele>206</ele>
						<time>2026-09-04T16:15:07Z</time>
					</trkpt>
					<trkpt lat="50.360320" lon="4.370340">
						<ele>206</ele>
						<time>2026-09-04T16:15:08Z</time>
					</trkpt>
					<trkpt lat="50.360420" lon="4.370520">
						<ele>206</ele>
						<time>2026-09-04T16:15:10Z</time>
					</trkpt>
					<trkpt lat="50.360520" lon="4.370770">
						<ele>207</ele>
						<time>2026-09-04T16:15:14Z</time>
					</trkpt>
					<trkpt lat="50.360590" lon="4.371010">
						<ele>208</ele>
						<time>2026-09-04T16:15:17Z</time>
					</trkpt>
					<trkpt lat="50.360630" lon="4.371220">
						<ele>209</ele>
						<time>2026-09-04T16:15:19Z</time>
					</trkpt>
					<trkpt lat="50.360640" lon="4.371400">
						<ele>209</ele>
						<time>2026-09-04T16:15:21Z</time>
					</trkpt>
					<trkpt lat="50.360650" lon="4.371570">
						<ele>210</ele>
						<time>2026-09-04T16:15:23Z</time>
					</trkpt>
					<trkpt lat="50.360640" lon="4.371740">
						<ele>210</ele>
						<time>2026-09-04T16:15:25Z</time>
					</trkpt>
					<trkpt lat="50.360620" lon="4.371890">
						<ele>211</ele>
						<time>2026-09-04T16:15:27Z</time>
					</trkpt>
					<trkpt lat="50.360560" lon="4.372160">
						<ele>211</ele>
						<time>2026-09-04T16:15:30Z</time>
					</trkpt>
					<trkpt lat="50.360440" lon="4.372520">
						<ele>212</ele>
						<time>2026-09-04T16:15:35Z</time>
					</trkpt>
					<trkpt lat="50.360410" lon="4.372690">
						<ele>212</ele>
						<time>2026-09-04T16:15:37Z</time>
					</trkpt>
					<trkpt lat="50.360410" lon="4.372840">
						<ele>213</ele>
						<time>2026-09-04T16:15:38Z</time>
					</trkpt>
					<trkpt lat="50.360430" lon="4.372960">
						<ele>213</ele>
						<time>2026-09-04T16:15:40Z</time>
					</trkpt>
					<trkpt lat="50.360460" lon="4.373100">
						<ele>213</ele>
						<time>2026-09-04T16:15:42Z</time>
					</trkpt>
					<trkpt lat="50.360490" lon="4.373170">
						<ele>213</ele>
						<time>2026-09-04T16:15:43Z</time>
					</trkpt>
					<trkpt lat="50.360560" lon="4.373160">
						<ele>213</ele>
						<time>2026-09-04T16:15:44Z</time>
					</trkpt>
					<trkpt lat="50.360770" lon="4.373250">
						<ele>212</ele>
						<time>2026-09-04T16:15:48Z</time>
					</trkpt>
					<trkpt lat="50.360950" lon="4.373340">
						<ele>212</ele>
						<time>2026-09-04T16:15:51Z</time>
					</trkpt>
					<trkpt lat="50.361150" lon="4.373450">
						<ele>211</ele>
						<time>2026-09-04T16:15:55Z</time>
					</trkpt>
					<trkpt lat="50.361220" lon="4.373510">
						<ele>210</ele>
						<time>2026-09-04T16:15:56Z</time>
					</trkpt>
					<trkpt lat="50.361270" lon="4.373560">
						<ele>210</ele>
						<time>2026-09-04T16:15:57Z</time>
					</trkpt>
					<trkpt lat="50.361270" lon="4.373730">
						<ele>210</ele>
						<time>2026-09-04T16:15:59Z</time>
					</trkpt>
					<trkpt lat="50.361200" lon="4.375770">
						<ele>209</ele>
						<time>2026-09-04T16:16:22Z</time>
					</trkpt>
					<trkpt lat="50.361220" lon="4.376060">
						<ele>207</ele>
						<time>2026-09-04T16:16:26Z</time>
					</trkpt>
					<trkpt lat="50.361250" lon="4.376330">
						<ele>205</ele>
						<time>2026-09-04T16:16:29Z</time>
					</trkpt>
					<trkpt lat="50.360390" lon="4.376610">
						<ele>205</ele>
						<time>2026-09-04T16:16:44Z</time>
					</trkpt>
					<trkpt lat="50.359860" lon="4.376790">
						<ele>206</ele>
						<time>2026-09-04T16:16:54Z</time>
					</trkpt>
					<trkpt lat="50.359050" lon="4.377090">
						<ele>207</ele>
						<time>2026-09-04T16:17:09Z</time>
					</trkpt>
					<trkpt lat="50.358670" lon="4.377240">
						<ele>208</ele>
						<time>2026-09-04T16:17:16Z</time>
					</trkpt>
					<trkpt lat="50.358440" lon="4.377350">
						<ele>209</ele>
						<time>2026-09-04T16:17:20Z</time>
					</trkpt>
					<trkpt lat="50.358190" lon="4.377550">
						<ele>209</ele>
						<time>2026-09-04T16:17:25Z</time>
					</trkpt>
					<trkpt lat="50.357950" lon="4.377760">
						<ele>210</ele>
						<time>2026-09-04T16:17:30Z</time>
					</trkpt>
					<trkpt lat="50.357520" lon="4.378140">
						<ele>210</ele>
						<time>2026-09-04T16:17:39Z</time>
					</trkpt>
					<trkpt lat="50.357370" lon="4.378250">
						<ele>210</ele>
						<time>2026-09-04T16:17:42Z</time>
					</trkpt>
					<trkpt lat="50.357240" lon="4.378310">
						<ele>210</ele>
						<time>2026-09-04T16:17:44Z</time>
					</trkpt>
					<trkpt lat="50.357110" lon="4.378370">
						<ele>210</ele>
						<time>2026-09-04T16:17:47Z</time>
					</trkpt>
					<trkpt lat="50.356960" lon="4.378410">
						<ele>211</ele>
						<time>2026-09-04T16:17:49Z</time>
					</trkpt>
					<trkpt lat="50.356680" lon="4.378460">
						<ele>211</ele>
						<time>2026-09-04T16:17:54Z</time>
					</trkpt>
					<trkpt lat="50.356560" lon="4.378460">
						<ele>212</ele>
						<time>2026-09-04T16:17:56Z</time>
					</trkpt>
					<trkpt lat="50.356380" lon="4.378460">
						<ele>214</ele>
						<time>2026-09-04T16:18:00Z</time>
					</trkpt>
					<trkpt lat="50.355270" lon="4.378420">
						<ele>221</ele>
						<time>2026-09-04T16:18:19Z</time>
					</trkpt>
					<trkpt lat="50.354650" lon="4.378430">
						<ele>221</ele>
						<time>2026-09-04T16:18:30Z</time>
					</trkpt>
					<trkpt lat="50.354030" lon="4.378190">
						<ele>220</ele>
						<time>2026-09-04T16:18:42Z</time>
					</trkpt>
					<trkpt lat="50.353950" lon="4.378190">
						<ele>220</ele>
						<time>2026-09-04T16:18:43Z</time>
					</trkpt>
					<trkpt lat="50.353870" lon="4.378220">
						<ele>220</ele>
						<time>2026-09-04T16:18:45Z</time>
					</trkpt>
					<trkpt lat="50.353690" lon="4.378220">
						<ele>220</ele>
						<time>2026-09-04T16:18:48Z</time>
					</trkpt>
					<trkpt lat="50.353650" lon="4.378160">
						<ele>221</ele>
						<time>2026-09-04T16:18:49Z</time>
					</trkpt>
					<trkpt lat="50.353590" lon="4.378130">
						<ele>221</ele>
						<time>2026-09-04T16:18:50Z</time>
					</trkpt>
					<trkpt lat="50.353530" lon="4.378120">
						<ele>221</ele>
						<time>2026-09-04T16:18:51Z</time>
					</trkpt>
					<trkpt lat="50.353490" lon="4.378130">
						<ele>221</ele>
						<time>2026-09-04T16:18:52Z</time>
					</trkpt>
					<trkpt lat="50.353440" lon="4.378170">
						<ele>221</ele>
						<time>2026-09-04T16:18:53Z</time>
					</trkpt>
					<trkpt lat="50.353400" lon="4.378220">
						<ele>221</ele>
						<time>2026-09-04T16:18:54Z</time>
					</trkpt>
					<trkpt lat="50.353380" lon="4.378290">
						<ele>221</ele>
						<time>2026-09-04T16:18:55Z</time>
					</trkpt>
					<trkpt lat="50.353360" lon="4.378410">
						<ele>221</ele>
						<time>2026-09-04T16:18:56Z</time>
					</trkpt>
					<trkpt lat="50.353260" lon="4.378560">
						<ele>221</ele>
						<time>2026-09-04T16:18:58Z</time>
					</trkpt>
					<trkpt lat="50.353180" lon="4.378610">
						<ele>221</ele>
						<time>2026-09-04T16:19:00Z</time>
					</trkpt>
					<trkpt lat="50.353100" lon="4.378640">
						<ele>222</ele>
						<time>2026-09-04T16:19:01Z</time>
					</trkpt>
					<trkpt lat="50.352730" lon="4.378480">
						<ele>223</ele>
						<time>2026-09-04T16:19:08Z</time>
					</trkpt>
					<trkpt lat="50.352620" lon="4.378440">
						<ele>223</ele>
						<time>2026-09-04T16:19:10Z</time>
					</trkpt>
					<trkpt lat="50.352460" lon="4.378390">
						<ele>223</ele>
						<time>2026-09-04T16:19:13Z</time>
					</trkpt>
					<trkpt lat="50.351760" lon="4.378390">
						<ele>224</ele>
						<time>2026-09-04T16:19:26Z</time>
					</trkpt>
					<trkpt lat="50.349960" lon="4.378380">
						<ele>222</ele>
						<time>2026-09-04T16:19:58Z</time>
					</trkpt>
					<trkpt lat="50.349840" lon="4.378420">
						<ele>221</ele>
						<time>2026-09-04T16:20:00Z</time>
					</trkpt>
					<trkpt lat="50.349690" lon="4.378480">
						<ele>220</ele>
						<time>2026-09-04T16:20:03Z</time>
					</trkpt>
					<trkpt lat="50.349520" lon="4.378580">
						<ele>219</ele>
						<time>2026-09-04T16:20:06Z</time>
					</trkpt>
					<trkpt lat="50.348360" lon="4.379420">
						<ele>216</ele>
						<time>2026-09-04T16:20:29Z</time>
					</trkpt>
					<trkpt lat="50.347610" lon="4.379960">
						<ele>215</ele>
						<time>2026-09-04T16:20:43Z</time>
					</trkpt>
					<trkpt lat="50.345060" lon="4.381790">
						<ele>219</ele>
						<time>2026-09-04T16:21:33Z</time>
					</trkpt>
					<trkpt lat="50.344710" lon="4.382020">
						<ele>219</ele>
						<time>2026-09-04T16:21:40Z</time>
					</trkpt>
					<trkpt lat="50.343430" lon="4.382670">
						<ele>210</ele>
						<time>2026-09-04T16:22:04Z</time>
					</trkpt>
					<trkpt lat="50.343160" lon="4.382820">
						<ele>209</ele>
						<time>2026-09-04T16:22:09Z</time>
					</trkpt>
					<trkpt lat="50.342860" lon="4.383010">
						<ele>208</ele>
						<time>2026-09-04T16:22:15Z</time>
					</trkpt>
					<trkpt lat="50.342660" lon="4.383170">
						<ele>208</ele>
						<time>2026-09-04T16:22:19Z</time>
					</trkpt>
					<trkpt lat="50.342360" lon="4.383430">
						<ele>207</ele>
						<time>2026-09-04T16:22:25Z</time>
					</trkpt>
					<trkpt lat="50.342130" lon="4.383650">
						<ele>206</ele>
						<time>2026-09-04T16:22:30Z</time>
					</trkpt>
					<trkpt lat="50.341580" lon="4.384200">
						<ele>204</ele>
						<time>2026-09-04T16:22:41Z</time>
					</trkpt>
					<trkpt lat="50.341050" lon="4.384730">
						<ele>206</ele>
						<time>2026-09-04T16:22:52Z</time>
					</trkpt>
					<trkpt lat="50.340640" lon="4.385070">
						<ele>206</ele>
						<time>2026-09-04T16:23:01Z</time>
					</trkpt>
					<trkpt lat="50.340310" lon="4.385290">
						<ele>206</ele>
						<time>2026-09-04T16:23:07Z</time>
					</trkpt>
					<trkpt lat="50.340110" lon="4.385400">
						<ele>205</ele>
						<time>2026-09-04T16:23:11Z</time>
					</trkpt>
					<trkpt lat="50.337780" lon="4.386780">
						<ele>200</ele>
						<time>2026-09-04T16:23:55Z</time>
					</trkpt>
					<trkpt lat="50.334730" lon="4.388130">
						<ele>194</ele>
						<time>2026-09-04T16:24:51Z</time>
					</trkpt>
					<trkpt lat="50.334670" lon="4.388140">
						<ele>194</ele>
						<time>2026-09-04T16:24:53Z</time>
					</trkpt>
					<trkpt lat="50.334390" lon="4.388230">
						<ele>194</ele>
						<time>2026-09-04T16:24:58Z</time>
					</trkpt>
					<trkpt lat="50.334220" lon="4.388250">
						<ele>194</ele>
						<time>2026-09-04T16:25:01Z</time>
					</trkpt>
					<trkpt lat="50.334160" lon="4.388260">
						<ele>194</ele>
						<time>2026-09-04T16:25:02Z</time>
					</trkpt>
					<trkpt lat="50.334080" lon="4.388270">
						<ele>194</ele>
						<time>2026-09-04T16:25:03Z</time>
					</trkpt>
					<trkpt lat="50.334050" lon="4.388240">
						<ele>193</ele>
						<time>2026-09-04T16:25:04Z</time>
					</trkpt>
					<trkpt lat="50.334020" lon="4.388220">
						<ele>193</ele>
						<time>2026-09-04T16:25:04Z</time>
					</trkpt>
					<trkpt lat="50.333990" lon="4.388210">
						<ele>193</ele>
						<time>2026-09-04T16:25:05Z</time>
					</trkpt>
					<trkpt lat="50.333960" lon="4.388220">
						<ele>193</ele>
						<time>2026-09-04T16:25:05Z</time>
					</trkpt>
					<trkpt lat="50.333910" lon="4.388150">
						<ele>193</ele>
						<time>2026-09-04T16:25:07Z</time>
					</trkpt>
					<trkpt lat="50.333830" lon="4.388080">
						<ele>192</ele>
						<time>2026-09-04T16:25:08Z</time>
					</trkpt>
					<trkpt lat="50.333720" lon="4.388070">
						<ele>192</ele>
						<time>2026-09-04T16:25:10Z</time>
					</trkpt>
					<trkpt lat="50.333650" lon="4.388110">
						<ele>192</ele>
						<time>2026-09-04T16:25:12Z</time>
					</trkpt>
					<trkpt lat="50.333570" lon="4.388070">
						<ele>191</ele>
						<time>2026-09-04T16:25:13Z</time>
					</trkpt>
					<trkpt lat="50.333450" lon="4.387990">
						<ele>191</ele>
						<time>2026-09-04T16:25:15Z</time>
					</trkpt>
					<trkpt lat="50.333050" lon="4.387640">
						<ele>189</ele>
						<time>2026-09-04T16:25:24Z</time>
					</trkpt>
					<trkpt lat="50.332740" lon="4.387290">
						<ele>188</ele>
						<time>2026-09-04T16:25:30Z</time>
					</trkpt>
					<trkpt lat="50.332060" lon="4.386270">
						<ele>190</ele>
						<time>2026-09-04T16:25:47Z</time>
					</trkpt>
					<trkpt lat="50.331970" lon="4.386090">
						<ele>190</ele>
						<time>2026-09-04T16:25:50Z</time>
					</trkpt>
					<trkpt lat="50.331740" lon="4.385570">
						<ele>191</ele>
						<time>2026-09-04T16:25:57Z</time>
					</trkpt>
					<trkpt lat="50.331620" lon="4.385270">
						<ele>190</ele>
						<time>2026-09-04T16:26:01Z</time>
					</trkpt>
					<trkpt lat="50.331450" lon="4.384970">
						<ele>190</ele>
						<time>2026-09-04T16:26:05Z</time>
					</trkpt>
					<trkpt lat="50.330520" lon="4.383410">
						<ele>187</ele>
						<time>2026-09-04T16:26:30Z</time>
					</trkpt>
					<trkpt lat="50.329080" lon="4.381340">
						<ele>188</ele>
						<time>2026-09-04T16:27:04Z</time>
					</trkpt>
					<trkpt lat="50.328820" lon="4.381030">
						<ele>189</ele>
						<time>2026-09-04T16:27:10Z</time>
					</trkpt>
					<trkpt lat="50.328530" lon="4.380840">
						<ele>191</ele>
						<time>2026-09-04T16:27:16Z</time>
					</trkpt>
					<trkpt lat="50.327960" lon="4.380630">
						<ele>192</ele>
						<time>2026-09-04T16:27:26Z</time>
					</trkpt>
					<trkpt lat="50.327430" lon="4.380410">
						<ele>193</ele>
						<time>2026-09-04T16:27:36Z</time>
					</trkpt>
					<trkpt lat="50.327160" lon="4.380200">
						<ele>193</ele>
						<time>2026-09-04T16:27:41Z</time>
					</trkpt>
					<trkpt lat="50.326660" lon="4.379680">
						<ele>194</ele>
						<time>2026-09-04T16:27:52Z</time>
					</trkpt>
					<trkpt lat="50.326340" lon="4.379350">
						<ele>195</ele>
						<time>2026-09-04T16:27:59Z</time>
					</trkpt>
					<trkpt lat="50.324560" lon="4.377490">
						<ele>190</ele>
						<time>2026-09-04T16:28:37Z</time>
					</trkpt>
					<trkpt lat="50.323780" lon="4.377020">
						<ele>191</ele>
						<time>2026-09-04T16:28:52Z</time>
					</trkpt>
					<trkpt lat="50.322990" lon="4.376990">
						<ele>191</ele>
						<time>2026-09-04T16:29:06Z</time>
					</trkpt>
					<trkpt lat="50.322850" lon="4.376950">
						<ele>191</ele>
						<time>2026-09-04T16:29:08Z</time>
					</trkpt>
					<trkpt lat="50.322410" lon="4.376820">
						<ele>190</ele>
						<time>2026-09-04T16:29:16Z</time>
					</trkpt>
					<trkpt lat="50.321180" lon="4.376480">
						<ele>188</ele>
						<time>2026-09-04T16:29:39Z</time>
					</trkpt>
					<trkpt lat="50.320590" lon="4.376150">
						<ele>188</ele>
						<time>2026-09-04T16:29:50Z</time>
					</trkpt>
					<trkpt lat="50.320230" lon="4.375890">
						<ele>188</ele>
						<time>2026-09-04T16:29:57Z</time>
					</trkpt>
					<trkpt lat="50.320030" lon="4.375720">
						<ele>188</ele>
						<time>2026-09-04T16:30:01Z</time>
					</trkpt>
					<trkpt lat="50.319710" lon="4.375390">
						<ele>188</ele>
						<time>2026-09-04T16:30:08Z</time>
					</trkpt>
					<trkpt lat="50.319410" lon="4.375100">
						<ele>188</ele>
						<time>2026-09-04T16:30:14Z</time>
					</trkpt>
					<trkpt lat="50.318970" lon="4.374660">
						<ele>187</ele>
						<time>2026-09-04T16:30:23Z</time>
					</trkpt>
					<trkpt lat="50.318760" lon="4.374440">
						<ele>187</ele>
						<time>2026-09-04T16:30:28Z</time>
					</trkpt>
					<trkpt lat="50.318540" lon="4.374190">
						<ele>187</ele>
						<time>2026-09-04T16:30:33Z</time>
					</trkpt>
					<trkpt lat="50.318010" lon="4.373490">
						<ele>186</ele>
						<time>2026-09-04T16:30:45Z</time>
					</trkpt>
					<trkpt lat="50.317210" lon="4.372510">
						<ele>185</ele>
						<time>2026-09-04T16:31:03Z</time>
					</trkpt>
					<trkpt lat="50.317110" lon="4.372430">
						<ele>185</ele>
						<time>2026-09-04T16:31:05Z</time>
					</trkpt>
					<trkpt lat="50.317040" lon="4.372400">
						<ele>185</ele>
						<time>2026-09-04T16:31:06Z</time>
					</trkpt>
					<trkpt lat="50.316890" lon="4.372380">
						<ele>185</ele>
						<time>2026-09-04T16:31:09Z</time>
					</trkpt>
					<trkpt lat="50.316700" lon="4.372370">
						<ele>185</ele>
						<time>2026-09-04T16:31:12Z</time>
					</trkpt>
					<trkpt lat="50.314960" lon="4.372450">
						<ele>183</ele>
						<time>2026-09-04T16:31:43Z</time>
					</trkpt>
					<trkpt lat="50.314800" lon="4.372470">
						<ele>184</ele>
						<time>2026-09-04T16:31:46Z</time>
					</trkpt>
					<trkpt lat="50.313050" lon="4.372870">
						<ele>183</ele>
						<time>2026-09-04T16:32:18Z</time>
					</trkpt>
					<trkpt lat="50.312040" lon="4.373130">
						<ele>185</ele>
						<time>2026-09-04T16:32:36Z</time>
					</trkpt>
					<trkpt lat="50.310700" lon="4.373830">
						<ele>185</ele>
						<time>2026-09-04T16:33:01Z</time>
					</trkpt>
					<trkpt lat="50.310010" lon="4.374320">
						<ele>187</ele>
						<time>2026-09-04T16:33:14Z</time>
					</trkpt>
					<trkpt lat="50.309410" lon="4.374730">
						<ele>189</ele>
						<time>2026-09-04T16:33:26Z</time>
					</trkpt>
					<trkpt lat="50.308710" lon="4.375150">
						<ele>191</ele>
						<time>2026-09-04T16:33:39Z</time>
					</trkpt>
					<trkpt lat="50.308930" lon="4.375720">
						<ele>193</ele>
						<time>2026-09-04T16:33:47Z</time>
					</trkpt>
					<trkpt lat="50.309050" lon="4.376280">
						<ele>194</ele>
						<time>2026-09-04T16:33:54Z</time>
					</trkpt>
					<trkpt lat="50.309030" lon="4.377210">
						<ele>193</ele>
						<time>2026-09-04T16:34:04Z</time>
					</trkpt>
					<trkpt lat="50.309020" lon="4.377590">
						<ele>193</ele>
						<time>2026-09-04T16:34:09Z</time>
					</trkpt>
					<trkpt lat="50.308950" lon="4.379240">
						<ele>191</ele>
						<time>2026-09-04T16:34:27Z</time>
					</trkpt>
					<trkpt lat="50.309000" lon="4.379880">
						<ele>190</ele>
						<time>2026-09-04T16:34:35Z</time>
					</trkpt>
					<trkpt lat="50.309100" lon="4.380410">
						<ele>189</ele>
						<time>2026-09-04T16:34:41Z</time>
					</trkpt>
					<trkpt lat="50.309300" lon="4.381160">
						<ele>188</ele>
						<time>2026-09-04T16:34:50Z</time>
					</trkpt>
					<trkpt lat="50.309930" lon="4.382730">
						<ele>186</ele>
						<time>2026-09-04T16:35:11Z</time>
					</trkpt>
					<trkpt lat="50.310010" lon="4.383060">
						<ele>188</ele>
						<time>2026-09-04T16:35:15Z</time>
					</trkpt>
					<trkpt lat="50.310320" lon="4.384770">
						<ele>191</ele>
						<time>2026-09-04T16:35:36Z</time>
					</trkpt>
					<trkpt lat="50.310410" lon="4.385050">
						<ele>192</ele>
						<time>2026-09-04T16:35:39Z</time>
					</trkpt>
					<trkpt lat="50.310520" lon="4.385260">
						<ele>191</ele>
						<time>2026-09-04T16:35:42Z</time>
					</trkpt>
					<trkpt lat="50.310660" lon="4.385480">
						<ele>191</ele>
						<time>2026-09-04T16:35:46Z</time>
					</trkpt>
					<trkpt lat="50.310720" lon="4.385570">
						<ele>191</ele>
						<time>2026-09-04T16:35:47Z</time>
					</trkpt>
					<trkpt lat="50.311020" lon="4.385910">
						<ele>191</ele>
						<time>2026-09-04T16:35:54Z</time>
					</trkpt>
					<trkpt lat="50.312890" lon="4.387210">
						<ele>188</ele>
						<time>2026-09-04T16:36:30Z</time>
					</trkpt>
					<trkpt lat="50.313320" lon="4.387570">
						<ele>188</ele>
						<time>2026-09-04T16:36:39Z</time>
					</trkpt>
					<trkpt lat="50.313870" lon="4.388140">
						<ele>188</ele>
						<time>2026-09-04T16:36:51Z</time>
					</trkpt>
					<trkpt lat="50.314090" lon="4.388380">
						<ele>188</ele>
						<time>2026-09-04T16:36:55Z</time>
					</trkpt>
					<trkpt lat="50.314960" lon="4.389370">
						<ele>185</ele>
						<time>2026-09-04T16:37:15Z</time>
					</trkpt>
					<trkpt lat="50.315330" lon="4.389930">
						<ele>183</ele>
						<time>2026-09-04T16:37:24Z</time>
					</trkpt>
					<trkpt lat="50.315380" lon="4.390250">
						<ele>182</ele>
						<time>2026-09-04T16:37:27Z</time>
					</trkpt>
					<trkpt lat="50.315400" lon="4.390820">
						<ele>181</ele>
						<time>2026-09-04T16:37:34Z</time>
					</trkpt>
					<trkpt lat="50.315550" lon="4.391330">
						<ele>180</ele>
						<time>2026-09-04T16:37:40Z</time>
					</trkpt>
					<trkpt lat="50.316070" lon="4.391980">
						<ele>176</ele>
						<time>2026-09-04T16:37:52Z</time>
					</trkpt>
					<trkpt lat="50.316480" lon="4.392780">
						<ele>175</ele>
						<time>2026-09-04T16:38:04Z</time>
					</trkpt>
					<trkpt lat="50.316560" lon="4.393270">
						<ele>176</ele>
						<time>2026-09-04T16:38:10Z</time>
					</trkpt>
					<trkpt lat="50.316590" lon="4.394130">
						<ele>175</ele>
						<time>2026-09-04T16:38:19Z</time>
					</trkpt>
					<trkpt lat="50.316650" lon="4.394640">
						<ele>173</ele>
						<time>2026-09-04T16:38:25Z</time>
					</trkpt>
					<trkpt lat="50.316810" lon="4.395360">
						<ele>170</ele>
						<time>2026-09-04T16:38:34Z</time>
					</trkpt>
					<trkpt lat="50.317360" lon="4.397430">
						<ele>166</ele>
						<time>2026-09-04T16:38:59Z</time>
					</trkpt>
					<trkpt lat="50.317640" lon="4.398500">
						<ele>164</ele>
						<time>2026-09-04T16:39:12Z</time>
					</trkpt>
					<trkpt lat="50.317760" lon="4.399170">
						<ele>163</ele>
						<time>2026-09-04T16:39:20Z</time>
					</trkpt>
					<trkpt lat="50.317850" lon="4.400040">
						<ele>161</ele>
						<time>2026-09-04T16:39:30Z</time>
					</trkpt>
					<trkpt lat="50.317840" lon="4.400330">
						<ele>160</ele>
						<time>2026-09-04T16:39:34Z</time>
					</trkpt>
					<trkpt lat="50.317870" lon="4.400810">
						<ele>158</ele>
						<time>2026-09-04T16:39:39Z</time>
					</trkpt>
					<trkpt lat="50.317960" lon="4.401100">
						<ele>156</ele>
						<time>2026-09-04T16:39:43Z</time>
					</trkpt>
					<trkpt lat="50.318470" lon="4.402070">
						<ele>153</ele>
						<time>2026-09-04T16:39:57Z</time>
					</trkpt>
					<trkpt lat="50.318910" lon="4.402930">
						<ele>150</ele>
						<time>2026-09-04T16:40:10Z</time>
					</trkpt>
					<trkpt lat="50.319070" lon="4.403240">
						<ele>149</ele>
						<time>2026-09-04T16:40:14Z</time>
					</trkpt>
					<trkpt lat="50.319250" lon="4.403590">
						<ele>146</ele>
						<time>2026-09-04T16:40:19Z</time>
					</trkpt>
					<trkpt lat="50.319320" lon="4.403850">
						<ele>145</ele>
						<time>2026-09-04T16:40:22Z</time>
					</trkpt>
					<trkpt lat="50.319370" lon="4.404320">
						<ele>143</ele>
						<time>2026-09-04T16:40:28Z</time>
					</trkpt>
					<trkpt lat="50.319410" lon="4.404670">
						<ele>142</ele>
						<time>2026-09-04T16:40:32Z</time>
					</trkpt>
					<trkpt lat="50.319410" lon="4.404670">
						<ele>142</ele>
						<time>2026-09-04T16:40:32Z</time>
					</trkpt>
					<trkpt lat="50.319410" lon="4.404880">
						<ele>141</ele>
						<time>2026-09-04T16:40:34Z</time>
					</trkpt>
					<trkpt lat="50.319430" lon="4.405270">
						<ele>141</ele>
						<time>2026-09-04T16:40:39Z</time>
					</trkpt>
					<trkpt lat="50.319440" lon="4.405510">
						<ele>141</ele>
						<time>2026-09-04T16:40:41Z</time>
					</trkpt>
					<trkpt lat="50.319570" lon="4.406510">
						<ele>146</ele>
						<time>2026-09-04T16:40:53Z</time>
					</trkpt>
					<trkpt lat="50.319660" lon="4.406750">
						<ele>147</ele>
						<time>2026-09-04T16:40:56Z</time>
					</trkpt>
					<trkpt lat="50.319920" lon="4.407090">
						<ele>149</ele>
						<time>2026-09-04T16:41:02Z</time>
					</trkpt>
					<trkpt lat="50.320010" lon="4.407300">
						<ele>150</ele>
						<time>2026-09-04T16:41:05Z</time>
					</trkpt>
					<trkpt lat="50.320040" lon="4.407460">
						<ele>152</ele>
						<time>2026-09-04T16:41:07Z</time>
					</trkpt>
					<trkpt lat="50.320050" lon="4.407610">
						<ele>153</ele>
						<time>2026-09-04T16:41:09Z</time>
					</trkpt>
					<trkpt lat="50.320040" lon="4.407770">
						<ele>153</ele>
						<time>2026-09-04T16:41:11Z</time>
					</trkpt>
					<trkpt lat="50.319750" lon="4.408500">
						<ele>160</ele>
						<time>2026-09-04T16:41:20Z</time>
					</trkpt>
					<trkpt lat="50.319720" lon="4.408700">
						<ele>163</ele>
						<time>2026-09-04T16:41:23Z</time>
					</trkpt>
					<trkpt lat="50.319720" lon="4.408850">
						<ele>165</ele>
						<time>2026-09-04T16:41:24Z</time>
					</trkpt>
					<trkpt lat="50.319770" lon="4.409120">
						<ele>167</ele>
						<time>2026-09-04T16:41:28Z</time>
					</trkpt>
					<trkpt lat="50.319920" lon="4.409360">
						<ele>167</ele>
						<time>2026-09-04T16:41:31Z</time>
					</trkpt>
					<trkpt lat="50.320580" lon="4.410240">
						<ele>176</ele>
						<time>2026-09-04T16:41:47Z</time>
					</trkpt>
					<trkpt lat="50.321300" lon="4.411260">
						<ele>184</ele>
						<time>2026-09-04T16:42:04Z</time>
					</trkpt>
					<trkpt lat="50.321400" lon="4.411420">
						<ele>184</ele>
						<time>2026-09-04T16:42:07Z</time>
					</trkpt>
					<trkpt lat="50.321460" lon="4.411600">
						<ele>185</ele>
						<time>2026-09-04T16:42:09Z</time>
					</trkpt>
					<trkpt lat="50.321500" lon="4.411960">
						<ele>186</ele>
						<time>2026-09-04T16:42:13Z</time>
					</trkpt>
					<trkpt lat="50.321490" lon="4.412180">
						<ele>188</ele>
						<time>2026-09-04T16:42:16Z</time>
					</trkpt>
					<trkpt lat="50.321260" lon="4.413300">
						<ele>195</ele>
						<time>2026-09-04T16:42:29Z</time>
					</trkpt>
					<trkpt lat="50.320930" lon="4.414910">
						<ele>199</ele>
						<time>2026-09-04T16:42:48Z</time>
					</trkpt>
					<trkpt lat="50.320430" lon="4.417500">
						<ele>199</ele>
						<time>2026-09-04T16:43:19Z</time>
					</trkpt>
					<trkpt lat="50.319980" lon="4.419680">
						<ele>199</ele>
						<time>2026-09-04T16:43:45Z</time>
					</trkpt>
					<trkpt lat="50.319990" lon="4.420030">
						<ele>199</ele>
						<time>2026-09-04T16:43:49Z</time>
					</trkpt>
					<trkpt lat="50.320040" lon="4.420710">
						<ele>201</ele>
						<time>2026-09-04T16:43:57Z</time>
					</trkpt>
					<trkpt lat="50.320850" lon="4.423900">
						<ele>210</ele>
						<time>2026-09-04T16:44:36Z</time>
					</trkpt>
					<trkpt lat="50.320860" lon="4.424120">
						<ele>211</ele>
						<time>2026-09-04T16:44:38Z</time>
					</trkpt>
					<trkpt lat="50.320790" lon="4.426150">
						<ele>213</ele>
						<time>2026-09-04T16:45:01Z</time>
					</trkpt>
					<trkpt lat="50.320760" lon="4.426860">
						<ele>214</ele>
						<time>2026-09-04T16:45:09Z</time>
					</trkpt>
					<trkpt lat="50.320710" lon="4.427290">
						<ele>215</ele>
						<time>2026-09-04T16:45:14Z</time>
					</trkpt>
					<trkpt lat="50.320520" lon="4.428850">
						<ele>211</ele>
						<time>2026-09-04T16:45:32Z</time>
					</trkpt>
					<trkpt lat="50.320310" lon="4.430540">
						<ele>203</ele>
						<time>2026-09-04T16:45:52Z</time>
					</trkpt>
					<trkpt lat="50.320270" lon="4.431090">
						<ele>202</ele>
						<time>2026-09-04T16:45:58Z</time>
					</trkpt>
					<trkpt lat="50.320290" lon="4.431520">
						<ele>201</ele>
						<time>2026-09-04T16:46:03Z</time>
					</trkpt>
					<trkpt lat="50.320330" lon="4.431810">
						<ele>201</ele>
						<time>2026-09-04T16:46:07Z</time>
					</trkpt>
					<trkpt lat="50.320440" lon="4.432380">
						<ele>201</ele>
						<time>2026-09-04T16:46:13Z</time>
					</trkpt>
					<trkpt lat="50.321860" lon="4.440220">
						<ele>198</ele>
						<time>2026-09-04T16:47:46Z</time>
					</trkpt>
					<trkpt lat="50.321910" lon="4.440480">
						<ele>198</ele>
						<time>2026-09-04T16:47:49Z</time>
					</trkpt>
					<trkpt lat="50.322040" lon="4.441230">
						<ele>199</ele>
						<time>2026-09-04T16:47:58Z</time>
					</trkpt>
					<trkpt lat="50.322410" lon="4.443260">
						<ele>197</ele>
						<time>2026-09-04T16:48:22Z</time>
					</trkpt>
					<trkpt lat="50.322700" lon="4.443720">
						<ele>198</ele>
						<time>2026-09-04T16:48:29Z</time>
					</trkpt>
					<trkpt lat="50.323210" lon="4.444800">
						<ele>198</ele>
						<time>2026-09-04T16:48:44Z</time>
					</trkpt>
					<trkpt lat="50.323410" lon="4.445140">
						<ele>199</ele>
						<time>2026-09-04T16:48:50Z</time>
					</trkpt>
					<trkpt lat="50.323700" lon="4.445190">
						<ele>200</ele>
						<time>2026-09-04T16:48:55Z</time>
					</trkpt>
					<trkpt lat="50.323870" lon="4.445220">
						<ele>201</ele>
						<time>2026-09-04T16:48:58Z</time>
					</trkpt>
					<trkpt lat="50.323980" lon="4.445240">
						<ele>202</ele>
						<time>2026-09-04T16:49:00Z</time>
					</trkpt>
					<trkpt lat="50.324240" lon="4.445100">
						<ele>203</ele>
						<time>2026-09-04T16:49:05Z</time>
					</trkpt>
					<trkpt lat="50.324270" lon="4.445200">
						<ele>203</ele>
						<time>2026-09-04T16:49:06Z</time>
					</trkpt>
					<trkpt lat="50.324310" lon="4.445380">
						<ele>204</ele>
						<time>2026-09-04T16:49:08Z</time>
					</trkpt>
					<trkpt lat="50.324300" lon="4.445490">
						<ele>204</ele>
						<time>2026-09-04T16:49:09Z</time>
					</trkpt>
					<trkpt lat="50.324300" lon="4.445620">
						<ele>204</ele>
						<time>2026-09-04T16:49:11Z</time>
					</trkpt>
					<trkpt lat="50.324300" lon="4.445820">
						<ele>204</ele>
						<time>2026-09-04T16:49:13Z</time>
					</trkpt>
					<trkpt lat="50.324300" lon="4.446200">
						<ele>203</ele>
						<time>2026-09-04T16:49:17Z</time>
					</trkpt>
					<trkpt lat="50.324260" lon="4.446690">
						<ele>202</ele>
						<time>2026-09-04T16:49:23Z</time>
					</trkpt>
					<trkpt lat="50.324280" lon="4.446940">
						<ele>202</ele>
						<time>2026-09-04T16:49:26Z</time>
					</trkpt>
					<trkpt lat="50.324290" lon="4.447050">
						<ele>202</ele>
						<time>2026-09-04T16:49:27Z</time>
					</trkpt>
					<trkpt lat="50.324330" lon="4.447200">
						<ele>202</ele>
						<time>2026-09-04T16:49:29Z</time>
					</trkpt>
					<trkpt lat="50.324380" lon="4.447320">
						<ele>202</ele>
						<time>2026-09-04T16:49:31Z</time>
					</trkpt>
					<trkpt lat="50.324340" lon="4.447420">
						<ele>201</ele>
						<time>2026-09-04T16:49:32Z</time>
					</trkpt>
					<trkpt lat="50.324310" lon="4.447610">
						<ele>201</ele>
						<time>2026-09-04T16:49:34Z</time>
					</trkpt>
					<trkpt lat="50.324300" lon="4.447870">
						<ele>201</ele>
						<time>2026-09-04T16:49:37Z</time>
					</trkpt>
					<trkpt lat="50.324310" lon="4.448080">
						<ele>201</ele>
						<time>2026-09-04T16:49:40Z</time>
					</trkpt>
					<trkpt lat="50.324370" lon="4.448600">
						<ele>201</ele>
						<time>2026-09-04T16:49:46Z</time>
					</trkpt>
					<trkpt lat="50.324370" lon="4.448850">
						<ele>200</ele>
						<time>2026-09-04T16:49:48Z</time>
					</trkpt>
					<trkpt lat="50.324320" lon="4.449100">
						<ele>199</ele>
						<time>2026-09-04T16:49:51Z</time>
					</trkpt>
					<trkpt lat="50.324210" lon="4.449350">
						<ele>199</ele>
						<time>2026-09-04T16:49:55Z</time>
					</trkpt>
					<trkpt lat="50.324130" lon="4.449530">
						<ele>199</ele>
						<time>2026-09-04T16:49:57Z</time>
					</trkpt>
					<trkpt lat="50.323610" lon="4.450750">
						<ele>201</ele>
						<time>2026-09-04T16:50:14Z</time>
					</trkpt>
					<trkpt lat="50.323480" lon="4.450910">
						<ele>201</ele>
						<time>2026-09-04T16:50:17Z</time>
					</trkpt>
					<trkpt lat="50.323350" lon="4.451010">
						<ele>201</ele>
						<time>2026-09-04T16:50:20Z</time>
					</trkpt>
					<trkpt lat="50.322990" lon="4.451130">
						<ele>201</ele>
						<time>2026-09-04T16:50:26Z</time>
					</trkpt>
					<trkpt lat="50.322770" lon="4.451180">
						<ele>201</ele>
						<time>2026-09-04T16:50:30Z</time>
					</trkpt>
					<trkpt lat="50.322530" lon="4.451210">
						<ele>201</ele>
						<time>2026-09-04T16:50:34Z</time>
					</trkpt>
					<trkpt lat="50.322310" lon="4.451290">
						<ele>201</ele>
						<time>2026-09-04T16:50:38Z</time>
					</trkpt>
					<trkpt lat="50.322180" lon="4.451420">
						<ele>201</ele>
						<time>2026-09-04T16:50:41Z</time>
					</trkpt>
					<trkpt lat="50.321940" lon="4.451810">
						<ele>201</ele>
						<time>2026-09-04T16:50:47Z</time>
					</trkpt>
					<trkpt lat="50.321830" lon="4.452050">
						<ele>202</ele>
						<time>2026-09-04T16:50:51Z</time>
					</trkpt>
					<trkpt lat="50.321140" lon="4.453890">
						<ele>207</ele>
						<time>2026-09-04T16:51:15Z</time>
					</trkpt>
					<trkpt lat="50.320980" lon="4.454370">
						<ele>208</ele>
						<time>2026-09-04T16:51:21Z</time>
					</trkpt>
					<trkpt lat="50.320840" lon="4.454830">
						<ele>209</ele>
						<time>2026-09-04T16:51:27Z</time>
					</trkpt>
					<trkpt lat="50.320690" lon="4.455390">
						<ele>209</ele>
						<time>2026-09-04T16:51:34Z</time>
					</trkpt>
					<trkpt lat="50.320500" lon="4.456090">
						<ele>211</ele>
						<time>2026-09-04T16:51:42Z</time>
					</trkpt>
					<trkpt lat="50.320120" lon="4.457510">
						<ele>218</ele>
						<time>2026-09-04T16:52:00Z</time>
					</trkpt>
					<trkpt lat="50.320030" lon="4.457790">
						<ele>219</ele>
						<time>2026-09-04T16:52:03Z</time>
					</trkpt>
					<trkpt lat="50.319870" lon="4.458190">
						<ele>220</ele>
						<time>2026-09-04T16:52:09Z</time>
					</trkpt>
					<trkpt lat="50.319540" lon="4.458970">
						<ele>220</ele>
						<time>2026-09-04T16:52:19Z</time>
					</trkpt>
					<trkpt lat="50.319310" lon="4.459420">
						<ele>220</ele>
						<time>2026-09-04T16:52:26Z</time>
					</trkpt>
					<trkpt lat="50.318520" lon="4.460590">
						<ele>220</ele>
						<time>2026-09-04T16:52:45Z</time>
					</trkpt>
					<trkpt lat="50.318320" lon="4.460870">
						<ele>220</ele>
						<time>2026-09-04T16:52:50Z</time>
					</trkpt>
					<trkpt lat="50.317960" lon="4.461350">
						<ele>220</ele>
						<time>2026-09-04T16:52:58Z</time>
					</trkpt>
					<trkpt lat="50.317870" lon="4.461430">
						<ele>220</ele>
						<time>2026-09-04T16:53:00Z</time>
					</trkpt>
					<trkpt lat="50.317270" lon="4.461610">
						<ele>220</ele>
						<time>2026-09-04T16:53:11Z</time>
					</trkpt>
					<trkpt lat="50.316710" lon="4.461770">
						<ele>218</ele>
						<time>2026-09-04T16:53:21Z</time>
					</trkpt>
					<trkpt lat="50.315930" lon="4.462330">
						<ele>214</ele>
						<time>2026-09-04T16:53:37Z</time>
					</trkpt>
					<trkpt lat="50.315730" lon="4.462510">
						<ele>214</ele>
						<time>2026-09-04T16:53:41Z</time>
					</trkpt>
					<trkpt lat="50.315550" lon="4.462740">
						<ele>215</ele>
						<time>2026-09-04T16:53:45Z</time>
					</trkpt>
					<trkpt lat="50.315240" lon="4.463080">
						<ele>215</ele>
						<time>2026-09-04T16:53:52Z</time>
					</trkpt>
					<trkpt lat="50.315120" lon="4.463280">
						<ele>216</ele>
						<time>2026-09-04T16:53:55Z</time>
					</trkpt>
					<trkpt lat="50.314870" lon="4.463910">
						<ele>218</ele>
						<time>2026-09-04T16:54:03Z</time>
					</trkpt>
					<trkpt lat="50.314670" lon="4.464240">
						<ele>219</ele>
						<time>2026-09-04T16:54:08Z</time>
					</trkpt>
					<trkpt lat="50.314580" lon="4.464370">
						<ele>220</ele>
						<time>2026-09-04T16:54:10Z</time>
					</trkpt>
					<trkpt lat="50.314520" lon="4.464520">
						<ele>220</ele>
						<time>2026-09-04T16:54:12Z</time>
					</trkpt>
					<trkpt lat="50.314460" lon="4.464730">
						<ele>221</ele>
						<time>2026-09-04T16:54:15Z</time>
					</trkpt>
					<trkpt lat="50.314400" lon="4.464960">
						<ele>221</ele>
						<time>2026-09-04T16:54:18Z</time>
					</trkpt>
					<trkpt lat="50.314320" lon="4.465330">
						<ele>222</ele>
						<time>2026-09-04T16:54:22Z</time>
					</trkpt>
					<trkpt lat="50.314280" lon="4.465450">
						<ele>222</ele>
						<time>2026-09-04T16:54:24Z</time>
					</trkpt>
					<trkpt lat="50.313750" lon="4.466430">
						<ele>220</ele>
						<time>2026-09-04T16:54:38Z</time>
					</trkpt>
					<trkpt lat="50.313570" lon="4.466760">
						<ele>220</ele>
						<time>2026-09-04T16:54:43Z</time>
					</trkpt>
					<trkpt lat="50.313360" lon="4.467080">
						<ele>220</ele>
						<time>2026-09-04T16:54:49Z</time>
					</trkpt>
					<trkpt lat="50.313220" lon="4.467240">
						<ele>220</ele>
						<time>2026-09-04T16:54:52Z</time>
					</trkpt>
					<trkpt lat="50.312840" lon="4.467630">
						<ele>221</ele>
						<time>2026-09-04T16:55:00Z</time>
					</trkpt>
					<trkpt lat="50.312750" lon="4.467740">
						<ele>221</ele>
						<time>2026-09-04T16:55:02Z</time>
					</trkpt>
					<trkpt lat="50.311960" lon="4.468920">
						<ele>224</ele>
						<time>2026-09-04T16:55:21Z</time>
					</trkpt>
					<trkpt lat="50.311920" lon="4.468950">
						<ele>224</ele>
						<time>2026-09-04T16:55:22Z</time>
					</trkpt>
					<trkpt lat="50.311660" lon="4.469060">
						<ele>225</ele>
						<time>2026-09-04T16:55:27Z</time>
					</trkpt>
					<trkpt lat="50.311610" lon="4.469130">
						<ele>225</ele>
						<time>2026-09-04T16:55:28Z</time>
					</trkpt>
					<trkpt lat="50.311580" lon="4.469340">
						<ele>225</ele>
						<time>2026-09-04T16:55:30Z</time>
					</trkpt>
					<trkpt lat="50.311530" lon="4.470090">
						<ele>225</ele>
						<time>2026-09-04T16:55:39Z</time>
					</trkpt>
					<trkpt lat="50.311490" lon="4.470840">
						<ele>227</ele>
						<time>2026-09-04T16:55:48Z</time>
					</trkpt>
					<trkpt lat="50.311460" lon="4.472430">
						<ele>229</ele>
						<time>2026-09-04T16:56:06Z</time>
					</trkpt>
					<trkpt lat="50.311450" lon="4.472600">
						<ele>229</ele>
						<time>2026-09-04T16:56:08Z</time>
					</trkpt>
					<trkpt lat="50.311310" lon="4.474190">
						<ele>232</ele>
						<time>2026-09-04T16:56:26Z</time>
					</trkpt>
					<trkpt lat="50.311210" lon="4.475010">
						<ele>232</ele>
						<time>2026-09-04T16:56:35Z</time>
					</trkpt>
					<trkpt lat="50.310980" lon="4.476290">
						<ele>234</ele>
						<time>2026-09-04T16:56:50Z</time>
					</trkpt>
					<trkpt lat="50.310840" lon="4.477080">
						<ele>235</ele>
						<time>2026-09-04T16:57:00Z</time>
					</trkpt>
					<trkpt lat="50.310740" lon="4.479060">
						<ele>234</ele>
						<time>2026-09-04T16:57:22Z</time>
					</trkpt>
					<trkpt lat="50.310720" lon="4.479280">
						<ele>233</ele>
						<time>2026-09-04T16:57:25Z</time>
					</trkpt>
					<trkpt lat="50.310710" lon="4.479460">
						<ele>233</ele>
						<time>2026-09-04T16:57:27Z</time>
					</trkpt>
					<trkpt lat="50.310700" lon="4.479730">
						<ele>233</ele>
						<time>2026-09-04T16:57:30Z</time>
					</trkpt>
					<trkpt lat="50.310700" lon="4.479850">
						<ele>232</ele>
						<time>2026-09-04T16:57:31Z</time>
					</trkpt>
					<trkpt lat="50.310700" lon="4.479990">
						<ele>232</ele>
						<time>2026-09-04T16:57:33Z</time>
					</trkpt>
					<trkpt lat="50.310700" lon="4.480170">
						<ele>232</ele>
						<time>2026-09-04T16:57:35Z</time>
					</trkpt>
					<trkpt lat="50.310600" lon="4.483390">
						<ele>228</ele>
						<time>2026-09-04T16:58:12Z</time>
					</trkpt>
					<trkpt lat="50.310590" lon="4.483570">
						<ele>228</ele>
						<time>2026-09-04T16:58:14Z</time>
					</trkpt>
					<trkpt lat="50.310560" lon="4.483750">
						<ele>228</ele>
						<time>2026-09-04T16:58:16Z</time>
					</trkpt>
					<trkpt lat="50.310520" lon="4.483880">
						<ele>228</ele>
						<time>2026-09-04T16:58:17Z</time>
					</trkpt>
					<trkpt lat="50.310440" lon="4.484040">
						<ele>228</ele>
						<time>2026-09-04T16:58:20Z</time>
					</trkpt>
					<trkpt lat="50.309610" lon="4.485130">
						<ele>225</ele>
						<time>2026-09-04T16:58:39Z</time>
					</trkpt>
					<trkpt lat="50.309510" lon="4.485310">
						<ele>226</ele>
						<time>2026-09-04T16:58:42Z</time>
					</trkpt>
					<trkpt lat="50.309410" lon="4.485530">
						<ele>226</ele>
						<time>2026-09-04T16:58:45Z</time>
					</trkpt>
					<trkpt lat="50.309350" lon="4.485760">
						<ele>226</ele>
						<time>2026-09-04T16:58:48Z</time>
					</trkpt>
					<trkpt lat="50.309300" lon="4.486080">
						<ele>226</ele>
						<time>2026-09-04T16:58:51Z</time>
					</trkpt>
					<trkpt lat="50.309280" lon="4.486330">
						<ele>226</ele>
						<time>2026-09-04T16:58:54Z</time>
					</trkpt>
					<trkpt lat="50.309280" lon="4.486440">
						<ele>226</ele>
						<time>2026-09-04T16:58:55Z</time>
					</trkpt>
					<trkpt lat="50.309290" lon="4.486550">
						<ele>226</ele>
						<time>2026-09-04T16:58:57Z</time>
					</trkpt>
					<trkpt lat="50.309370" lon="4.486740">
						<ele>226</ele>
						<time>2026-09-04T16:58:59Z</time>
					</trkpt>
					<trkpt lat="50.309920" lon="4.487980">
						<ele>226</ele>
						<time>2026-09-04T16:59:16Z</time>
					</trkpt>
					<trkpt lat="50.310030" lon="4.488330">
						<ele>226</ele>
						<time>2026-09-04T16:59:21Z</time>
					</trkpt>
					<trkpt lat="50.310100" lon="4.488720">
						<ele>226</ele>
						<time>2026-09-04T16:59:25Z</time>
					</trkpt>
					<trkpt lat="50.310110" lon="4.488990">
						<ele>226</ele>
						<time>2026-09-04T16:59:29Z</time>
					</trkpt>
					<trkpt lat="50.310060" lon="4.489240">
						<ele>227</ele>
						<time>2026-09-04T16:59:31Z</time>
					</trkpt>
					<trkpt lat="50.309990" lon="4.489440">
						<ele>227</ele>
						<time>2026-09-04T16:59:34Z</time>
					</trkpt>
					<trkpt lat="50.309610" lon="4.490250">
						<ele>227</ele>
						<time>2026-09-04T16:59:45Z</time>
					</trkpt>
					<trkpt lat="50.309490" lon="4.490550">
						<ele>227</ele>
						<time>2026-09-04T16:59:50Z</time>
					</trkpt>
					<trkpt lat="50.308820" lon="4.491810">
						<ele>224</ele>
						<time>2026-09-04T17:00:08Z</time>
					</trkpt>
					<trkpt lat="50.308720" lon="4.492060">
						<ele>223</ele>
						<time>2026-09-04T17:00:12Z</time>
					</trkpt>
					<trkpt lat="50.308570" lon="4.492530">
						<ele>223</ele>
						<time>2026-09-04T17:00:17Z</time>
					</trkpt>
					<trkpt lat="50.308340" lon="4.493420">
						<ele>223</ele>
						<time>2026-09-04T17:00:28Z</time>
					</trkpt>
					<trkpt lat="50.308140" lon="4.494040">
						<ele>223</ele>
						<time>2026-09-04T17:00:36Z</time>
					</trkpt>
					<trkpt lat="50.307640" lon="4.495340">
						<ele>226</ele>
						<time>2026-09-04T17:00:54Z</time>
					</trkpt>
					<trkpt lat="50.307090" lon="4.496770">
						<ele>228</ele>
						<time>2026-09-04T17:01:12Z</time>
					</trkpt>
					<trkpt lat="50.307140" lon="4.496830">
						<ele>228</ele>
						<time>2026-09-04T17:01:14Z</time>
					</trkpt>
					<trkpt lat="50.307790" lon="4.497680">
						<ele>227</ele>
						<time>2026-09-04T17:01:29Z</time>
					</trkpt>
					<trkpt lat="50.308760" lon="4.499120">
						<ele>226</ele>
						<time>2026-09-04T17:01:52Z</time>
					</trkpt>
					<trkpt lat="50.309590" lon="4.500390">
						<ele>223</ele>
						<time>2026-09-04T17:02:13Z</time>
					</trkpt>
					<trkpt lat="50.309620" lon="4.500450">
						<ele>223</ele>
						<time>2026-09-04T17:02:14Z</time>
					</trkpt>
					<trkpt lat="50.309720" lon="4.500590">
						<ele>223</ele>
						<time>2026-09-04T17:02:16Z</time>
					</trkpt>
					<trkpt lat="50.309930" lon="4.502330">
						<ele>223</ele>
						<time>2026-09-04T17:02:36Z</time>
					</trkpt>
					<trkpt lat="50.309950" lon="4.502850">
						<ele>223</ele>
						<time>2026-09-04T17:02:42Z</time>
					</trkpt>
					<trkpt lat="50.310000" lon="4.506480">
						<ele>224</ele>
						<time>2026-09-04T17:03:24Z</time>
					</trkpt>
					<trkpt lat="50.310030" lon="4.508090">
						<ele>226</ele>
						<time>2026-09-04T17:03:42Z</time>
					</trkpt>
					<trkpt lat="50.310030" lon="4.508810">
						<ele>226</ele>
						<time>2026-09-04T17:03:50Z</time>
					</trkpt>
					<trkpt lat="50.310010" lon="4.509190">
						<ele>226</ele>
						<time>2026-09-04T17:03:54Z</time>
					</trkpt>
					<trkpt lat="50.309980" lon="4.509440">
						<ele>226</ele>
						<time>2026-09-04T17:03:57Z</time>
					</trkpt>
					<trkpt lat="50.309850" lon="4.510220">
						<ele>227</ele>
						<time>2026-09-04T17:04:07Z</time>
					</trkpt>
					<trkpt lat="50.309260" lon="4.513970">
						<ele>228</ele>
						<time>2026-09-04T17:04:50Z</time>
					</trkpt>
					<trkpt lat="50.309070" lon="4.514640">
						<ele>228</ele>
						<time>2026-09-04T17:04:59Z</time>
					</trkpt>
					<trkpt lat="50.308830" lon="4.515340">
						<ele>228</ele>
						<time>2026-09-04T17:05:08Z</time>
					</trkpt>
					<trkpt lat="50.307610" lon="4.518360">
						<ele>234</ele>
						<time>2026-09-04T17:05:48Z</time>
					</trkpt>
					<trkpt lat="50.307470" lon="4.518800">
						<ele>235</ele>
						<time>2026-09-04T17:05:54Z</time>
					</trkpt>
					<trkpt lat="50.307390" lon="4.519270">
						<ele>236</ele>
						<time>2026-09-04T17:05:59Z</time>
					</trkpt>
					<trkpt lat="50.307300" lon="4.519990">
						<ele>239</ele>
						<time>2026-09-04T17:06:08Z</time>
					</trkpt>
					<trkpt lat="50.307180" lon="4.520490">
						<ele>240</ele>
						<time>2026-09-04T17:06:14Z</time>
					</trkpt>
					<trkpt lat="50.306790" lon="4.522010">
						<ele>238</ele>
						<time>2026-09-04T17:06:33Z</time>
					</trkpt>
					<trkpt lat="50.306350" lon="4.523450">
						<ele>237</ele>
						<time>2026-09-04T17:06:51Z</time>
					</trkpt>
					<trkpt lat="50.305940" lon="4.524380">
						<ele>235</ele>
						<time>2026-09-04T17:07:03Z</time>
					</trkpt>
					<trkpt lat="50.305730" lon="4.525020">
						<ele>234</ele>
						<time>2026-09-04T17:07:12Z</time>
					</trkpt>
					<trkpt lat="50.305710" lon="4.525260">
						<ele>234</ele>
						<time>2026-09-04T17:07:14Z</time>
					</trkpt>
					<trkpt lat="50.306660" lon="4.527680">
						<ele>235</ele>
						<time>2026-09-04T17:07:47Z</time>
					</trkpt>
					<trkpt lat="50.306870" lon="4.528510">
						<ele>234</ele>
						<time>2026-09-04T17:07:57Z</time>
					</trkpt>
					<trkpt lat="50.307040" lon="4.529630">
						<ele>234</ele>
						<time>2026-09-04T17:08:10Z</time>
					</trkpt>
					<trkpt lat="50.307230" lon="4.531000">
						<ele>234</ele>
						<time>2026-09-04T17:08:26Z</time>
					</trkpt>
					<trkpt lat="50.307460" lon="4.533140">
						<ele>232</ele>
						<time>2026-09-04T17:08:51Z</time>
					</trkpt>
					<trkpt lat="50.307560" lon="4.534370">
						<ele>233</ele>
						<time>2026-09-04T17:09:05Z</time>
					</trkpt>
					<trkpt lat="50.307580" lon="4.534980">
						<ele>233</ele>
						<time>2026-09-04T17:09:12Z</time>
					</trkpt>
					<trkpt lat="50.307520" lon="4.536690">
						<ele>234</ele>
						<time>2026-09-04T17:09:31Z</time>
					</trkpt>
					<trkpt lat="50.307470" lon="4.537280">
						<ele>233</ele>
						<time>2026-09-04T17:09:38Z</time>
					</trkpt>
					<trkpt lat="50.307400" lon="4.537760">
						<ele>234</ele>
						<time>2026-09-04T17:09:43Z</time>
					</trkpt>
					<trkpt lat="50.307300" lon="4.538290">
						<ele>234</ele>
						<time>2026-09-04T17:09:50Z</time>
					</trkpt>
					<trkpt lat="50.307260" lon="4.538520">
						<ele>234</ele>
						<time>2026-09-04T17:09:52Z</time>
					</trkpt>
					<trkpt lat="50.307250" lon="4.538810">
						<ele>233</ele>
						<time>2026-09-04T17:09:56Z</time>
					</trkpt>
					<trkpt lat="50.307280" lon="4.539870">
						<ele>232</ele>
						<time>2026-09-04T17:10:08Z</time>
					</trkpt>
					<trkpt lat="50.307300" lon="4.540170">
						<ele>232</ele>
						<time>2026-09-04T17:10:11Z</time>
					</trkpt>
					<trkpt lat="50.307300" lon="4.540490">
						<ele>232</ele>
						<time>2026-09-04T17:10:15Z</time>
					</trkpt>
					<trkpt lat="50.307270" lon="4.540780">
						<ele>232</ele>
						<time>2026-09-04T17:10:18Z</time>
					</trkpt>
					<trkpt lat="50.307270" lon="4.541010">
						<ele>232</ele>
						<time>2026-09-04T17:10:21Z</time>
					</trkpt>
					<trkpt lat="50.307300" lon="4.541250">
						<ele>232</ele>
						<time>2026-09-04T17:10:24Z</time>
					</trkpt>
					<trkpt lat="50.307290" lon="4.541460">
						<ele>232</ele>
						<time>2026-09-04T17:10:26Z</time>
					</trkpt>
					<trkpt lat="50.307250" lon="4.542080">
						<ele>231</ele>
						<time>2026-09-04T17:10:33Z</time>
					</trkpt>
					<trkpt lat="50.307230" lon="4.542490">
						<ele>231</ele>
						<time>2026-09-04T17:10:38Z</time>
					</trkpt>
					<trkpt lat="50.307260" lon="4.542720">
						<ele>231</ele>
						<time>2026-09-04T17:10:40Z</time>
					</trkpt>
					<trkpt lat="50.305700" lon="4.544350">
						<ele>237</ele>
						<time>2026-09-04T17:11:14Z</time>
					</trkpt>
					<trkpt lat="50.304500" lon="4.545600">
						<ele>242</ele>
						<time>2026-09-04T17:11:39Z</time>
					</trkpt>
					<trkpt lat="50.301730" lon="4.548480">
						<ele>251</ele>
						<time>2026-09-04T17:12:39Z</time>
					</trkpt>
					<trkpt lat="50.298890" lon="4.551510">
						<ele>240</ele>
						<time>2026-09-04T17:13:40Z</time>
					</trkpt>
					<trkpt lat="50.298180" lon="4.552260">
						<ele>238</ele>
						<time>2026-09-04T17:13:55Z</time>
					</trkpt>
					<trkpt lat="50.298010" lon="4.552510">
						<ele>238</ele>
						<time>2026-09-04T17:13:59Z</time>
					</trkpt>
					<trkpt lat="50.297790" lon="4.552970">
						<ele>241</ele>
						<time>2026-09-04T17:14:06Z</time>
					</trkpt>
					<trkpt lat="50.296760" lon="4.555130">
						<ele>251</ele>
						<time>2026-09-04T17:14:36Z</time>
					</trkpt>
					<trkpt lat="50.296420" lon="4.555850">
						<ele>252</ele>
						<time>2026-09-04T17:14:46Z</time>
					</trkpt>
					<trkpt lat="50.296050" lon="4.556410">
						<ele>253</ele>
						<time>2026-09-04T17:14:56Z</time>
					</trkpt>
					<trkpt lat="50.295630" lon="4.557040">
						<ele>253</ele>
						<time>2026-09-04T17:15:06Z</time>
					</trkpt>
					<trkpt lat="50.295700" lon="4.557820">
						<ele>254</ele>
						<time>2026-09-04T17:15:15Z</time>
					</trkpt>
					<trkpt lat="50.295400" lon="4.558190">
						<ele>254</ele>
						<time>2026-09-04T17:15:22Z</time>
					</trkpt>
					<trkpt lat="50.295210" lon="4.558500">
						<ele>255</ele>
						<time>2026-09-04T17:15:27Z</time>
					</trkpt>
					<trkpt lat="50.295110" lon="4.558710">
						<ele>255</ele>
						<time>2026-09-04T17:15:30Z</time>
					</trkpt>
					<trkpt lat="50.294850" lon="4.559280">
						<ele>256</ele>
						<time>2026-09-04T17:15:37Z</time>
					</trkpt>
					<trkpt lat="50.294600" lon="4.560260">
						<ele>255</ele>
						<time>2026-09-04T17:15:49Z</time>
					</trkpt>
					<trkpt lat="50.294540" lon="4.560730">
						<ele>256</ele>
						<time>2026-09-04T17:15:55Z</time>
					</trkpt>
					<trkpt lat="50.294580" lon="4.561060">
						<ele>256</ele>
						<time>2026-09-04T17:15:59Z</time>
					</trkpt>
					<trkpt lat="50.294600" lon="4.561580">
						<ele>256</ele>
						<time>2026-09-04T17:16:05Z</time>
					</trkpt>
					<trkpt lat="50.294430" lon="4.562820">
						<ele>255</ele>
						<time>2026-09-04T17:16:19Z</time>
					</trkpt>
					<trkpt lat="50.294380" lon="4.563070">
						<ele>255</ele>
						<time>2026-09-04T17:16:22Z</time>
					</trkpt>
					<trkpt lat="50.294250" lon="4.563610">
						<ele>254</ele>
						<time>2026-09-04T17:16:29Z</time>
					</trkpt>
					<trkpt lat="50.293620" lon="4.566090">
						<ele>251</ele>
						<time>2026-09-04T17:16:59Z</time>
					</trkpt>
					<trkpt lat="50.293580" lon="4.566410">
						<ele>251</ele>
						<time>2026-09-04T17:17:03Z</time>
					</trkpt>
					<trkpt lat="50.293610" lon="4.566730">
						<ele>252</ele>
						<time>2026-09-04T17:17:06Z</time>
					</trkpt>
					<trkpt lat="50.293670" lon="4.567240">
						<ele>251</ele>
						<time>2026-09-04T17:17:12Z</time>
					</trkpt>
					<trkpt lat="50.293700" lon="4.567550">
						<ele>251</ele>
						<time>2026-09-04T17:17:16Z</time>
					</trkpt>
					<trkpt lat="50.293700" lon="4.567820">
						<ele>251</ele>
						<time>2026-09-04T17:17:19Z</time>
					</trkpt>
					<trkpt lat="50.293680" lon="4.568120">
						<ele>250</ele>
						<time>2026-09-04T17:17:22Z</time>
					</trkpt>
					<trkpt lat="50.293590" lon="4.568610">
						<ele>250</ele>
						<time>2026-09-04T17:17:28Z</time>
					</trkpt>
					<trkpt lat="50.293450" lon="4.569220">
						<ele>251</ele>
						<time>2026-09-04T17:17:35Z</time>
					</trkpt>
					<trkpt lat="50.293360" lon="4.569490">
						<ele>251</ele>
						<time>2026-09-04T17:17:39Z</time>
					</trkpt>
					<trkpt lat="50.293160" lon="4.569850">
						<ele>251</ele>
						<time>2026-09-04T17:17:44Z</time>
					</trkpt>
					<trkpt lat="50.292440" lon="4.570990">
						<ele>251</ele>
						<time>2026-09-04T17:18:03Z</time>
					</trkpt>
					<trkpt lat="50.292190" lon="4.571490">
						<ele>251</ele>
						<time>2026-09-04T17:18:10Z</time>
					</trkpt>
					<trkpt lat="50.291640" lon="4.572790">
						<ele>250</ele>
						<time>2026-09-04T17:18:27Z</time>
					</trkpt>
					<trkpt lat="50.291580" lon="4.572990">
						<ele>250</ele>
						<time>2026-09-04T17:18:30Z</time>
					</trkpt>
					<trkpt lat="50.291530" lon="4.573360">
						<ele>250</ele>
						<time>2026-09-04T17:18:34Z</time>
					</trkpt>
					<trkpt lat="50.291490" lon="4.574010">
						<ele>251</ele>
						<time>2026-09-04T17:18:42Z</time>
					</trkpt>
					<trkpt lat="50.291440" lon="4.574340">
						<ele>252</ele>
						<time>2026-09-04T17:18:46Z</time>
					</trkpt>
					<trkpt lat="50.291290" lon="4.574760">
						<ele>253</ele>
						<time>2026-09-04T17:18:51Z</time>
					</trkpt>
					<trkpt lat="50.291100" lon="4.575150">
						<ele>252</ele>
						<time>2026-09-04T17:18:57Z</time>
					</trkpt>
					<trkpt lat="50.290970" lon="4.575410">
						<ele>252</ele>
						<time>2026-09-04T17:19:00Z</time>
					</trkpt>
					<trkpt lat="50.290800" lon="4.575820">
						<ele>253</ele>
						<time>2026-09-04T17:19:06Z</time>
					</trkpt>
					<trkpt lat="50.290730" lon="4.576110">
						<ele>254</ele>
						<time>2026-09-04T17:19:09Z</time>
					</trkpt>
					<trkpt lat="50.290720" lon="4.576480">
						<ele>256</ele>
						<time>2026-09-04T17:19:14Z</time>
					</trkpt>
					<trkpt lat="50.290730" lon="4.577110">
						<ele>256</ele>
						<time>2026-09-04T17:19:21Z</time>
					</trkpt>
					<trkpt lat="50.290690" lon="4.577490">
						<ele>256</ele>
						<time>2026-09-04T17:19:25Z</time>
					</trkpt>
					<trkpt lat="50.290610" lon="4.578110">
						<ele>258</ele>
						<time>2026-09-04T17:19:32Z</time>
					</trkpt>
					<trkpt lat="50.290590" lon="4.578180">
						<ele>259</ele>
						<time>2026-09-04T17:19:33Z</time>
					</trkpt>
					<trkpt lat="50.290520" lon="4.578310">
						<ele>259</ele>
						<time>2026-09-04T17:19:35Z</time>
					</trkpt>
					<trkpt lat="50.290350" lon="4.578510">
						<ele>258</ele>
						<time>2026-09-04T17:19:39Z</time>
					</trkpt>
					<trkpt lat="50.290200" lon="4.578590">
						<ele>258</ele>
						<time>2026-09-04T17:19:42Z</time>
					</trkpt>
					<trkpt lat="50.289960" lon="4.578590">
						<ele>256</ele>
						<time>2026-09-04T17:19:46Z</time>
					</trkpt>
					<trkpt lat="50.289770" lon="4.578550">
						<ele>256</ele>
						<time>2026-09-04T17:19:49Z</time>
					</trkpt>
					<trkpt lat="50.289610" lon="4.578560">
						<ele>256</ele>
						<time>2026-09-04T17:19:52Z</time>
					</trkpt>
					<trkpt lat="50.289390" lon="4.578660">
						<ele>256</ele>
						<time>2026-09-04T17:19:56Z</time>
					</trkpt>
					<trkpt lat="50.289270" lon="4.578860">
						<ele>256</ele>
						<time>2026-09-04T17:20:00Z</time>
					</trkpt>
					<trkpt lat="50.288720" lon="4.581080">
						<ele>256</ele>
						<time>2026-09-04T17:20:27Z</time>
					</trkpt>
					<trkpt lat="50.288600" lon="4.581500">
						<ele>255</ele>
						<time>2026-09-04T17:20:32Z</time>
					</trkpt>
					<trkpt lat="50.288010" lon="4.583850">
						<ele>257</ele>
						<time>2026-09-04T17:21:01Z</time>
					</trkpt>
					<trkpt lat="50.288330" lon="4.585300">
						<ele>258</ele>
						<time>2026-09-04T17:21:18Z</time>
					</trkpt>
					<trkpt lat="50.288360" lon="4.585410">
						<ele>258</ele>
						<time>2026-09-04T17:21:19Z</time>
					</trkpt>
					<trkpt lat="50.289070" lon="4.588640">
						<ele>263</ele>
						<time>2026-09-04T17:21:58Z</time>
					</trkpt>
					<trkpt lat="50.289300" lon="4.589720">
						<ele>267</ele>
						<time>2026-09-04T17:22:11Z</time>
					</trkpt>
					<trkpt lat="50.290790" lon="4.596480">
						<ele>263</ele>
						<time>2026-09-04T17:23:32Z</time>
					</trkpt>
					<trkpt lat="50.292250" lon="4.603150">
						<ele>254</ele>
						<time>2026-09-04T17:24:53Z</time>
					</trkpt>
					<trkpt lat="50.292960" lon="4.606380">
						<ele>254</ele>
						<time>2026-09-04T17:25:31Z</time>
					</trkpt>
					<trkpt lat="50.293270" lon="4.606230">
						<ele>255</ele>
						<time>2026-09-04T17:25:37Z</time>
					</trkpt>
					<trkpt lat="50.293500" lon="4.606100">
						<ele>254</ele>
						<time>2026-09-04T17:25:42Z</time>
					</trkpt>
					<trkpt lat="50.293550" lon="4.606100">
						<ele>254</ele>
						<time>2026-09-04T17:25:42Z</time>
					</trkpt>
					<trkpt lat="50.293610" lon="4.606120">
						<ele>254</ele>
						<time>2026-09-04T17:25:43Z</time>
					</trkpt>
					<trkpt lat="50.293670" lon="4.606170">
						<ele>254</ele>
						<time>2026-09-04T17:25:45Z</time>
					</trkpt>
					<trkpt lat="50.293720" lon="4.606260">
						<ele>253</ele>
						<time>2026-09-04T17:25:46Z</time>
					</trkpt>
					<trkpt lat="50.293800" lon="4.606420">
						<ele>253</ele>
						<time>2026-09-04T17:25:48Z</time>
					</trkpt>
					<trkpt lat="50.294340" lon="4.607740">
						<ele>253</ele>
						<time>2026-09-04T17:26:06Z</time>
					</trkpt>
					<trkpt lat="50.294420" lon="4.607910">
						<ele>253</ele>
						<time>2026-09-04T17:26:09Z</time>
					</trkpt>
					<trkpt lat="50.294560" lon="4.608160">
						<ele>253</ele>
						<time>2026-09-04T17:26:12Z</time>
					</trkpt>
					<trkpt lat="50.294730" lon="4.608380">
						<ele>253</ele>
						<time>2026-09-04T17:26:16Z</time>
					</trkpt>
					<trkpt lat="50.294840" lon="4.608500">
						<ele>252</ele>
						<time>2026-09-04T17:26:19Z</time>
					</trkpt>
					<trkpt lat="50.294980" lon="4.608610">
						<ele>252</ele>
						<time>2026-09-04T17:26:21Z</time>
					</trkpt>
					<trkpt lat="50.295570" lon="4.608930">
						<ele>249</ele>
						<time>2026-09-04T17:26:33Z</time>
					</trkpt>
					<trkpt lat="50.295700" lon="4.609020">
						<ele>249</ele>
						<time>2026-09-04T17:26:35Z</time>
					</trkpt>
					<trkpt lat="50.295870" lon="4.609190">
						<ele>248</ele>
						<time>2026-09-04T17:26:39Z</time>
					</trkpt>
					<trkpt lat="50.296270" lon="4.609730">
						<ele>245</ele>
						<time>2026-09-04T17:26:48Z</time>
					</trkpt>
					<trkpt lat="50.296450" lon="4.610000">
						<ele>245</ele>
						<time>2026-09-04T17:26:53Z</time>
					</trkpt>
					<trkpt lat="50.296510" lon="4.610110">
						<ele>245</ele>
						<time>2026-09-04T17:26:54Z</time>
					</trkpt>
					<trkpt lat="50.296570" lon="4.610240">
						<ele>244</ele>
						<time>2026-09-04T17:26:56Z</time>
					</trkpt>
					<trkpt lat="50.296640" lon="4.610430">
						<ele>244</ele>
						<time>2026-09-04T17:26:58Z</time>
					</trkpt>
					<trkpt lat="50.296700" lon="4.610630">
						<ele>244</ele>
						<time>2026-09-04T17:27:01Z</time>
					</trkpt>
					<trkpt lat="50.296760" lon="4.610880">
						<ele>244</ele>
						<time>2026-09-04T17:27:04Z</time>
					</trkpt>
					<trkpt lat="50.296850" lon="4.611200">
						<ele>243</ele>
						<time>2026-09-04T17:27:08Z</time>
					</trkpt>
					<trkpt lat="50.297010" lon="4.611610">
						<ele>242</ele>
						<time>2026-09-04T17:27:13Z</time>
					</trkpt>
					<trkpt lat="50.297360" lon="4.612490">
						<ele>242</ele>
						<time>2026-09-04T17:27:25Z</time>
					</trkpt>
					<trkpt lat="50.298040" lon="4.613500">
						<ele>237</ele>
						<time>2026-09-04T17:27:42Z</time>
					</trkpt>
					<trkpt lat="50.298830" lon="4.614410">
						<ele>233</ele>
						<time>2026-09-04T17:27:59Z</time>
					</trkpt>
					<trkpt lat="50.299360" lon="4.614980">
						<ele>232</ele>
						<time>2026-09-04T17:28:11Z</time>
					</trkpt>
					<trkpt lat="50.299600" lon="4.615300">
						<ele>231</ele>
						<time>2026-09-04T17:28:16Z</time>
					</trkpt>
					<trkpt lat="50.299820" lon="4.615620">
						<ele>229</ele>
						<time>2026-09-04T17:28:22Z</time>
					</trkpt>
					<trkpt lat="50.299890" lon="4.615560">
						<ele>228</ele>
						<time>2026-09-04T17:28:23Z</time>
					</trkpt>
					<trkpt lat="50.300140" lon="4.615390">
						<ele>228</ele>
						<time>2026-09-04T17:28:28Z</time>
					</trkpt>
					<trkpt lat="50.300300" lon="4.615370">
						<ele>228</ele>
						<time>2026-09-04T17:28:31Z</time>
					</trkpt>
					<trkpt lat="50.300820" lon="4.615330">
						<ele>229</ele>
						<time>2026-09-04T17:28:40Z</time>
					</trkpt>
					<trkpt lat="50.301040" lon="4.615290">
						<ele>228</ele>
						<time>2026-09-04T17:28:44Z</time>
					</trkpt>
					<trkpt lat="50.301130" lon="4.615290">
						<ele>228</ele>
						<time>2026-09-04T17:28:46Z</time>
					</trkpt>
					<trkpt lat="50.301170" lon="4.615200">
						<ele>228</ele>
						<time>2026-09-04T17:28:47Z</time>
					</trkpt>
					<trkpt lat="50.301240" lon="4.615120">
						<ele>227</ele>
						<time>2026-09-04T17:28:48Z</time>
					</trkpt>
					<trkpt lat="50.301480" lon="4.614850">
						<ele>228</ele>
						<time>2026-09-04T17:28:54Z</time>
					</trkpt>
					<trkpt lat="50.301630" lon="4.614700">
						<ele>228</ele>
						<time>2026-09-04T17:28:57Z</time>
					</trkpt>
					<trkpt lat="50.301770" lon="4.614530">
						<ele>229</ele>
						<time>2026-09-04T17:29:00Z</time>
					</trkpt>
					<trkpt lat="50.301840" lon="4.614460">
						<ele>230</ele>
						<time>2026-09-04T17:29:02Z</time>
					</trkpt>
					<trkpt lat="50.301910" lon="4.614430">
						<ele>230</ele>
						<time>2026-09-04T17:29:03Z</time>
					</trkpt>
					<trkpt lat="50.302220" lon="4.614310">
						<ele>231</ele>
						<time>2026-09-04T17:29:09Z</time>
					</trkpt>
					<trkpt lat="50.303680" lon="4.613860">
						<ele>227</ele>
						<time>2026-09-04T17:29:35Z</time>
					</trkpt>
					<trkpt lat="50.303830" lon="4.613830">
						<ele>227</ele>
						<time>2026-09-04T17:29:38Z</time>
					</trkpt>
					<trkpt lat="50.304160" lon="4.613780">
						<ele>226</ele>
						<time>2026-09-04T17:29:44Z</time>
					</trkpt>
					<trkpt lat="50.304940" lon="4.613690">
						<ele>229</ele>
						<time>2026-09-04T17:29:57Z</time>
					</trkpt>
					<trkpt lat="50.305220" lon="4.613600">
						<ele>229</ele>
						<time>2026-09-04T17:30:03Z</time>
					</trkpt>
					<trkpt lat="50.305360" lon="4.613530">
						<ele>229</ele>
						<time>2026-09-04T17:30:05Z</time>
					</trkpt>
					<trkpt lat="50.305440" lon="4.613470">
						<ele>229</ele>
						<time>2026-09-04T17:30:07Z</time>
					</trkpt>
					<trkpt lat="50.305520" lon="4.613400">
						<ele>229</ele>
						<time>2026-09-04T17:30:08Z</time>
					</trkpt>
					<trkpt lat="50.305590" lon="4.613310">
						<ele>229</ele>
						<time>2026-09-04T17:30:10Z</time>
					</trkpt>
					<trkpt lat="50.305640" lon="4.613200">
						<ele>229</ele>
						<time>2026-09-04T17:30:12Z</time>
					</trkpt>
					<trkpt lat="50.305750" lon="4.612900">
						<ele>229</ele>
						<time>2026-09-04T17:30:15Z</time>
					</trkpt>
					<trkpt lat="50.305830" lon="4.612610">
						<ele>229</ele>
						<time>2026-09-04T17:30:19Z</time>
					</trkpt>
					<trkpt lat="50.305910" lon="4.612250">
						<ele>229</ele>
						<time>2026-09-04T17:30:23Z</time>
					</trkpt>
					<trkpt lat="50.305950" lon="4.612080">
						<ele>229</ele>
						<time>2026-09-04T17:30:25Z</time>
					</trkpt>
					<trkpt lat="50.306180" lon="4.611430">
						<ele>228</ele>
						<time>2026-09-04T17:30:34Z</time>
					</trkpt>
					<trkpt lat="50.306230" lon="4.611290">
						<ele>228</ele>
						<time>2026-09-04T17:30:36Z</time>
					</trkpt>
					<trkpt lat="50.306290" lon="4.611190">
						<ele>228</ele>
						<time>2026-09-04T17:30:37Z</time>
					</trkpt>
					<trkpt lat="50.306380" lon="4.611080">
						<ele>227</ele>
						<time>2026-09-04T17:30:39Z</time>
					</trkpt>
					<trkpt lat="50.307150" lon="4.610330">
						<ele>228</ele>
						<time>2026-09-04T17:30:55Z</time>
					</trkpt>
					<trkpt lat="50.307420" lon="4.610080">
						<ele>227</ele>
						<time>2026-09-04T17:31:01Z</time>
					</trkpt>
					<trkpt lat="50.307620" lon="4.609910">
						<ele>228</ele>
						<time>2026-09-04T17:31:05Z</time>
					</trkpt>
					<trkpt lat="50.307730" lon="4.609820">
						<ele>229</ele>
						<time>2026-09-04T17:31:07Z</time>
					</trkpt>
					<trkpt lat="50.307970" lon="4.609690">
						<ele>231</ele>
						<time>2026-09-04T17:31:12Z</time>
					</trkpt>
					<trkpt lat="50.309270" lon="4.609090">
						<ele>221</ele>
						<time>2026-09-04T17:31:36Z</time>
					</trkpt>
					<trkpt lat="50.309420" lon="4.609040">
						<ele>221</ele>
						<time>2026-09-04T17:31:39Z</time>
					</trkpt>
					<trkpt lat="50.309960" lon="4.608880">
						<ele>221</ele>
						<time>2026-09-04T17:31:48Z</time>
					</trkpt>
					<trkpt lat="50.310900" lon="4.608620">
						<ele>224</ele>
						<time>2026-09-04T17:32:05Z</time>
					</trkpt>
					<trkpt lat="50.312060" lon="4.608300">
						<ele>225</ele>
						<time>2026-09-04T17:32:26Z</time>
					</trkpt>
					<trkpt lat="50.312510" lon="4.608180">
						<ele>225</ele>
						<time>2026-09-04T17:32:35Z</time>
					</trkpt>
					<trkpt lat="50.312600" lon="4.608140">
						<ele>225</ele>
						<time>2026-09-04T17:32:36Z</time>
					</trkpt>
					<trkpt lat="50.312770" lon="4.608050">
						<ele>225</ele>
						<time>2026-09-04T17:32:39Z</time>
					</trkpt>
					<trkpt lat="50.312920" lon="4.607930">
						<ele>225</ele>
						<time>2026-09-04T17:32:42Z</time>
					</trkpt>
					<trkpt lat="50.313440" lon="4.607380">
						<ele>226</ele>
						<time>2026-09-04T17:32:54Z</time>
					</trkpt>
					<trkpt lat="50.313550" lon="4.607290">
						<ele>227</ele>
						<time>2026-09-04T17:32:56Z</time>
					</trkpt>
					<trkpt lat="50.313680" lon="4.607190">
						<ele>227</ele>
						<time>2026-09-04T17:32:58Z</time>
					</trkpt>
					<trkpt lat="50.313800" lon="4.607140">
						<ele>227</ele>
						<time>2026-09-04T17:33:01Z</time>
					</trkpt>
					<trkpt lat="50.313990" lon="4.607100">
						<ele>226</ele>
						<time>2026-09-04T17:33:04Z</time>
					</trkpt>
					<trkpt lat="50.314080" lon="4.607110">
						<ele>225</ele>
						<time>2026-09-04T17:33:06Z</time>
					</trkpt>
					<trkpt lat="50.314160" lon="4.607140">
						<ele>224</ele>
						<time>2026-09-04T17:33:07Z</time>
					</trkpt>
					<trkpt lat="50.314230" lon="4.607160">
						<ele>223</ele>
						<time>2026-09-04T17:33:08Z</time>
					</trkpt>
					<trkpt lat="50.314340" lon="4.607220">
						<ele>221</ele>
						<time>2026-09-04T17:33:10Z</time>
					</trkpt>
					<trkpt lat="50.314420" lon="4.607270">
						<ele>219</ele>
						<time>2026-09-04T17:33:12Z</time>
					</trkpt>
					<trkpt lat="50.314650" lon="4.607430">
						<ele>216</ele>
						<time>2026-09-04T17:33:16Z</time>
					</trkpt>
					<trkpt lat="50.314840" lon="4.607570">
						<ele>215</ele>
						<time>2026-09-04T17:33:20Z</time>
					</trkpt>
					<trkpt lat="50.315010" lon="4.607750">
						<ele>217</ele>
						<time>2026-09-04T17:33:24Z</time>
					</trkpt>
					<trkpt lat="50.315660" lon="4.608680">
						<ele>215</ele>
						<time>2026-09-04T17:33:39Z</time>
					</trkpt>
					<trkpt lat="50.315820" lon="4.608850">
						<ele>213</ele>
						<time>2026-09-04T17:33:43Z</time>
					</trkpt>
					<trkpt lat="50.316020" lon="4.608990">
						<ele>213</ele>
						<time>2026-09-04T17:33:47Z</time>
					</trkpt>
					<trkpt lat="50.316710" lon="4.609380">
						<ele>212</ele>
						<time>2026-09-04T17:34:00Z</time>
					</trkpt>
					<trkpt lat="50.317250" lon="4.609690">
						<ele>215</ele>
						<time>2026-09-04T17:34:10Z</time>
					</trkpt>
					<trkpt lat="50.318760" lon="4.610540">
						<ele>219</ele>
						<time>2026-09-04T17:34:39Z</time>
					</trkpt>
					<trkpt lat="50.319220" lon="4.610770">
						<ele>220</ele>
						<time>2026-09-04T17:34:47Z</time>
					</trkpt>
					<trkpt lat="50.319370" lon="4.610820">
						<ele>220</ele>
						<time>2026-09-04T17:34:50Z</time>
					</trkpt>
					<trkpt lat="50.319780" lon="4.610930">
						<ele>220</ele>
						<time>2026-09-04T17:34:57Z</time>
					</trkpt>
					<trkpt lat="50.321430" lon="4.611380">
						<ele>214</ele>
						<time>2026-09-04T17:35:27Z</time>
					</trkpt>
					<trkpt lat="50.322370" lon="4.611630">
						<ele>214</ele>
						<time>2026-09-04T17:35:44Z</time>
					</trkpt>
					<trkpt lat="50.322730" lon="4.611680">
						<ele>213</ele>
						<time>2026-09-04T17:35:50Z</time>
					</trkpt>
					<trkpt lat="50.322940" lon="4.611710">
						<ele>213</ele>
						<time>2026-09-04T17:35:54Z</time>
					</trkpt>
					<trkpt lat="50.323610" lon="4.611740">
						<ele>212</ele>
						<time>2026-09-04T17:36:06Z</time>
					</trkpt>
					<trkpt lat="50.323790" lon="4.611690">
						<ele>212</ele>
						<time>2026-09-04T17:36:09Z</time>
					</trkpt>
					<trkpt lat="50.323930" lon="4.611590">
						<ele>212</ele>
						<time>2026-09-04T17:36:12Z</time>
					</trkpt>
					<trkpt lat="50.324270" lon="4.611140">
						<ele>212</ele>
						<time>2026-09-04T17:36:20Z</time>
					</trkpt>
					<trkpt lat="50.324390" lon="4.611100">
						<ele>213</ele>
						<time>2026-09-04T17:36:22Z</time>
					</trkpt>
					<trkpt lat="50.324740" lon="4.611020">
						<ele>213</ele>
						<time>2026-09-04T17:36:29Z</time>
					</trkpt>
					<trkpt lat="50.325760" lon="4.610820">
						<ele>212</ele>
						<time>2026-09-04T17:36:47Z</time>
					</trkpt>
					<trkpt lat="50.325830" lon="4.610810">
						<ele>212</ele>
						<time>2026-09-04T17:36:48Z</time>
					</trkpt>
					<trkpt lat="50.328560" lon="4.610460">
						<ele>211</ele>
						<time>2026-09-04T17:37:37Z</time>
					</trkpt>
					<trkpt lat="50.328850" lon="4.610440">
						<ele>210</ele>
						<time>2026-09-04T17:37:42Z</time>
					</trkpt>
					<trkpt lat="50.329070" lon="4.610450">
						<ele>209</ele>
						<time>2026-09-04T17:37:46Z</time>
					</trkpt>
					<trkpt lat="50.329520" lon="4.610480">
						<ele>207</ele>
						<time>2026-09-04T17:37:54Z</time>
					</trkpt>
					<trkpt lat="50.329730" lon="4.610520">
						<ele>205</ele>
						<time>2026-09-04T17:37:58Z</time>
					</trkpt>
					<trkpt lat="50.329940" lon="4.610560">
						<ele>203</ele>
						<time>2026-09-04T17:38:01Z</time>
					</trkpt>
					<trkpt lat="50.330240" lon="4.610660">
						<ele>202</ele>
						<time>2026-09-04T17:38:07Z</time>
					</trkpt>
					<trkpt lat="50.330670" lon="4.610890">
						<ele>199</ele>
						<time>2026-09-04T17:38:15Z</time>
					</trkpt>
					<trkpt lat="50.330730" lon="4.610920">
						<ele>199</ele>
						<time>2026-09-04T17:38:16Z</time>
					</trkpt>
					<trkpt lat="50.330940" lon="4.611010">
						<ele>199</ele>
						<time>2026-09-04T17:38:20Z</time>
					</trkpt>
					<trkpt lat="50.331040" lon="4.611040">
						<ele>199</ele>
						<time>2026-09-04T17:38:22Z</time>
					</trkpt>
					<trkpt lat="50.331360" lon="4.611070">
						<ele>198</ele>
						<time>2026-09-04T17:38:28Z</time>
					</trkpt>
					<trkpt lat="50.331730" lon="4.611090">
						<ele>198</ele>
						<time>2026-09-04T17:38:34Z</time>
					</trkpt>
					<trkpt lat="50.332520" lon="4.611120">
						<ele>200</ele>
						<time>2026-09-04T17:38:48Z</time>
					</trkpt>
					<trkpt lat="50.332680" lon="4.611120">
						<ele>201</ele>
						<time>2026-09-04T17:38:51Z</time>
					</trkpt>
					<trkpt lat="50.332810" lon="4.611110">
						<ele>202</ele>
						<time>2026-09-04T17:38:53Z</time>
					</trkpt>
					<trkpt lat="50.332900" lon="4.611070">
						<ele>202</ele>
						<time>2026-09-04T17:38:55Z</time>
					</trkpt>
					<trkpt lat="50.333000" lon="4.610970">
						<ele>203</ele>
						<time>2026-09-04T17:38:57Z</time>
					</trkpt>
					<trkpt lat="50.333150" lon="4.610930">
						<ele>204</ele>
						<time>2026-09-04T17:39:00Z</time>
					</trkpt>
					<trkpt lat="50.333510" lon="4.610930">
						<ele>205</ele>
						<time>2026-09-04T17:39:06Z</time>
					</trkpt>
					<trkpt lat="50.333590" lon="4.610930">
						<ele>206</ele>
						<time>2026-09-04T17:39:08Z</time>
					</trkpt>
					<trkpt lat="50.333720" lon="4.610950">
						<ele>206</ele>
						<time>2026-09-04T17:39:10Z</time>
					</trkpt>
					<trkpt lat="50.333750" lon="4.610990">
						<ele>206</ele>
						<time>2026-09-04T17:39:11Z</time>
					</trkpt>
					<trkpt lat="50.333770" lon="4.610950">
						<ele>206</ele>
						<time>2026-09-04T17:39:11Z</time>
					</trkpt>
					<trkpt lat="50.333820" lon="4.610920">
						<ele>206</ele>
						<time>2026-09-04T17:39:12Z</time>
					</trkpt>
					<trkpt lat="50.334140" lon="4.610870">
						<ele>207</ele>
						<time>2026-09-04T17:39:18Z</time>
					</trkpt>
					<trkpt lat="50.334450" lon="4.610820">
						<ele>207</ele>
						<time>2026-09-04T17:39:23Z</time>
					</trkpt>
					<trkpt lat="50.334560" lon="4.610780">
						<ele>207</ele>
						<time>2026-09-04T17:39:25Z</time>
					</trkpt>
					<trkpt lat="50.334670" lon="4.610730">
						<ele>207</ele>
						<time>2026-09-04T17:39:27Z</time>
					</trkpt>
					<trkpt lat="50.334770" lon="4.610660">
						<ele>207</ele>
						<time>2026-09-04T17:39:29Z</time>
					</trkpt>
					<trkpt lat="50.335080" lon="4.610450">
						<ele>207</ele>
						<time>2026-09-04T17:39:35Z</time>
					</trkpt>
					<trkpt lat="50.335170" lon="4.610410">
						<ele>207</ele>
						<time>2026-09-04T17:39:37Z</time>
					</trkpt>
					<trkpt lat="50.335380" lon="4.610330">
						<ele>206</ele>
						<time>2026-09-04T17:39:41Z</time>
					</trkpt>
					<trkpt lat="50.335590" lon="4.610300">
						<ele>206</ele>
						<time>2026-09-04T17:39:45Z</time>
					</trkpt>
					<trkpt lat="50.335810" lon="4.610300">
						<ele>205</ele>
						<time>2026-09-04T17:39:49Z</time>
					</trkpt>
					<trkpt lat="50.335860" lon="4.610310">
						<ele>205</ele>
						<time>2026-09-04T17:39:50Z</time>
					</trkpt>
					<trkpt lat="50.336100" lon="4.610280">
						<ele>204</ele>
						<time>2026-09-04T17:39:54Z</time>
					</trkpt>
					<trkpt lat="50.336230" lon="4.610230">
						<ele>204</ele>
						<time>2026-09-04T17:39:56Z</time>
					</trkpt>
					<trkpt lat="50.336400" lon="4.610140">
						<ele>203</ele>
						<time>2026-09-04T17:39:59Z</time>
					</trkpt>
					<trkpt lat="50.336470" lon="4.610270">
						<ele>203</ele>
						<time>2026-09-04T17:40:01Z</time>
					</trkpt>
					<trkpt lat="50.336550" lon="4.610330">
						<ele>203</ele>
						<time>2026-09-04T17:40:03Z</time>
					</trkpt>
					<trkpt lat="50.336770" lon="4.610400">
						<ele>202</ele>
						<time>2026-09-04T17:40:07Z</time>
					</trkpt>
					<trkpt lat="50.337640" lon="4.610840">
						<ele>199</ele>
						<time>2026-09-04T17:40:23Z</time>
					</trkpt>
					<trkpt lat="50.337710" lon="4.610870">
						<ele>199</ele>
						<time>2026-09-04T17:40:24Z</time>
					</trkpt>
					<trkpt lat="50.338210" lon="4.611120">
						<ele>198</ele>
						<time>2026-09-04T17:40:34Z</time>
					</trkpt>
					<trkpt lat="50.338290" lon="4.611130">
						<ele>198</ele>
						<time>2026-09-04T17:40:35Z</time>
					</trkpt>
					<trkpt lat="50.338440" lon="4.611160">
						<ele>199</ele>
						<time>2026-09-04T17:40:38Z</time>
					</trkpt>
					<trkpt lat="50.338590" lon="4.611110">
						<ele>200</ele>
						<time>2026-09-04T17:40:41Z</time>
					</trkpt>
					<trkpt lat="50.338700" lon="4.611030">
						<ele>201</ele>
						<time>2026-09-04T17:40:43Z</time>
					</trkpt>
					<trkpt lat="50.338820" lon="4.610900">
						<ele>202</ele>
						<time>2026-09-04T17:40:45Z</time>
					</trkpt>
					<trkpt lat="50.339050" lon="4.610470">
						<ele>201</ele>
						<time>2026-09-04T17:40:52Z</time>
					</trkpt>
					<trkpt lat="50.339150" lon="4.610270">
						<ele>200</ele>
						<time>2026-09-04T17:40:55Z</time>
					</trkpt>
					<trkpt lat="50.339230" lon="4.610160">
						<ele>200</ele>
						<time>2026-09-04T17:40:57Z</time>
					</trkpt>
					<trkpt lat="50.339290" lon="4.610100">
						<ele>200</ele>
						<time>2026-09-04T17:40:58Z</time>
					</trkpt>
					<trkpt lat="50.339490" lon="4.610040">
						<ele>200</ele>
						<time>2026-09-04T17:41:01Z</time>
					</trkpt>
					<trkpt lat="50.339660" lon="4.610090">
						<ele>201</ele>
						<time>2026-09-04T17:41:05Z</time>
					</trkpt>
					<trkpt lat="50.339760" lon="4.610170">
						<ele>202</ele>
						<time>2026-09-04T17:41:07Z</time>
					</trkpt>
					<trkpt lat="50.339860" lon="4.610300">
						<ele>203</ele>
						<time>2026-09-04T17:41:09Z</time>
					</trkpt>
					<trkpt lat="50.341520" lon="4.612070">
						<ele>205</ele>
						<time>2026-09-04T17:41:45Z</time>
					</trkpt>
					<trkpt lat="50.341630" lon="4.612190">
						<ele>205</ele>
						<time>2026-09-04T17:41:47Z</time>
					</trkpt>
					<trkpt lat="50.341730" lon="4.612340">
						<ele>206</ele>
						<time>2026-09-04T17:41:49Z</time>
					</trkpt>
					<trkpt lat="50.341760" lon="4.612420">
						<ele>206</ele>
						<time>2026-09-04T17:41:50Z</time>
					</trkpt>
					<trkpt lat="50.341820" lon="4.612530">
						<ele>206</ele>
						<time>2026-09-04T17:41:52Z</time>
					</trkpt>
					<trkpt lat="50.342010" lon="4.613120">
						<ele>209</ele>
						<time>2026-09-04T17:42:00Z</time>
					</trkpt>
					<trkpt lat="50.342050" lon="4.613240">
						<ele>209</ele>
						<time>2026-09-04T17:42:01Z</time>
					</trkpt>
					<trkpt lat="50.342130" lon="4.613400">
						<ele>210</ele>
						<time>2026-09-04T17:42:03Z</time>
					</trkpt>
					<trkpt lat="50.342280" lon="4.613610">
						<ele>211</ele>
						<time>2026-09-04T17:42:07Z</time>
					</trkpt>
					<trkpt lat="50.342450" lon="4.613780">
						<ele>212</ele>
						<time>2026-09-04T17:42:11Z</time>
					</trkpt>
					<trkpt lat="50.342570" lon="4.613880">
						<ele>212</ele>
						<time>2026-09-04T17:42:13Z</time>
					</trkpt>
					<trkpt lat="50.343330" lon="4.614610">
						<ele>218</ele>
						<time>2026-09-04T17:42:29Z</time>
					</trkpt>
					<trkpt lat="50.343430" lon="4.614720">
						<ele>219</ele>
						<time>2026-09-04T17:42:31Z</time>
					</trkpt>
					<trkpt lat="50.343430" lon="4.614740">
						<ele>219</ele>
						<time>2026-09-04T17:42:31Z</time>
					</trkpt>
					<trkpt lat="50.343400" lon="4.614780">
						<ele>219</ele>
						<time>2026-09-04T17:42:32Z</time>
					</trkpt>
					<trkpt lat="50.343390" lon="4.614810">
						<ele>219</ele>
						<time>2026-09-04T17:42:32Z</time>
					</trkpt>
					<trkpt lat="50.343380" lon="4.614840">
						<ele>219</ele>
						<time>2026-09-04T17:42:33Z</time>
					</trkpt>
					<trkpt lat="50.343390" lon="4.614900">
						<ele>220</ele>
						<time>2026-09-04T17:42:33Z</time>
					</trkpt>
					<trkpt lat="50.343420" lon="4.614950">
						<ele>220</ele>
						<time>2026-09-04T17:42:34Z</time>
					</trkpt>
					<trkpt lat="50.343470" lon="4.614960">
						<ele>220</ele>
						<time>2026-09-04T17:42:35Z</time>
					</trkpt>
					<trkpt lat="50.343470" lon="4.615030">
						<ele>221</ele>
						<time>2026-09-04T17:42:36Z</time>
					</trkpt>
					<trkpt lat="50.343400" lon="4.615820">
						<ele>222</ele>
						<time>2026-09-04T17:42:45Z</time>
					</trkpt>
					<trkpt lat="50.343300" lon="4.616950">
						<ele>225</ele>
						<time>2026-09-04T17:42:58Z</time>
					</trkpt>
					<trkpt lat="50.343290" lon="4.617120">
						<ele>226</ele>
						<time>2026-09-04T17:43:00Z</time>
					</trkpt>
					<trkpt lat="50.343120" lon="4.618570">
						<ele>231</ele>
						<time>2026-09-04T17:43:17Z</time>
					</trkpt>
					<trkpt lat="50.342840" lon="4.620820">
						<ele>234</ele>
						<time>2026-09-04T17:43:43Z</time>
					</trkpt>
					<trkpt lat="50.342820" lon="4.621510">
						<ele>235</ele>
						<time>2026-09-04T17:43:50Z</time>
					</trkpt>
					<trkpt lat="50.342810" lon="4.623090">
						<ele>240</ele>
						<time>2026-09-04T17:44:08Z</time>
					</trkpt>
					<trkpt lat="50.342750" lon="4.623610">
						<ele>241</ele>
						<time>2026-09-04T17:44:14Z</time>
					</trkpt>
					<trkpt lat="50.342570" lon="4.625070">
						<ele>243</ele>
						<time>2026-09-04T17:44:31Z</time>
					</trkpt>
					<trkpt lat="50.342550" lon="4.625370">
						<ele>243</ele>
						<time>2026-09-04T17:44:35Z</time>
					</trkpt>
					<trkpt lat="50.342530" lon="4.626200">
						<ele>245</ele>
						<time>2026-09-04T17:44:44Z</time>
					</trkpt>
					<trkpt lat="50.342520" lon="4.628250">
						<ele>249</ele>
						<time>2026-09-04T17:45:07Z</time>
					</trkpt>
					<trkpt lat="50.342530" lon="4.628520">
						<ele>250</ele>
						<time>2026-09-04T17:45:11Z</time>
					</trkpt>
					<trkpt lat="50.342550" lon="4.628730">
						<ele>250</ele>
						<time>2026-09-04T17:45:13Z</time>
					</trkpt>
					<trkpt lat="50.342580" lon="4.628940">
						<ele>251</ele>
						<time>2026-09-04T17:45:15Z</time>
					</trkpt>
					<trkpt lat="50.342640" lon="4.629140">
						<ele>251</ele>
						<time>2026-09-04T17:45:18Z</time>
					</trkpt>
					<trkpt lat="50.342710" lon="4.629340">
						<ele>252</ele>
						<time>2026-09-04T17:45:20Z</time>
					</trkpt>
					<trkpt lat="50.343040" lon="4.630190">
						<ele>255</ele>
						<time>2026-09-04T17:45:32Z</time>
					</trkpt>
					<trkpt lat="50.343330" lon="4.630980">
						<ele>257</ele>
						<time>2026-09-04T17:45:42Z</time>
					</trkpt>
					<trkpt lat="50.343840" lon="4.632320">
						<ele>261</ele>
						<time>2026-09-04T17:46:00Z</time>
					</trkpt>
					<trkpt lat="50.343870" lon="4.632390">
						<ele>261</ele>
						<time>2026-09-04T17:46:01Z</time>
					</trkpt>
					<trkpt lat="50.344930" lon="4.635130">
						<ele>268</ele>
						<time>2026-09-04T17:46:37Z</time>
					</trkpt>
					<trkpt lat="50.345270" lon="4.635800">
						<ele>269</ele>
						<time>2026-09-04T17:46:47Z</time>
					</trkpt>
					<trkpt lat="50.345310" lon="4.635920">
						<ele>269</ele>
						<time>2026-09-04T17:46:48Z</time>
					</trkpt>
					<trkpt lat="50.345410" lon="4.636180">
						<ele>269</ele>
						<time>2026-09-04T17:46:52Z</time>
					</trkpt>
					<trkpt lat="50.345460" lon="4.636460">
						<ele>269</ele>
						<time>2026-09-04T17:46:55Z</time>
					</trkpt>
					<trkpt lat="50.345600" lon="4.636910">
						<ele>269</ele>
						<time>2026-09-04T17:47:01Z</time>
					</trkpt>
					<trkpt lat="50.345730" lon="4.637240">
						<ele>268</ele>
						<time>2026-09-04T17:47:05Z</time>
					</trkpt>
					<trkpt lat="50.346550" lon="4.638970">
						<ele>264</ele>
						<time>2026-09-04T17:47:30Z</time>
					</trkpt>
					<trkpt lat="50.346650" lon="4.639190">
						<ele>263</ele>
						<time>2026-09-04T17:47:33Z</time>
					</trkpt>
					<trkpt lat="50.346780" lon="4.639410">
						<ele>263</ele>
						<time>2026-09-04T17:47:36Z</time>
					</trkpt>
					<trkpt lat="50.346950" lon="4.639610">
						<ele>262</ele>
						<time>2026-09-04T17:47:40Z</time>
					</trkpt>
					<trkpt lat="50.347150" lon="4.639830">
						<ele>262</ele>
						<time>2026-09-04T17:47:44Z</time>
					</trkpt>
					<trkpt lat="50.347320" lon="4.640000">
						<ele>261</ele>
						<time>2026-09-04T17:47:48Z</time>
					</trkpt>
					<trkpt lat="50.347680" lon="4.640380">
						<ele>260</ele>
						<time>2026-09-04T17:47:56Z</time>
					</trkpt>
					<trkpt lat="50.347780" lon="4.640500">
						<ele>259</ele>
						<time>2026-09-04T17:47:58Z</time>
					</trkpt>
					<trkpt lat="50.347860" lon="4.640640">
						<ele>259</ele>
						<time>2026-09-04T17:48:00Z</time>
					</trkpt>
					<trkpt lat="50.348210" lon="4.641300">
						<ele>257</ele>
						<time>2026-09-04T17:48:10Z</time>
					</trkpt>
					<trkpt lat="50.348420" lon="4.641720">
						<ele>257</ele>
						<time>2026-09-04T17:48:16Z</time>
					</trkpt>
					<trkpt lat="50.348520" lon="4.641930">
						<ele>257</ele>
						<time>2026-09-04T17:48:19Z</time>
					</trkpt>
					<trkpt lat="50.348740" lon="4.642390">
						<ele>256</ele>
						<time>2026-09-04T17:48:25Z</time>
					</trkpt>
					<trkpt lat="50.348950" lon="4.643030">
						<ele>256</ele>
						<time>2026-09-04T17:48:34Z</time>
					</trkpt>
					<trkpt lat="50.349130" lon="4.643350">
						<ele>255</ele>
						<time>2026-09-04T17:48:38Z</time>
					</trkpt>
					<trkpt lat="50.349270" lon="4.643540">
						<ele>255</ele>
						<time>2026-09-04T17:48:42Z</time>
					</trkpt>
					<trkpt lat="50.349410" lon="4.643740">
						<ele>254</ele>
						<time>2026-09-04T17:48:45Z</time>
					</trkpt>
					<trkpt lat="50.349480" lon="4.643890">
						<ele>254</ele>
						<time>2026-09-04T17:48:47Z</time>
					</trkpt>
					<trkpt lat="50.349770" lon="4.644720">
						<ele>252</ele>
						<time>2026-09-04T17:48:58Z</time>
					</trkpt>
					<trkpt lat="50.349860" lon="4.644910">
						<ele>252</ele>
						<time>2026-09-04T17:49:01Z</time>
					</trkpt>
					<trkpt lat="50.350140" lon="4.645340">
						<ele>252</ele>
						<time>2026-09-04T17:49:08Z</time>
					</trkpt>
					<trkpt lat="50.350180" lon="4.645390">
						<ele>252</ele>
						<time>2026-09-04T17:49:08Z</time>
					</trkpt>
					<trkpt lat="50.350270" lon="4.645530">
						<ele>252</ele>
						<time>2026-09-04T17:49:11Z</time>
					</trkpt>
					<trkpt lat="50.350460" lon="4.645500">
						<ele>252</ele>
						<time>2026-09-04T17:49:14Z</time>
					</trkpt>
					<trkpt lat="50.350810" lon="4.645680">
						<ele>253</ele>
						<time>2026-09-04T17:49:21Z</time>
					</trkpt>
					<trkpt lat="50.351260" lon="4.645880">
						<ele>256</ele>
						<time>2026-09-04T17:49:29Z</time>
					</trkpt>
					<trkpt lat="50.352290" lon="4.646370">
						<ele>260</ele>
						<time>2026-09-04T17:49:48Z</time>
					</trkpt>
					<trkpt lat="50.352350" lon="4.646420">
						<ele>260</ele>
						<time>2026-09-04T17:49:49Z</time>
					</trkpt>
					<trkpt lat="50.352390" lon="4.646480">
						<ele>261</ele>
						<time>2026-09-04T17:49:50Z</time>
					</trkpt>
					<trkpt lat="50.352410" lon="4.646570">
						<ele>261</ele>
						<time>2026-09-04T17:49:51Z</time>
					</trkpt>
					<trkpt lat="50.352420" lon="4.646690">
						<ele>261</ele>
						<time>2026-09-04T17:49:53Z</time>
					</trkpt>
					<trkpt lat="50.352420" lon="4.647320">
						<ele>260</ele>
						<time>2026-09-04T17:50:00Z</time>
					</trkpt>
					<trkpt lat="50.352430" lon="4.648120">
						<ele>260</ele>
						<time>2026-09-04T17:50:09Z</time>
					</trkpt>
					<trkpt lat="50.352750" lon="4.647960">
						<ele>261</ele>
						<time>2026-09-04T17:50:15Z</time>
					</trkpt>
					<trkpt lat="50.353030" lon="4.647930">
						<ele>262</ele>
						<time>2026-09-04T17:50:20Z</time>
					</trkpt>
					<trkpt lat="50.353100" lon="4.647930">
						<ele>263</ele>
						<time>2026-09-04T17:50:21Z</time>
					</trkpt>
					<trkpt lat="50.353170" lon="4.647940">
						<ele>263</ele>
						<time>2026-09-04T17:50:22Z</time>
					</trkpt>
					<trkpt lat="50.353340" lon="4.647980">
						<ele>264</ele>
						<time>2026-09-04T17:50:26Z</time>
					</trkpt>
					<trkpt lat="50.353500" lon="4.648040">
						<ele>265</ele>
						<time>2026-09-04T17:50:28Z</time>
					</trkpt>
					<trkpt lat="50.354390" lon="4.648430">
						<ele>267</ele>
						<time>2026-09-04T17:50:45Z</time>
					</trkpt>
					<trkpt lat="50.354890" lon="4.648600">
						<ele>265</ele>
						<time>2026-09-04T17:50:54Z</time>
					</trkpt>
					<trkpt lat="50.355110" lon="4.648640">
						<ele>264</ele>
						<time>2026-09-04T17:50:58Z</time>
					</trkpt>
					<trkpt lat="50.355200" lon="4.648620">
						<ele>264</ele>
						<time>2026-09-04T17:51:00Z</time>
					</trkpt>
					<trkpt lat="50.355420" lon="4.648490">
						<ele>264</ele>
						<time>2026-09-04T17:51:04Z</time>
					</trkpt>
					<trkpt lat="50.355630" lon="4.648250">
						<ele>264</ele>
						<time>2026-09-04T17:51:08Z</time>
					</trkpt>
					<trkpt lat="50.356110" lon="4.647690">
						<ele>263</ele>
						<time>2026-09-04T17:51:19Z</time>
					</trkpt>
					<trkpt lat="50.356650" lon="4.647200">
						<ele>265</ele>
						<time>2026-09-04T17:51:30Z</time>
					</trkpt>
					<trkpt lat="50.356940" lon="4.646940">
						<ele>265</ele>
						<time>2026-09-04T17:51:36Z</time>
					</trkpt>
					<trkpt lat="50.357260" lon="4.646660">
						<ele>265</ele>
						<time>2026-09-04T17:51:43Z</time>
					</trkpt>
					<trkpt lat="50.357990" lon="4.645990">
						<ele>264</ele>
						<time>2026-09-04T17:51:58Z</time>
					</trkpt>
					<trkpt lat="50.358410" lon="4.645560">
						<ele>265</ele>
						<time>2026-09-04T17:52:07Z</time>
					</trkpt>
					<trkpt lat="50.360870" lon="4.642900">
						<ele>258</ele>
						<time>2026-09-04T17:53:00Z</time>
					</trkpt>
					<trkpt lat="50.362580" lon="4.641030">
						<ele>254</ele>
						<time>2026-09-04T17:53:37Z</time>
					</trkpt>
					<trkpt lat="50.363410" lon="4.640160">
						<ele>256</ele>
						<time>2026-09-04T17:53:55Z</time>
					</trkpt>
					<trkpt lat="50.363640" lon="4.639850">
						<ele>256</ele>
						<time>2026-09-04T17:54:00Z</time>
					</trkpt>
					<trkpt lat="50.364230" lon="4.638720">
						<ele>253</ele>
						<time>2026-09-04T17:54:17Z</time>
					</trkpt>
					<trkpt lat="50.364350" lon="4.638440">
						<ele>252</ele>
						<time>2026-09-04T17:54:20Z</time>
					</trkpt>
					<trkpt lat="50.364680" lon="4.637370">
						<ele>247</ele>
						<time>2026-09-04T17:54:34Z</time>
					</trkpt>
					<trkpt lat="50.365110" lon="4.635950">
						<ele>244</ele>
						<time>2026-09-04T17:54:52Z</time>
					</trkpt>
					<trkpt lat="50.366390" lon="4.631860">
						<ele>240</ele>
						<time>2026-09-04T17:55:43Z</time>
					</trkpt>
					<trkpt lat="50.366500" lon="4.631620">
						<ele>240</ele>
						<time>2026-09-04T17:55:47Z</time>
					</trkpt>
					<trkpt lat="50.366570" lon="4.631490">
						<ele>240</ele>
						<time>2026-09-04T17:55:49Z</time>
					</trkpt>
					<trkpt lat="50.366660" lon="4.631350">
						<ele>240</ele>
						<time>2026-09-04T17:55:51Z</time>
					</trkpt>
					<trkpt lat="50.366780" lon="4.631210">
						<ele>240</ele>
						<time>2026-09-04T17:55:54Z</time>
					</trkpt>
					<trkpt lat="50.367080" lon="4.630950">
						<ele>238</ele>
						<time>2026-09-04T17:56:00Z</time>
					</trkpt>
					<trkpt lat="50.367150" lon="4.630870">
						<ele>238</ele>
						<time>2026-09-04T17:56:01Z</time>
					</trkpt>
					<trkpt lat="50.367310" lon="4.630610">
						<ele>237</ele>
						<time>2026-09-04T17:56:05Z</time>
					</trkpt>
					<trkpt lat="50.368420" lon="4.628610">
						<ele>236</ele>
						<time>2026-09-04T17:56:35Z</time>
					</trkpt>
					<trkpt lat="50.368920" lon="4.627680">
						<ele>236</ele>
						<time>2026-09-04T17:56:49Z</time>
					</trkpt>
					<trkpt lat="50.369000" lon="4.627560">
						<ele>235</ele>
						<time>2026-09-04T17:56:51Z</time>
					</trkpt>
					<trkpt lat="50.369090" lon="4.627440">
						<ele>236</ele>
						<time>2026-09-04T17:56:53Z</time>
					</trkpt>
					<trkpt lat="50.369180" lon="4.627360">
						<ele>236</ele>
						<time>2026-09-04T17:56:55Z</time>
					</trkpt>
					<trkpt lat="50.369320" lon="4.627270">
						<ele>237</ele>
						<time>2026-09-04T17:56:58Z</time>
					</trkpt>
					<trkpt lat="50.369670" lon="4.627100">
						<ele>238</ele>
						<time>2026-09-04T17:57:04Z</time>
					</trkpt>
					<trkpt lat="50.369790" lon="4.627070">
						<ele>238</ele>
						<time>2026-09-04T17:57:07Z</time>
					</trkpt>
					<trkpt lat="50.370110" lon="4.627040">
						<ele>238</ele>
						<time>2026-09-04T17:57:12Z</time>
					</trkpt>
					<trkpt lat="50.370200" lon="4.627020">
						<ele>238</ele>
						<time>2026-09-04T17:57:14Z</time>
					</trkpt>
					<trkpt lat="50.370880" lon="4.626800">
						<ele>237</ele>
						<time>2026-09-04T17:57:26Z</time>
					</trkpt>
					<trkpt lat="50.371010" lon="4.626760">
						<ele>238</ele>
						<time>2026-09-04T17:57:29Z</time>
					</trkpt>
					<trkpt lat="50.371120" lon="4.626750">
						<ele>238</ele>
						<time>2026-09-04T17:57:31Z</time>
					</trkpt>
					<trkpt lat="50.371530" lon="4.626790">
						<ele>239</ele>
						<time>2026-09-04T17:57:38Z</time>
					</trkpt>
					<trkpt lat="50.372830" lon="4.626930">
						<ele>238</ele>
						<time>2026-09-04T17:58:01Z</time>
					</trkpt>
					<trkpt lat="50.372980" lon="4.626930">
						<ele>237</ele>
						<time>2026-09-04T17:58:04Z</time>
					</trkpt>
					<trkpt lat="50.373160" lon="4.626890">
						<ele>237</ele>
						<time>2026-09-04T17:58:07Z</time>
					</trkpt>
					<trkpt lat="50.373480" lon="4.626810">
						<ele>237</ele>
						<time>2026-09-04T17:58:13Z</time>
					</trkpt>
					<trkpt lat="50.374070" lon="4.626650">
						<ele>236</ele>
						<time>2026-09-04T17:58:23Z</time>
					</trkpt>
					<trkpt lat="50.375290" lon="4.626290">
						<ele>236</ele>
						<time>2026-09-04T17:58:45Z</time>
					</trkpt>
					<trkpt lat="50.375390" lon="4.626280">
						<ele>236</ele>
						<time>2026-09-04T17:58:47Z</time>
					</trkpt>
					<trkpt lat="50.375450" lon="4.626300">
						<ele>236</ele>
						<time>2026-09-04T17:58:48Z</time>
					</trkpt>
					<trkpt lat="50.375770" lon="4.626520">
						<ele>235</ele>
						<time>2026-09-04T17:58:55Z</time>
					</trkpt>
					<trkpt lat="50.376580" lon="4.627160">
						<ele>234</ele>
						<time>2026-09-04T17:59:11Z</time>
					</trkpt>
					<trkpt lat="50.376840" lon="4.627390">
						<ele>234</ele>
						<time>2026-09-04T17:59:16Z</time>
					</trkpt>
					<trkpt lat="50.377260" lon="4.628010">
						<ele>234</ele>
						<time>2026-09-04T17:59:26Z</time>
					</trkpt>
					<trkpt lat="50.377560" lon="4.628480">
						<ele>234</ele>
						<time>2026-09-04T17:59:34Z</time>
					</trkpt>
					<trkpt lat="50.377940" lon="4.629160">
						<ele>232</ele>
						<time>2026-09-04T17:59:44Z</time>
					</trkpt>
					<trkpt lat="50.378770" lon="4.630830">
						<ele>228</ele>
						<time>2026-09-04T18:00:08Z</time>
					</trkpt>
					<trkpt lat="50.379010" lon="4.631320">
						<ele>228</ele>
						<time>2026-09-04T18:00:15Z</time>
					</trkpt>
					<trkpt lat="50.379690" lon="4.632630">
						<ele>228</ele>
						<time>2026-09-04T18:00:34Z</time>
					</trkpt>
					<trkpt lat="50.379820" lon="4.632810">
						<ele>228</ele>
						<time>2026-09-04T18:00:37Z</time>
					</trkpt>
					<trkpt lat="50.380190" lon="4.632900">
						<ele>228</ele>
						<time>2026-09-04T18:00:44Z</time>
					</trkpt>
					<trkpt lat="50.380560" lon="4.632920">
						<ele>227</ele>
						<time>2026-09-04T18:00:51Z</time>
					</trkpt>
					<trkpt lat="50.381360" lon="4.632060">
						<ele>223</ele>
						<time>2026-09-04T18:01:08Z</time>
					</trkpt>
					<trkpt lat="50.382580" lon="4.630660">
						<ele>215</ele>
						<time>2026-09-04T18:01:35Z</time>
					</trkpt>
					<trkpt lat="50.383690" lon="4.629850">
						<ele>204</ele>
						<time>2026-09-04T18:01:57Z</time>
					</trkpt>
					<trkpt lat="50.384120" lon="4.629460">
						<ele>201</ele>
						<time>2026-09-04T18:02:05Z</time>
					</trkpt>
					<trkpt lat="50.384940" lon="4.628730">
						<ele>197</ele>
						<time>2026-09-04T18:02:22Z</time>
					</trkpt>
					<trkpt lat="50.384910" lon="4.628430">
						<ele>196</ele>
						<time>2026-09-04T18:02:26Z</time>
					</trkpt>
					<trkpt lat="50.384760" lon="4.627680">
						<ele>196</ele>
						<time>2026-09-04T18:02:35Z</time>
					</trkpt>
					<trkpt lat="50.385140" lon="4.627460">
						<ele>195</ele>
						<time>2026-09-04T18:02:42Z</time>
					</trkpt>
					<trkpt lat="50.385360" lon="4.627280">
						<ele>194</ele>
						<time>2026-09-04T18:02:46Z</time>
					</trkpt>
					<trkpt lat="50.385660" lon="4.627070">
						<ele>192</ele>
						<time>2026-09-04T18:02:52Z</time>
					</trkpt>
					<trkpt lat="50.387200" lon="4.625580">
						<ele>189</ele>
						<time>2026-09-04T18:03:24Z</time>
					</trkpt>
					<trkpt lat="50.387690" lon="4.625140">
						<ele>189</ele>
						<time>2026-09-04T18:03:34Z</time>
					</trkpt>
					<trkpt lat="50.388260" lon="4.624770">
						<ele>192</ele>
						<time>2026-09-04T18:03:45Z</time>
					</trkpt>
					<trkpt lat="50.388330" lon="4.624710">
						<ele>193</ele>
						<time>2026-09-04T18:03:47Z</time>
					</trkpt>
					<trkpt lat="50.388560" lon="4.624520">
						<ele>192</ele>
						<time>2026-09-04T18:03:51Z</time>
					</trkpt>
					<trkpt lat="50.389020" lon="4.623930">
						<ele>191</ele>
						<time>2026-09-04T18:04:02Z</time>
					</trkpt>
					<trkpt lat="50.389790" lon="4.623120">
						<ele>186</ele>
						<time>2026-09-04T18:04:18Z</time>
					</trkpt>
					<trkpt lat="50.390260" lon="4.622720">
						<ele>184</ele>
						<time>2026-09-04T18:04:28Z</time>
					</trkpt>
					<trkpt lat="50.390520" lon="4.622660">
						<ele>183</ele>
						<time>2026-09-04T18:04:33Z</time>
					</trkpt>
					<trkpt lat="50.391640" lon="4.622530">
						<ele>181</ele>
						<time>2026-09-04T18:04:53Z</time>
					</trkpt>
					<trkpt lat="50.392380" lon="4.622440">
						<ele>184</ele>
						<time>2026-09-04T18:05:06Z</time>
					</trkpt>
					<trkpt lat="50.392770" lon="4.622440">
						<ele>185</ele>
						<time>2026-09-04T18:05:13Z</time>
					</trkpt>
					<trkpt lat="50.392880" lon="4.623420">
						<ele>183</ele>
						<time>2026-09-04T18:05:24Z</time>
					</trkpt>
					<trkpt lat="50.392970" lon="4.623870">
						<ele>181</ele>
						<time>2026-09-04T18:05:29Z</time>
					</trkpt>
					<trkpt lat="50.393140" lon="4.624260">
						<ele>178</ele>
						<time>2026-09-04T18:05:35Z</time>
					</trkpt>
					<trkpt lat="50.393370" lon="4.624700">
						<ele>174</ele>
						<time>2026-09-04T18:05:41Z</time>
					</trkpt>
					<trkpt lat="50.393580" lon="4.625100">
						<ele>172</ele>
						<time>2026-09-04T18:05:47Z</time>
					</trkpt>
					<trkpt lat="50.393880" lon="4.625370">
						<ele>172</ele>
						<time>2026-09-04T18:05:53Z</time>
					</trkpt>
					<trkpt lat="50.394510" lon="4.625740">
						<ele>172</ele>
						<time>2026-09-04T18:06:05Z</time>
					</trkpt>
					<trkpt lat="50.394910" lon="4.626160">
						<ele>171</ele>
						<time>2026-09-04T18:06:14Z</time>
					</trkpt>
					<trkpt lat="50.395760" lon="4.627600">
						<ele>163</ele>
						<time>2026-09-04T18:06:36Z</time>
					</trkpt>
					<trkpt lat="50.396320" lon="4.628380">
						<ele>158</ele>
						<time>2026-09-04T18:06:49Z</time>
					</trkpt>
					<trkpt lat="50.396800" lon="4.628930">
						<ele>157</ele>
						<time>2026-09-04T18:07:00Z</time>
					</trkpt>
					<trkpt lat="50.397310" lon="4.629450">
						<ele>156</ele>
						<time>2026-09-04T18:07:11Z</time>
					</trkpt>
					<trkpt lat="50.398290" lon="4.630210">
						<ele>149</ele>
						<time>2026-09-04T18:07:30Z</time>
					</trkpt>
					<trkpt lat="50.398620" lon="4.630520">
						<ele>146</ele>
						<time>2026-09-04T18:07:37Z</time>
					</trkpt>
					<trkpt lat="50.399250" lon="4.631330">
						<ele>141</ele>
						<time>2026-09-04T18:07:51Z</time>
					</trkpt>
					<trkpt lat="50.399590" lon="4.631630">
						<ele>141</ele>
						<time>2026-09-04T18:07:58Z</time>
					</trkpt>
					<trkpt lat="50.399950" lon="4.631720">
						<ele>142</ele>
						<time>2026-09-04T18:08:05Z</time>
					</trkpt>
					<trkpt lat="50.400520" lon="4.631640">
						<ele>140</ele>
						<time>2026-09-04T18:08:15Z</time>
					</trkpt>
					<trkpt lat="50.400620" lon="4.631640">
						<ele>139</ele>
						<time>2026-09-04T18:08:17Z</time>
					</trkpt>
					<trkpt lat="50.400650" lon="4.631660">
						<ele>138</ele>
						<time>2026-09-04T18:08:17Z</time>
					</trkpt>
					<trkpt lat="50.400660" lon="4.631700">
						<ele>138</ele>
						<time>2026-09-04T18:08:18Z</time>
					</trkpt>
					<trkpt lat="50.401320" lon="4.631130">
						<ele>136</ele>
						<time>2026-09-04T18:08:31Z</time>
					</trkpt>
					<trkpt lat="50.401440" lon="4.630990">
						<ele>134</ele>
						<time>2026-09-04T18:08:34Z</time>
					</trkpt>
					<trkpt lat="50.401520" lon="4.630820">
						<ele>133</ele>
						<time>2026-09-04T18:08:36Z</time>
					</trkpt>
					<trkpt lat="50.401700" lon="4.630430">
						<ele>132</ele>
						<time>2026-09-04T18:08:42Z</time>
					</trkpt>
					<trkpt lat="50.402040" lon="4.629520">
						<ele>135</ele>
						<time>2026-09-04T18:08:54Z</time>
					</trkpt>
					<trkpt lat="50.402400" lon="4.628740">
						<ele>136</ele>
						<time>2026-09-04T18:09:05Z</time>
					</trkpt>
					<trkpt lat="50.402540" lon="4.628540">
						<ele>135</ele>
						<time>2026-09-04T18:09:08Z</time>
					</trkpt>
					<trkpt lat="50.403490" lon="4.627640">
						<ele>131</ele>
						<time>2026-09-04T18:09:28Z</time>
					</trkpt>
					<trkpt lat="50.405020" lon="4.626210">
						<ele>124</ele>
						<time>2026-09-04T18:10:00Z</time>
					</trkpt>
					<trkpt lat="50.405300" lon="4.625870">
						<ele>124</ele>
						<time>2026-09-04T18:10:06Z</time>
					</trkpt>
					<trkpt lat="50.405400" lon="4.625640">
						<ele>124</ele>
						<time>2026-09-04T18:10:09Z</time>
					</trkpt>
					<trkpt lat="50.405520" lon="4.625270">
						<ele>124</ele>
						<time>2026-09-04T18:10:14Z</time>
					</trkpt>
					<trkpt lat="50.405630" lon="4.624300">
						<ele>122</ele>
						<time>2026-09-04T18:10:25Z</time>
					</trkpt>
					<trkpt lat="50.405670" lon="4.623920">
						<ele>121</ele>
						<time>2026-09-04T18:10:29Z</time>
					</trkpt>
					<trkpt lat="50.405660" lon="4.623580">
						<ele>120</ele>
						<time>2026-09-04T18:10:33Z</time>
					</trkpt>
					<trkpt lat="50.405650" lon="4.622880">
						<ele>119</ele>
						<time>2026-09-04T18:10:41Z</time>
					</trkpt>
					<trkpt lat="50.405680" lon="4.622400">
						<ele>120</ele>
						<time>2026-09-04T18:10:46Z</time>
					</trkpt>
					<trkpt lat="50.405800" lon="4.621950">
						<ele>120</ele>
						<time>2026-09-04T18:10:52Z</time>
					</trkpt>
					<trkpt lat="50.406450" lon="4.621010">
						<ele>122</ele>
						<time>2026-09-04T18:11:08Z</time>
					</trkpt>
					<trkpt lat="50.406500" lon="4.620940">
						<ele>123</ele>
						<time>2026-09-04T18:11:09Z</time>
					</trkpt>
					<trkpt lat="50.406790" lon="4.620730">
						<ele>124</ele>
						<time>2026-09-04T18:11:15Z</time>
					</trkpt>
					<trkpt lat="50.407060" lon="4.620620">
						<ele>124</ele>
						<time>2026-09-04T18:11:20Z</time>
					</trkpt>
					<trkpt lat="50.407460" lon="4.620490">
						<ele>124</ele>
						<time>2026-09-04T18:11:27Z</time>
					</trkpt>
					<trkpt lat="50.407680" lon="4.620390">
						<ele>123</ele>
						<time>2026-09-04T18:11:31Z</time>
					</trkpt>
					<trkpt lat="50.407860" lon="4.620200">
						<ele>123</ele>
						<time>2026-09-04T18:11:35Z</time>
					</trkpt>
					<trkpt lat="50.408300" lon="4.619420">
						<ele>124</ele>
						<time>2026-09-04T18:11:47Z</time>
					</trkpt>
					<trkpt lat="50.408340" lon="4.619350">
						<ele>124</ele>
						<time>2026-09-04T18:11:48Z</time>
					</trkpt>
					<trkpt lat="50.408610" lon="4.618910">
						<ele>125</ele>
						<time>2026-09-04T18:11:55Z</time>
					</trkpt>
					<trkpt lat="50.408830" lon="4.618500">
						<ele>124</ele>
						<time>2026-09-04T18:12:01Z</time>
					</trkpt>
					<trkpt lat="50.409050" lon="4.618160">
						<ele>124</ele>
						<time>2026-09-04T18:12:06Z</time>
					</trkpt>
					<trkpt lat="50.409130" lon="4.618080">
						<ele>123</ele>
						<time>2026-09-04T18:12:08Z</time>
					</trkpt>
					<trkpt lat="50.409380" lon="4.617910">
						<ele>125</ele>
						<time>2026-09-04T18:12:13Z</time>
					</trkpt>
					<trkpt lat="50.409510" lon="4.617900">
						<ele>125</ele>
						<time>2026-09-04T18:12:15Z</time>
					</trkpt>
					<trkpt lat="50.409640" lon="4.617930">
						<ele>125</ele>
						<time>2026-09-04T18:12:17Z</time>
					</trkpt>
					<trkpt lat="50.410630" lon="4.618260">
						<ele>122</ele>
						<time>2026-09-04T18:12:35Z</time>
					</trkpt>
					<trkpt lat="50.410810" lon="4.618320">
						<ele>121</ele>
						<time>2026-09-04T18:12:39Z</time>
					</trkpt>
					<trkpt lat="50.411260" lon="4.618480">
						<ele>122</ele>
						<time>2026-09-04T18:12:47Z</time>
					</trkpt>
					<trkpt lat="50.411460" lon="4.618560">
						<ele>122</ele>
						<time>2026-09-04T18:12:51Z</time>
					</trkpt>
					<trkpt lat="50.411640" lon="4.618640">
						<ele>122</ele>
						<time>2026-09-04T18:12:54Z</time>
					</trkpt>
					<trkpt lat="50.412310" lon="4.618880">
						<ele>122</ele>
						<time>2026-09-04T18:13:06Z</time>
					</trkpt>
					<trkpt lat="50.412790" lon="4.619070">
						<ele>121</ele>
						<time>2026-09-04T18:13:15Z</time>
					</trkpt>
					<trkpt lat="50.413360" lon="4.619380">
						<ele>121</ele>
						<time>2026-09-04T18:13:26Z</time>
					</trkpt>
					<trkpt lat="50.413970" lon="4.619760">
						<ele>118</ele>
						<time>2026-09-04T18:13:37Z</time>
					</trkpt>
					<trkpt lat="50.414590" lon="4.620420">
						<ele>115</ele>
						<time>2026-09-04T18:13:51Z</time>
					</trkpt>
					<trkpt lat="50.414780" lon="4.620610">
						<ele>115</ele>
						<time>2026-09-04T18:13:55Z</time>
					</trkpt>
					<trkpt lat="50.414950" lon="4.620730">
						<ele>115</ele>
						<time>2026-09-04T18:13:58Z</time>
					</trkpt>
					<trkpt lat="50.415100" lon="4.620820">
						<ele>115</ele>
						<time>2026-09-04T18:14:01Z</time>
					</trkpt>
					<trkpt lat="50.415260" lon="4.620880">
						<ele>114</ele>
						<time>2026-09-04T18:14:04Z</time>
					</trkpt>
					<trkpt lat="50.415390" lon="4.620880">
						<ele>114</ele>
						<time>2026-09-04T18:14:06Z</time>
					</trkpt>
					<trkpt lat="50.415840" lon="4.620530">
						<ele>114</ele>
						<time>2026-09-04T18:14:15Z</time>
					</trkpt>
					<trkpt lat="50.416030" lon="4.620460">
						<ele>115</ele>
						<time>2026-09-04T18:14:18Z</time>
					</trkpt>
					<trkpt lat="50.416130" lon="4.620440">
						<ele>115</ele>
						<time>2026-09-04T18:14:20Z</time>
					</trkpt>
					<trkpt lat="50.416850" lon="4.620480">
						<ele>117</ele>
						<time>2026-09-04T18:14:33Z</time>
					</trkpt>
					<trkpt lat="50.417390" lon="4.620710">
						<ele>117</ele>
						<time>2026-09-04T18:14:43Z</time>
					</trkpt>
					<trkpt lat="50.417780" lon="4.620860">
						<ele>116</ele>
						<time>2026-09-04T18:14:50Z</time>
					</trkpt>
					<trkpt lat="50.418410" lon="4.620970">
						<ele>116</ele>
						<time>2026-09-04T18:15:01Z</time>
					</trkpt>
					<trkpt lat="50.418590" lon="4.621010">
						<ele>115</ele>
						<time>2026-09-04T18:15:05Z</time>
					</trkpt>
					<trkpt lat="50.418670" lon="4.621000">
						<ele>115</ele>
						<time>2026-09-04T18:15:06Z</time>
					</trkpt>
					<trkpt lat="50.419100" lon="4.620870">
						<ele>115</ele>
						<time>2026-09-04T18:15:14Z</time>
					</trkpt>
					<trkpt lat="50.419470" lon="4.620750">
						<ele>116</ele>
						<time>2026-09-04T18:15:21Z</time>
					</trkpt>
					<trkpt lat="50.419970" lon="4.620650">
						<ele>117</ele>
						<time>2026-09-04T18:15:30Z</time>
					</trkpt>
					<trkpt lat="50.420210" lon="4.620610">
						<ele>117</ele>
						<time>2026-09-04T18:15:34Z</time>
					</trkpt>
					<trkpt lat="50.420470" lon="4.620580">
						<ele>118</ele>
						<time>2026-09-04T18:15:39Z</time>
					</trkpt>
					<trkpt lat="50.420730" lon="4.620720">
						<ele>117</ele>
						<time>2026-09-04T18:15:43Z</time>
					</trkpt>
					<trkpt lat="50.421170" lon="4.620960">
						<ele>118</ele>
						<time>2026-09-04T18:15:52Z</time>
					</trkpt>
					<trkpt lat="50.421900" lon="4.621370">
						<ele>120</ele>
						<time>2026-09-04T18:16:05Z</time>
					</trkpt>
					<trkpt lat="50.422270" lon="4.621470">
						<ele>120</ele>
						<time>2026-09-04T18:16:12Z</time>
					</trkpt>
					<trkpt lat="50.423470" lon="4.621670">
						<ele>120</ele>
						<time>2026-09-04T18:16:34Z</time>
					</trkpt>
					<trkpt lat="50.423560" lon="4.621680">
						<ele>120</ele>
						<time>2026-09-04T18:16:35Z</time>
					</trkpt>
					<trkpt lat="50.423690" lon="4.621710">
						<ele>120</ele>
						<time>2026-09-04T18:16:38Z</time>
					</trkpt>
					<trkpt lat="50.423860" lon="4.621750">
						<ele>120</ele>
						<time>2026-09-04T18:16:41Z</time>
					</trkpt>
					<trkpt lat="50.424610" lon="4.621970">
						<ele>117</ele>
						<time>2026-09-04T18:16:54Z</time>
					</trkpt>
					<trkpt lat="50.424700" lon="4.622020">
						<ele>117</ele>
						<time>2026-09-04T18:16:56Z</time>
					</trkpt>
					<trkpt lat="50.424790" lon="4.621900">
						<ele>117</ele>
						<time>2026-09-04T18:16:58Z</time>
					</trkpt>
					<trkpt lat="50.424910" lon="4.621690">
						<ele>117</ele>
						<time>2026-09-04T18:17:01Z</time>
					</trkpt>
					<trkpt lat="50.425020" lon="4.621510">
						<ele>117</ele>
						<time>2026-09-04T18:17:04Z</time>
					</trkpt>
					<trkpt lat="50.426310" lon="4.619760">
						<ele>109</ele>
						<time>2026-09-04T18:17:34Z</time>
					</trkpt>
					<trkpt lat="50.426540" lon="4.619450">
						<ele>105</ele>
						<time>2026-09-04T18:17:40Z</time>
					</trkpt>
					<trkpt lat="50.429410" lon="4.615580">
						<ele>92</ele>
						<time>2026-09-04T18:18:47Z</time>
					</trkpt>
					<trkpt lat="50.430160" lon="4.614560">
						<ele>93</ele>
						<time>2026-09-04T18:19:05Z</time>
					</trkpt>
					<trkpt lat="50.430090" lon="4.614420">
						<ele>93</ele>
						<time>2026-09-04T18:19:07Z</time>
					</trkpt>
					<trkpt lat="50.429870" lon="4.613880">
						<ele>92</ele>
						<time>2026-09-04T18:19:14Z</time>
					</trkpt>
					<trkpt lat="50.429800" lon="4.613750">
						<ele>92</ele>
						<time>2026-09-04T18:19:16Z</time>
					</trkpt>
					<trkpt lat="50.429560" lon="4.613320">
						<ele>92</ele>
						<time>2026-09-04T18:19:22Z</time>
					</trkpt>
					<trkpt lat="50.429340" lon="4.612950">
						<ele>92</ele>
						<time>2026-09-04T18:19:28Z</time>
					</trkpt>
					<trkpt lat="50.428550" lon="4.611980">
						<ele>92</ele>
						<time>2026-09-04T18:19:46Z</time>
					</trkpt>
					<trkpt lat="50.428200" lon="4.611400">
						<ele>92</ele>
						<time>2026-09-04T18:19:55Z</time>
					</trkpt>
					<trkpt lat="50.427670" lon="4.610200">
						<ele>92</ele>
						<time>2026-09-04T18:20:12Z</time>
					</trkpt>
					<trkpt lat="50.427290" lon="4.609580">
						<ele>93</ele>
						<time>2026-09-04T18:20:21Z</time>
					</trkpt>
					<trkpt lat="50.426840" lon="4.608900">
						<ele>93</ele>
						<time>2026-09-04T18:20:32Z</time>
					</trkpt>
					<trkpt lat="50.426140" lon="4.607850">
						<ele>95</ele>
						<time>2026-09-04T18:20:50Z</time>
					</trkpt>
					<trkpt lat="50.426080" lon="4.607710">
						<ele>95</ele>
						<time>2026-09-04T18:20:52Z</time>
					</trkpt>
					<trkpt lat="50.426050" lon="4.607610">
						<ele>95</ele>
						<time>2026-09-04T18:20:53Z</time>
					</trkpt>
					<trkpt lat="50.426040" lon="4.607520">
						<ele>94</ele>
						<time>2026-09-04T18:20:54Z</time>
					</trkpt>
					<trkpt lat="50.426120" lon="4.604660">
						<ele>93</ele>
						<time>2026-09-04T18:21:26Z</time>
					</trkpt>
					<trkpt lat="50.426150" lon="4.604120">
						<ele>94</ele>
						<time>2026-09-04T18:21:33Z</time>
					</trkpt>
					<trkpt lat="50.426150" lon="4.603900">
						<ele>94</ele>
						<time>2026-09-04T18:21:35Z</time>
					</trkpt>
					<trkpt lat="50.426130" lon="4.603600">
						<ele>95</ele>
						<time>2026-09-04T18:21:38Z</time>
					</trkpt>
					<trkpt lat="50.426100" lon="4.603430">
						<ele>96</ele>
						<time>2026-09-04T18:21:40Z</time>
					</trkpt>
					<trkpt lat="50.426070" lon="4.603250">
						<ele>96</ele>
						<time>2026-09-04T18:21:43Z</time>
					</trkpt>
					<trkpt lat="50.425930" lon="4.602680">
						<ele>97</ele>
						<time>2026-09-04T18:21:49Z</time>
					</trkpt>
					<trkpt lat="50.425810" lon="4.602170">
						<ele>98</ele>
						<time>2026-09-04T18:21:56Z</time>
					</trkpt>
					<trkpt lat="50.425760" lon="4.601980">
						<ele>99</ele>
						<time>2026-09-04T18:21:58Z</time>
					</trkpt>
					<trkpt lat="50.425750" lon="4.601840">
						<ele>99</ele>
						<time>2026-09-04T18:22:00Z</time>
					</trkpt>
					<trkpt lat="50.425740" lon="4.599830">
						<ele>95</ele>
						<time>2026-09-04T18:22:22Z</time>
					</trkpt>
					<trkpt lat="50.425740" lon="4.599660">
						<ele>94</ele>
						<time>2026-09-04T18:22:24Z</time>
					</trkpt>
					<trkpt lat="50.425750" lon="4.599330">
						<ele>93</ele>
						<time>2026-09-04T18:22:28Z</time>
					</trkpt>
					<trkpt lat="50.425810" lon="4.598550">
						<ele>92</ele>
						<time>2026-09-04T18:22:37Z</time>
					</trkpt>
					<trkpt lat="50.425900" lon="4.597680">
						<ele>91</ele>
						<time>2026-09-04T18:22:47Z</time>
					</trkpt>
					<trkpt lat="50.426040" lon="4.595890">
						<ele>101</ele>
						<time>2026-09-04T18:23:07Z</time>
					</trkpt>
					<trkpt lat="50.426070" lon="4.595700">
						<ele>102</ele>
						<time>2026-09-04T18:23:10Z</time>
					</trkpt>
					<trkpt lat="50.426150" lon="4.594880">
						<ele>106</ele>
						<time>2026-09-04T18:23:19Z</time>
					</trkpt>
					<trkpt lat="50.426220" lon="4.594220">
						<ele>107</ele>
						<time>2026-09-04T18:23:27Z</time>
					</trkpt>
					<trkpt lat="50.426220" lon="4.594070">
						<ele>107</ele>
						<time>2026-09-04T18:23:28Z</time>
					</trkpt>
					<trkpt lat="50.426260" lon="4.593790">
						<ele>104</ele>
						<time>2026-09-04T18:23:32Z</time>
					</trkpt>
					<trkpt lat="50.426280" lon="4.593660">
						<ele>103</ele>
						<time>2026-09-04T18:23:33Z</time>
					</trkpt>
					<trkpt lat="50.426430" lon="4.593320">
						<ele>99</ele>
						<time>2026-09-04T18:23:38Z</time>
					</trkpt>
					<trkpt lat="50.426580" lon="4.593030">
						<ele>96</ele>
						<time>2026-09-04T18:23:42Z</time>
					</trkpt>
					<trkpt lat="50.426670" lon="4.592880">
						<ele>94</ele>
						<time>2026-09-04T18:23:44Z</time>
					</trkpt>
					<trkpt lat="50.426700" lon="4.592880">
						<ele>94</ele>
						<time>2026-09-04T18:23:45Z</time>
					</trkpt>
					<trkpt lat="50.426730" lon="4.592850">
						<ele>94</ele>
						<time>2026-09-04T18:23:45Z</time>
					</trkpt>
					<trkpt lat="50.426750" lon="4.592810">
						<ele>94</ele>
						<time>2026-09-04T18:23:46Z</time>
					</trkpt>
					<trkpt lat="50.426760" lon="4.592750">
						<ele>93</ele>
						<time>2026-09-04T18:23:47Z</time>
					</trkpt>
					<trkpt lat="50.426740" lon="4.592670">
						<ele>93</ele>
						<time>2026-09-04T18:23:48Z</time>
					</trkpt>
					<trkpt lat="50.426730" lon="4.592630">
						<ele>93</ele>
						<time>2026-09-04T18:23:48Z</time>
					</trkpt>
					<trkpt lat="50.426670" lon="4.592460">
						<ele>92</ele>
						<time>2026-09-04T18:23:50Z</time>
					</trkpt>
					<trkpt lat="50.426650" lon="4.592190">
						<ele>92</ele>
						<time>2026-09-04T18:23:53Z</time>
					</trkpt>
					<trkpt lat="50.426610" lon="4.592020">
						<ele>92</ele>
						<time>2026-09-04T18:23:56Z</time>
					</trkpt>
					<trkpt lat="50.426440" lon="4.591270">
						<ele>92</ele>
						<time>2026-09-04T18:24:05Z</time>
					</trkpt>
					<trkpt lat="50.426170" lon="4.590230">
						<ele>92</ele>
						<time>2026-09-04T18:24:17Z</time>
					</trkpt>
					<trkpt lat="50.426120" lon="4.589870">
						<ele>93</ele>
						<time>2026-09-04T18:24:21Z</time>
					</trkpt>
					<trkpt lat="50.426080" lon="4.589370">
						<ele>94</ele>
						<time>2026-09-04T18:24:27Z</time>
					</trkpt>
					<trkpt lat="50.426050" lon="4.588910">
						<ele>95</ele>
						<time>2026-09-04T18:24:32Z</time>
					</trkpt>
					<trkpt lat="50.426000" lon="4.588620">
						<ele>95</ele>
						<time>2026-09-04T18:24:36Z</time>
					</trkpt>
					<trkpt lat="50.425960" lon="4.588450">
						<ele>95</ele>
						<time>2026-09-04T18:24:38Z</time>
					</trkpt>
					<trkpt lat="50.425910" lon="4.588210">
						<ele>95</ele>
						<time>2026-09-04T18:24:41Z</time>
					</trkpt>
					<trkpt lat="50.425850" lon="4.588010">
						<ele>95</ele>
						<time>2026-09-04T18:24:43Z</time>
					</trkpt>
					<trkpt lat="50.425650" lon="4.587440">
						<ele>95</ele>
						<time>2026-09-04T18:24:51Z</time>
					</trkpt>
					<trkpt lat="50.425520" lon="4.587240">
						<ele>96</ele>
						<time>2026-09-04T18:24:54Z</time>
					</trkpt>
					<trkpt lat="50.425240" lon="4.586980">
						<ele>96</ele>
						<time>2026-09-04T18:25:00Z</time>
					</trkpt>
					<trkpt lat="50.425210" lon="4.586920">
						<ele>96</ele>
						<time>2026-09-04T18:25:01Z</time>
					</trkpt>
					<trkpt lat="50.425030" lon="4.586630">
						<ele>97</ele>
						<time>2026-09-04T18:25:05Z</time>
					</trkpt>
					<trkpt lat="50.424970" lon="4.586520">
						<ele>97</ele>
						<time>2026-09-04T18:25:07Z</time>
					</trkpt>
					<trkpt lat="50.424500" lon="4.585610">
						<ele>100</ele>
						<time>2026-09-04T18:25:20Z</time>
					</trkpt>
					<trkpt lat="50.423970" lon="4.584620">
						<ele>102</ele>
						<time>2026-09-04T18:25:35Z</time>
					</trkpt>
					<trkpt lat="50.422930" lon="4.582620">
						<ele>105</ele>
						<time>2026-09-04T18:26:04Z</time>
					</trkpt>
					<trkpt lat="50.422810" lon="4.582360">
						<ele>105</ele>
						<time>2026-09-04T18:26:08Z</time>
					</trkpt>
					<trkpt lat="50.422700" lon="4.582090">
						<ele>105</ele>
						<time>2026-09-04T18:26:11Z</time>
					</trkpt>
					<trkpt lat="50.422630" lon="4.581810">
						<ele>105</ele>
						<time>2026-09-04T18:26:15Z</time>
					</trkpt>
					<trkpt lat="50.422500" lon="4.581550">
						<ele>105</ele>
						<time>2026-09-04T18:26:18Z</time>
					</trkpt>
					<trkpt lat="50.422230" lon="4.581110">
						<ele>108</ele>
						<time>2026-09-04T18:26:25Z</time>
					</trkpt>
					<trkpt lat="50.421630" lon="4.580300">
						<ele>110</ele>
						<time>2026-09-04T18:26:39Z</time>
					</trkpt>
					<trkpt lat="50.421280" lon="4.579730">
						<ele>111</ele>
						<time>2026-09-04T18:26:48Z</time>
					</trkpt>
					<trkpt lat="50.421130" lon="4.579540">
						<ele>111</ele>
						<time>2026-09-04T18:26:52Z</time>
					</trkpt>
					<trkpt lat="50.420380" lon="4.578510">
						<ele>114</ele>
						<time>2026-09-04T18:27:10Z</time>
					</trkpt>
					<trkpt lat="50.419630" lon="4.577500">
						<ele>117</ele>
						<time>2026-09-04T18:27:27Z</time>
					</trkpt>
					<trkpt lat="50.419160" lon="4.576750">
						<ele>118</ele>
						<time>2026-09-04T18:27:39Z</time>
					</trkpt>
					<trkpt lat="50.418510" lon="4.575640">
						<ele>117</ele>
						<time>2026-09-04T18:27:56Z</time>
					</trkpt>
					<trkpt lat="50.417890" lon="4.574590">
						<ele>120</ele>
						<time>2026-09-04T18:28:12Z</time>
					</trkpt>
					<trkpt lat="50.417740" lon="4.574360">
						<ele>120</ele>
						<time>2026-09-04T18:28:16Z</time>
					</trkpt>
					<trkpt lat="50.417560" lon="4.574110">
						<ele>120</ele>
						<time>2026-09-04T18:28:20Z</time>
					</trkpt>
					<trkpt lat="50.417350" lon="4.573660">
						<ele>121</ele>
						<time>2026-09-04T18:28:27Z</time>
					</trkpt>
					<trkpt lat="50.417240" lon="4.573370">
						<ele>122</ele>
						<time>2026-09-04T18:28:31Z</time>
					</trkpt>
					<trkpt lat="50.417170" lon="4.573090">
						<ele>122</ele>
						<time>2026-09-04T18:28:34Z</time>
					</trkpt>
					<trkpt lat="50.417090" lon="4.572640">
						<ele>122</ele>
						<time>2026-09-04T18:28:39Z</time>
					</trkpt>
					<trkpt lat="50.416970" lon="4.571850">
						<ele>123</ele>
						<time>2026-09-04T18:28:48Z</time>
					</trkpt>
					<trkpt lat="50.416850" lon="4.571030">
						<ele>125</ele>
						<time>2026-09-04T18:28:58Z</time>
					</trkpt>
					<trkpt lat="50.416700" lon="4.570130">
						<ele>129</ele>
						<time>2026-09-04T18:29:09Z</time>
					</trkpt>
					<trkpt lat="50.416680" lon="4.569920">
						<ele>130</ele>
						<time>2026-09-04T18:29:11Z</time>
					</trkpt>
					<trkpt lat="50.416550" lon="4.569380">
						<ele>129</ele>
						<time>2026-09-04T18:29:17Z</time>
					</trkpt>
					<trkpt lat="50.415920" lon="4.568670">
						<ele>128</ele>
						<time>2026-09-04T18:29:31Z</time>
					</trkpt>
					<trkpt lat="50.415490" lon="4.568200">
						<ele>124</ele>
						<time>2026-09-04T18:29:41Z</time>
					</trkpt>
					<trkpt lat="50.415200" lon="4.568040">
						<ele>125</ele>
						<time>2026-09-04T18:29:46Z</time>
					</trkpt>
					<trkpt lat="50.415100" lon="4.567980">
						<ele>126</ele>
						<time>2026-09-04T18:29:48Z</time>
					</trkpt>
					<trkpt lat="50.415010" lon="4.567960">
						<ele>127</ele>
						<time>2026-09-04T18:29:50Z</time>
					</trkpt>
					<trkpt lat="50.414880" lon="4.567960">
						<ele>127</ele>
						<time>2026-09-04T18:29:52Z</time>
					</trkpt>
					<trkpt lat="50.414750" lon="4.567980">
						<ele>128</ele>
						<time>2026-09-04T18:29:54Z</time>
					</trkpt>
					<trkpt lat="50.414240" lon="4.568280">
						<ele>131</ele>
						<time>2026-09-04T18:30:04Z</time>
					</trkpt>
					<trkpt lat="50.414050" lon="4.568290">
						<ele>132</ele>
						<time>2026-09-04T18:30:07Z</time>
					</trkpt>
					<trkpt lat="50.413960" lon="4.568250">
						<ele>132</ele>
						<time>2026-09-04T18:30:09Z</time>
					</trkpt>
					<trkpt lat="50.413870" lon="4.568140">
						<ele>133</ele>
						<time>2026-09-04T18:30:11Z</time>
					</trkpt>
					<trkpt lat="50.413830" lon="4.568030">
						<ele>133</ele>
						<time>2026-09-04T18:30:12Z</time>
					</trkpt>
					<trkpt lat="50.413830" lon="4.567840">
						<ele>132</ele>
						<time>2026-09-04T18:30:15Z</time>
					</trkpt>
					<trkpt lat="50.413890" lon="4.567520">
						<ele>129</ele>
						<time>2026-09-04T18:30:18Z</time>
					</trkpt>
					<trkpt lat="50.413950" lon="4.567020">
						<ele>124</ele>
						<time>2026-09-04T18:30:24Z</time>
					</trkpt>
					<trkpt lat="50.413900" lon="4.566630">
						<ele>122</ele>
						<time>2026-09-04T18:30:29Z</time>
					</trkpt>
					<trkpt lat="50.413520" lon="4.565960">
						<ele>126</ele>
						<time>2026-09-04T18:30:39Z</time>
					</trkpt>
					<trkpt lat="50.413230" lon="4.565540">
						<ele>129</ele>
						<time>2026-09-04T18:30:46Z</time>
					</trkpt>
					<trkpt lat="50.413040" lon="4.565000">
						<ele>126</ele>
						<time>2026-09-04T18:30:53Z</time>
					</trkpt>
					<trkpt lat="50.413010" lon="4.564280">
						<ele>118</ele>
						<time>2026-09-04T18:31:01Z</time>
					</trkpt>
					<trkpt lat="50.412930" lon="4.561850">
						<ele>102</ele>
						<time>2026-09-04T18:31:29Z</time>
					</trkpt>
					<trkpt lat="50.412850" lon="4.560410">
						<ele>99</ele>
						<time>2026-09-04T18:31:45Z</time>
					</trkpt>
					<trkpt lat="50.412820" lon="4.558970">
						<ele>97</ele>
						<time>2026-09-04T18:32:01Z</time>
					</trkpt>
					<trkpt lat="50.412660" lon="4.557170">
						<ele>99</ele>
						<time>2026-09-04T18:32:22Z</time>
					</trkpt>
					<trkpt lat="50.412520" lon="4.555910">
						<ele>100</ele>
						<time>2026-09-04T18:32:36Z</time>
					</trkpt>
					<trkpt lat="50.412510" lon="4.555750">
						<ele>100</ele>
						<time>2026-09-04T18:32:38Z</time>
					</trkpt>
					<trkpt lat="50.412470" lon="4.555220">
						<ele>101</ele>
						<time>2026-09-04T18:32:44Z</time>
					</trkpt>
					<trkpt lat="50.412410" lon="4.554760">
						<ele>102</ele>
						<time>2026-09-04T18:32:50Z</time>
					</trkpt>
					<trkpt lat="50.412350" lon="4.554130">
						<ele>102</ele>
						<time>2026-09-04T18:32:57Z</time>
					</trkpt>
					<trkpt lat="50.412330" lon="4.553640">
						<ele>102</ele>
						<time>2026-09-04T18:33:02Z</time>
					</trkpt>
					<trkpt lat="50.412360" lon="4.553470">
						<ele>101</ele>
						<time>2026-09-04T18:33:04Z</time>
					</trkpt>
					<trkpt lat="50.412580" lon="4.553040">
						<ele>102</ele>
						<time>2026-09-04T18:33:11Z</time>
					</trkpt>
					<trkpt lat="50.412690" lon="4.552840">
						<ele>102</ele>
						<time>2026-09-04T18:33:14Z</time>
					</trkpt>
					<trkpt lat="50.412890" lon="4.552340">
						<ele>103</ele>
						<time>2026-09-04T18:33:20Z</time>
					</trkpt>
					<trkpt lat="50.412980" lon="4.552040">
						<ele>104</ele>
						<time>2026-09-04T18:33:24Z</time>
					</trkpt>
					<trkpt lat="50.413020" lon="4.551720">
						<ele>106</ele>
						<time>2026-09-04T18:33:28Z</time>
					</trkpt>
					<trkpt lat="50.413110" lon="4.551720">
						<ele>105</ele>
						<time>2026-09-04T18:33:29Z</time>
					</trkpt>
					<trkpt lat="50.413130" lon="4.551690">
						<ele>105</ele>
						<time>2026-09-04T18:33:30Z</time>
					</trkpt>
					<trkpt lat="50.413170" lon="4.551650">
						<ele>105</ele>
						<time>2026-09-04T18:33:31Z</time>
					</trkpt>
					<trkpt lat="50.413200" lon="4.551540">
						<ele>106</ele>
						<time>2026-09-04T18:33:32Z</time>
					</trkpt>
					<trkpt lat="50.413170" lon="4.551440">
						<ele>106</ele>
						<time>2026-09-04T18:33:33Z</time>
					</trkpt>
					<trkpt lat="50.413110" lon="4.551370">
						<ele>107</ele>
						<time>2026-09-04T18:33:35Z</time>
					</trkpt>
					<trkpt lat="50.413010" lon="4.551370">
						<ele>107</ele>
						<time>2026-09-04T18:33:36Z</time>
					</trkpt>
					<trkpt lat="50.412960" lon="4.551410">
						<ele>107</ele>
						<time>2026-09-04T18:33:37Z</time>
					</trkpt>
					<trkpt lat="50.412820" lon="4.551280">
						<ele>108</ele>
						<time>2026-09-04T18:33:40Z</time>
					</trkpt>
					<trkpt lat="50.412750" lon="4.551160">
						<ele>108</ele>
						<time>2026-09-04T18:33:42Z</time>
					</trkpt>
					<trkpt lat="50.412650" lon="4.551040">
						<ele>109</ele>
						<time>2026-09-04T18:33:44Z</time>
					</trkpt>
					<trkpt lat="50.412550" lon="4.550720">
						<ele>110</ele>
						<time>2026-09-04T18:33:48Z</time>
					</trkpt>
					<trkpt lat="50.412300" lon="4.549810">
						<ele>114</ele>
						<time>2026-09-04T18:34:00Z</time>
					</trkpt>
					<trkpt lat="50.412140" lon="4.549470">
						<ele>116</ele>
						<time>2026-09-04T18:34:05Z</time>
					</trkpt>
					<trkpt lat="50.411750" lon="4.548760">
						<ele>120</ele>
						<time>2026-09-04T18:34:15Z</time>
					</trkpt>
					<trkpt lat="50.411530" lon="4.548270">
						<ele>120</ele>
						<time>2026-09-04T18:34:22Z</time>
					</trkpt>
					<trkpt lat="50.411140" lon="4.547390">
						<ele>119</ele>
						<time>2026-09-04T18:34:34Z</time>
					</trkpt>
					<trkpt lat="50.410730" lon="4.546480">
						<ele>117</ele>
						<time>2026-09-04T18:34:47Z</time>
					</trkpt>
					<trkpt lat="50.410670" lon="4.546360">
						<ele>117</ele>
						<time>2026-09-04T18:34:48Z</time>
					</trkpt>
					<trkpt lat="50.410480" lon="4.545970">
						<ele>117</ele>
						<time>2026-09-04T18:34:54Z</time>
					</trkpt>
					<trkpt lat="50.410420" lon="4.545830">
						<ele>117</ele>
						<time>2026-09-04T18:34:56Z</time>
					</trkpt>
					<trkpt lat="50.410400" lon="4.545780">
						<ele>116</ele>
						<time>2026-09-04T18:34:57Z</time>
					</trkpt>
					<trkpt lat="50.409780" lon="4.544600">
						<ele>115</ele>
						<time>2026-09-04T18:35:14Z</time>
					</trkpt>
					<trkpt lat="50.409630" lon="4.544320">
						<ele>115</ele>
						<time>2026-09-04T18:35:18Z</time>
					</trkpt>
					<trkpt lat="50.409020" lon="4.543270">
						<ele>117</ele>
						<time>2026-09-04T18:35:34Z</time>
					</trkpt>
					<trkpt lat="50.408390" lon="4.542280">
						<ele>117</ele>
						<time>2026-09-04T18:35:50Z</time>
					</trkpt>
					<trkpt lat="50.407800" lon="4.541360">
						<ele>117</ele>
						<time>2026-09-04T18:36:05Z</time>
					</trkpt>
					<trkpt lat="50.407560" lon="4.540940">
						<ele>118</ele>
						<time>2026-09-04T18:36:11Z</time>
					</trkpt>
					<trkpt lat="50.407480" lon="4.540520">
						<ele>118</ele>
						<time>2026-09-04T18:36:16Z</time>
					</trkpt>
					<trkpt lat="50.407370" lon="4.539840">
						<ele>117</ele>
						<time>2026-09-04T18:36:24Z</time>
					</trkpt>
					<trkpt lat="50.407100" lon="4.538800">
						<ele>118</ele>
						<time>2026-09-04T18:36:37Z</time>
					</trkpt>
					<trkpt lat="50.407130" lon="4.538620">
						<ele>117</ele>
						<time>2026-09-04T18:36:39Z</time>
					</trkpt>
					<trkpt lat="50.406890" lon="4.538420">
						<ele>117</ele>
						<time>2026-09-04T18:36:44Z</time>
					</trkpt>
					<trkpt lat="50.406740" lon="4.538180">
						<ele>117</ele>
						<time>2026-09-04T18:36:48Z</time>
					</trkpt>
					<trkpt lat="50.406550" lon="4.537750">
						<ele>117</ele>
						<time>2026-09-04T18:36:54Z</time>
					</trkpt>
					<trkpt lat="50.406330" lon="4.537160">
						<ele>118</ele>
						<time>2026-09-04T18:37:01Z</time>
					</trkpt>
					<trkpt lat="50.406050" lon="4.536440">
						<ele>118</ele>
						<time>2026-09-04T18:37:11Z</time>
					</trkpt>
					<trkpt lat="50.405760" lon="4.535700">
						<ele>118</ele>
						<time>2026-09-04T18:37:21Z</time>
					</trkpt>
					<trkpt lat="50.405580" lon="4.535040">
						<ele>119</ele>
						<time>2026-09-04T18:37:29Z</time>
					</trkpt>
					<trkpt lat="50.405490" lon="4.534010">
						<ele>121</ele>
						<time>2026-09-04T18:37:41Z</time>
					</trkpt>
					<trkpt lat="50.405440" lon="4.533800">
						<ele>121</ele>
						<time>2026-09-04T18:37:43Z</time>
					</trkpt>
					<trkpt lat="50.405230" lon="4.533380">
						<ele>121</ele>
						<time>2026-09-04T18:37:49Z</time>
					</trkpt>
					<trkpt lat="50.405020" lon="4.532960">
						<ele>121</ele>
						<time>2026-09-04T18:37:55Z</time>
					</trkpt>
					<trkpt lat="50.404870" lon="4.532670">
						<ele>120</ele>
						<time>2026-09-04T18:38:00Z</time>
					</trkpt>
					<trkpt lat="50.404680" lon="4.532240">
						<ele>119</ele>
						<time>2026-09-04T18:38:06Z</time>
					</trkpt>
					<trkpt lat="50.404390" lon="4.531330">
						<ele>118</ele>
						<time>2026-09-04T18:38:17Z</time>
					</trkpt>
					<trkpt lat="50.404180" lon="4.530670">
						<ele>116</ele>
						<time>2026-09-04T18:38:25Z</time>
					</trkpt>
					<trkpt lat="50.404070" lon="4.530450">
						<ele>116</ele>
						<time>2026-09-04T18:38:29Z</time>
					</trkpt>
					<trkpt lat="50.404020" lon="4.530350">
						<ele>115</ele>
						<time>2026-09-04T18:38:30Z</time>
					</trkpt>
					<trkpt lat="50.403910" lon="4.530190">
						<ele>115</ele>
						<time>2026-09-04T18:38:33Z</time>
					</trkpt>
					<trkpt lat="50.403810" lon="4.530060">
						<ele>115</ele>
						<time>2026-09-04T18:38:35Z</time>
					</trkpt>
					<trkpt lat="50.403680" lon="4.529810">
						<ele>115</ele>
						<time>2026-09-04T18:38:39Z</time>
					</trkpt>
					<trkpt lat="50.403610" lon="4.529580">
						<ele>116</ele>
						<time>2026-09-04T18:38:42Z</time>
					</trkpt>
					<trkpt lat="50.404140" lon="4.529300">
						<ele>115</ele>
						<time>2026-09-04T18:38:52Z</time>
					</trkpt>
					<trkpt lat="50.404790" lon="4.528960">
						<ele>113</ele>
						<time>2026-09-04T18:39:04Z</time>
					</trkpt>
					<trkpt lat="50.404840" lon="4.528930">
						<ele>113</ele>
						<time>2026-09-04T18:39:05Z</time>
					</trkpt>
					<trkpt lat="50.405480" lon="4.528570">
						<ele>109</ele>
						<time>2026-09-04T18:39:17Z</time>
					</trkpt>
					<trkpt lat="50.405660" lon="4.528390">
						<ele>108</ele>
						<time>2026-09-04T18:39:21Z</time>
					</trkpt>
					<trkpt lat="50.405930" lon="4.528120">
						<ele>107</ele>
						<time>2026-09-04T18:39:26Z</time>
					</trkpt>
					<trkpt lat="50.406140" lon="4.527860">
						<ele>105</ele>
						<time>2026-09-04T18:39:31Z</time>
					</trkpt>
					<trkpt lat="50.406280" lon="4.527680">
						<ele>104</ele>
						<time>2026-09-04T18:39:34Z</time>
					</trkpt>
					<trkpt lat="50.406500" lon="4.527280">
						<ele>102</ele>
						<time>2026-09-04T18:39:40Z</time>
					</trkpt>
					<trkpt lat="50.406680" lon="4.526880">
						<ele>101</ele>
						<time>2026-09-04T18:39:46Z</time>
					</trkpt>
					<trkpt lat="50.407710" lon="4.524650">
						<ele>97</ele>
						<time>2026-09-04T18:40:17Z</time>
					</trkpt>
					<trkpt lat="50.408050" lon="4.523990">
						<ele>97</ele>
						<time>2026-09-04T18:40:27Z</time>
					</trkpt>
					<trkpt lat="50.408190" lon="4.523730">
						<ele>98</ele>
						<time>2026-09-04T18:40:31Z</time>
					</trkpt>
					<trkpt lat="50.408250" lon="4.523610">
						<ele>98</ele>
						<time>2026-09-04T18:40:32Z</time>
					</trkpt>
					<trkpt lat="50.408280" lon="4.523500">
						<ele>98</ele>
						<time>2026-09-04T18:40:34Z</time>
					</trkpt>
					<trkpt lat="50.408310" lon="4.523340">
						<ele>99</ele>
						<time>2026-09-04T18:40:35Z</time>
					</trkpt>
					<trkpt lat="50.408300" lon="4.523220">
						<ele>99</ele>
						<time>2026-09-04T18:40:37Z</time>
					</trkpt>
					<trkpt lat="50.408280" lon="4.523080">
						<ele>99</ele>
						<time>2026-09-04T18:40:38Z</time>
					</trkpt>
					<trkpt lat="50.408150" lon="4.522740">
						<ele>99</ele>
						<time>2026-09-04T18:40:43Z</time>
					</trkpt>
					<trkpt lat="50.408020" lon="4.522430">
						<ele>99</ele>
						<time>2026-09-04T18:40:47Z</time>
					</trkpt>
					<trkpt lat="50.407940" lon="4.522270">
						<ele>99</ele>
						<time>2026-09-04T18:40:49Z</time>
					</trkpt>
					<trkpt lat="50.407650" lon="4.521600">
						<ele>99</ele>
						<time>2026-09-04T18:40:59Z</time>
					</trkpt>
					<trkpt lat="50.407520" lon="4.521320">
						<ele>99</ele>
						<time>2026-09-04T18:41:03Z</time>
					</trkpt>
					<trkpt lat="50.407240" lon="4.520810">
						<ele>100</ele>
						<time>2026-09-04T18:41:10Z</time>
					</trkpt>
					<trkpt lat="50.407040" lon="4.520460">
						<ele>100</ele>
						<time>2026-09-04T18:41:16Z</time>
					</trkpt>
					<trkpt lat="50.406920" lon="4.520280">
						<ele>100</ele>
						<time>2026-09-04T18:41:19Z</time>
					</trkpt>
					<trkpt lat="50.406790" lon="4.520040">
						<ele>101</ele>
						<time>2026-09-04T18:41:22Z</time>
					</trkpt>
					<trkpt lat="50.406700" lon="4.519890">
						<ele>101</ele>
						<time>2026-09-04T18:41:24Z</time>
					</trkpt>
					<trkpt lat="50.406670" lon="4.519780">
						<ele>101</ele>
						<time>2026-09-04T18:41:26Z</time>
					</trkpt>
					<trkpt lat="50.406670" lon="4.519740">
						<ele>101</ele>
						<time>2026-09-04T18:41:26Z</time>
					</trkpt>
					<trkpt lat="50.406660" lon="4.519710">
						<ele>101</ele>
						<time>2026-09-04T18:41:27Z</time>
					</trkpt>
					<trkpt lat="50.406630" lon="4.519670">
						<ele>101</ele>
						<time>2026-09-04T18:41:27Z</time>
					</trkpt>
					<trkpt lat="50.406620" lon="4.519670">
						<ele>101</ele>
						<time>2026-09-04T18:41:28Z</time>
					</trkpt>
					<trkpt lat="50.406530" lon="4.519450">
						<ele>100</ele>
						<time>2026-09-04T18:41:30Z</time>
					</trkpt>
					<trkpt lat="50.406330" lon="4.518840">
						<ele>100</ele>
						<time>2026-09-04T18:41:38Z</time>
					</trkpt>
					<trkpt lat="50.406230" lon="4.518570">
						<ele>100</ele>
						<time>2026-09-04T18:41:42Z</time>
					</trkpt>
					<trkpt lat="50.406130" lon="4.518320">
						<ele>100</ele>
						<time>2026-09-04T18:41:45Z</time>
					</trkpt>
					<trkpt lat="50.405990" lon="4.518040">
						<ele>100</ele>
						<time>2026-09-04T18:41:49Z</time>
					</trkpt>
					<trkpt lat="50.405870" lon="4.517850">
						<ele>101</ele>
						<time>2026-09-04T18:41:52Z</time>
					</trkpt>
					<trkpt lat="50.405700" lon="4.517680">
						<ele>100</ele>
						<time>2026-09-04T18:41:56Z</time>
					</trkpt>
					<trkpt lat="50.405570" lon="4.517570">
						<ele>100</ele>
						<time>2026-09-04T18:41:58Z</time>
					</trkpt>
					<trkpt lat="50.405410" lon="4.517480">
						<ele>99</ele>
						<time>2026-09-04T18:42:01Z</time>
					</trkpt>
					<trkpt lat="50.405300" lon="4.517430">
						<ele>99</ele>
						<time>2026-09-04T18:42:03Z</time>
					</trkpt>
					<trkpt lat="50.405210" lon="4.517420">
						<ele>99</ele>
						<time>2026-09-04T18:42:05Z</time>
					</trkpt>
					<trkpt lat="50.405090" lon="4.517420">
						<ele>98</ele>
						<time>2026-09-04T18:42:07Z</time>
					</trkpt>
					<trkpt lat="50.404960" lon="4.517450">
						<ele>98</ele>
						<time>2026-09-04T18:42:10Z</time>
					</trkpt>
					<trkpt lat="50.404820" lon="4.517500">
						<ele>98</ele>
						<time>2026-09-04T18:42:12Z</time>
					</trkpt>
					<trkpt lat="50.404640" lon="4.517590">
						<ele>98</ele>
						<time>2026-09-04T18:42:15Z</time>
					</trkpt>
					<trkpt lat="50.404500" lon="4.517680">
						<ele>98</ele>
						<time>2026-09-04T18:42:18Z</time>
					</trkpt>
					<trkpt lat="50.404380" lon="4.517790">
						<ele>98</ele>
						<time>2026-09-04T18:42:21Z</time>
					</trkpt>
					<trkpt lat="50.404120" lon="4.517710">
						<ele>98</ele>
						<time>2026-09-04T18:42:25Z</time>
					</trkpt>
					<trkpt lat="50.404010" lon="4.517460">
						<ele>98</ele>
						<time>2026-09-04T18:42:29Z</time>
					</trkpt>
					<trkpt lat="50.403950" lon="4.517280">
						<ele>98</ele>
						<time>2026-09-04T18:42:31Z</time>
					</trkpt>
					<trkpt lat="50.403920" lon="4.517180">
						<ele>99</ele>
						<time>2026-09-04T18:42:32Z</time>
					</trkpt>
					<trkpt lat="50.403840" lon="4.517030">
						<ele>99</ele>
						<time>2026-09-04T18:42:35Z</time>
					</trkpt>
					<trkpt lat="50.403800" lon="4.516900">
						<ele>99</ele>
						<time>2026-09-04T18:42:36Z</time>
					</trkpt>
					<trkpt lat="50.403560" lon="4.516260">
						<ele>99</ele>
						<time>2026-09-04T18:42:45Z</time>
					</trkpt>
					<trkpt lat="50.403260" lon="4.515480">
						<ele>100</ele>
						<time>2026-09-04T18:42:55Z</time>
					</trkpt>
					<trkpt lat="50.403110" lon="4.515080">
						<ele>100</ele>
						<time>2026-09-04T18:43:00Z</time>
					</trkpt>
					<trkpt lat="50.403050" lon="4.514930">
						<ele>100</ele>
						<time>2026-09-04T18:43:02Z</time>
					</trkpt>
					<trkpt lat="50.403020" lon="4.514830">
						<ele>100</ele>
						<time>2026-09-04T18:43:03Z</time>
					</trkpt>
					<trkpt lat="50.402900" lon="4.514540">
						<ele>99</ele>
						<time>2026-09-04T18:43:07Z</time>
					</trkpt>
					<trkpt lat="50.402550" lon="4.513460">
						<ele>99</ele>
						<time>2026-09-04T18:43:21Z</time>
					</trkpt>
					<trkpt lat="50.402460" lon="4.513150">
						<ele>99</ele>
						<time>2026-09-04T18:43:25Z</time>
					</trkpt>
					<trkpt lat="50.402340" lon="4.512730">
						<ele>99</ele>
						<time>2026-09-04T18:43:30Z</time>
					</trkpt>
					<trkpt lat="50.402160" lon="4.512140">
						<ele>99</ele>
						<time>2026-09-04T18:43:38Z</time>
					</trkpt>
					<trkpt lat="50.401690" lon="4.510500">
						<ele>98</ele>
						<time>2026-09-04T18:43:58Z</time>
					</trkpt>
					<trkpt lat="50.401550" lon="4.510040">
						<ele>98</ele>
						<time>2026-09-04T18:44:04Z</time>
					</trkpt>
					<trkpt lat="50.401140" lon="4.508570">
						<ele>99</ele>
						<time>2026-09-04T18:44:22Z</time>
					</trkpt>
					<trkpt lat="50.400820" lon="4.507450">
						<ele>101</ele>
						<time>2026-09-04T18:44:36Z</time>
					</trkpt>
					<trkpt lat="50.400710" lon="4.507080">
						<ele>104</ele>
						<time>2026-09-04T18:44:41Z</time>
					</trkpt>
					<trkpt lat="50.400490" lon="4.506350">
						<ele>106</ele>
						<time>2026-09-04T18:44:50Z</time>
					</trkpt>
					<trkpt lat="50.400450" lon="4.506220">
						<ele>106</ele>
						<time>2026-09-04T18:44:51Z</time>
					</trkpt>
					<trkpt lat="50.400170" lon="4.505130">
						<ele>100</ele>
						<time>2026-09-04T18:45:05Z</time>
					</trkpt>
					<trkpt lat="50.399950" lon="4.504260">
						<ele>98</ele>
						<time>2026-09-04T18:45:15Z</time>
					</trkpt>
					<trkpt lat="50.399770" lon="4.503400">
						<ele>98</ele>
						<time>2026-09-04T18:45:26Z</time>
					</trkpt>
					<trkpt lat="50.399530" lon="4.502250">
						<ele>96</ele>
						<time>2026-09-04T18:45:39Z</time>
					</trkpt>
					<trkpt lat="50.399370" lon="4.501530">
						<ele>97</ele>
						<time>2026-09-04T18:45:48Z</time>
					</trkpt>
					<trkpt lat="50.399310" lon="4.501280">
						<ele>97</ele>
						<time>2026-09-04T18:45:51Z</time>
					</trkpt>
					<trkpt lat="50.399210" lon="4.501030">
						<ele>97</ele>
						<time>2026-09-04T18:45:54Z</time>
					</trkpt>
					<trkpt lat="50.398880" lon="4.500260">
						<ele>99</ele>
						<time>2026-09-04T18:46:05Z</time>
					</trkpt>
					<trkpt lat="50.398410" lon="4.499150">
						<ele>98</ele>
						<time>2026-09-04T18:46:20Z</time>
					</trkpt>
					<trkpt lat="50.398440" lon="4.499090">
						<ele>97</ele>
						<time>2026-09-04T18:46:21Z</time>
					</trkpt>
					<trkpt lat="50.398460" lon="4.499020">
						<ele>97</ele>
						<time>2026-09-04T18:46:22Z</time>
					</trkpt>
					<trkpt lat="50.398460" lon="4.498940">
						<ele>97</ele>
						<time>2026-09-04T18:46:23Z</time>
					</trkpt>
					<trkpt lat="50.398440" lon="4.498870">
						<ele>97</ele>
						<time>2026-09-04T18:46:23Z</time>
					</trkpt>
					<trkpt lat="50.398400" lon="4.498790">
						<ele>97</ele>
						<time>2026-09-04T18:46:25Z</time>
					</trkpt>
					<trkpt lat="50.398350" lon="4.498760">
						<ele>97</ele>
						<time>2026-09-04T18:46:26Z</time>
					</trkpt>
					<trkpt lat="50.398300" lon="4.498760">
						<ele>98</ele>
						<time>2026-09-04T18:46:26Z</time>
					</trkpt>
					<trkpt lat="50.398260" lon="4.498780">
						<ele>99</ele>
						<time>2026-09-04T18:46:27Z</time>
					</trkpt>
					<trkpt lat="50.398230" lon="4.498810">
						<ele>99</ele>
						<time>2026-09-04T18:46:28Z</time>
					</trkpt>
					<trkpt lat="50.398170" lon="4.498670">
						<ele>100</ele>
						<time>2026-09-04T18:46:30Z</time>
					</trkpt>
					<trkpt lat="50.397660" lon="4.497570">
						<ele>103</ele>
						<time>2026-09-04T18:46:45Z</time>
					</trkpt>
					<trkpt lat="50.397560" lon="4.497330">
						<ele>103</ele>
						<time>2026-09-04T18:46:48Z</time>
					</trkpt>
					<trkpt lat="50.397460" lon="4.497060">
						<ele>104</ele>
						<time>2026-09-04T18:46:52Z</time>
					</trkpt>
					<trkpt lat="50.397030" lon="4.495540">
						<ele>113</ele>
						<time>2026-09-04T18:47:11Z</time>
					</trkpt>
					<trkpt lat="50.396870" lon="4.495070">
						<ele>112</ele>
						<time>2026-09-04T18:47:17Z</time>
					</trkpt>
					<trkpt lat="50.396620" lon="4.494550">
						<ele>109</ele>
						<time>2026-09-04T18:47:24Z</time>
					</trkpt>
					<trkpt lat="50.396380" lon="4.493970">
						<ele>109</ele>
						<time>2026-09-04T18:47:32Z</time>
					</trkpt>
					<trkpt lat="50.396180" lon="4.493500">
						<ele>110</ele>
						<time>2026-09-04T18:47:39Z</time>
					</trkpt>
					<trkpt lat="50.395130" lon="4.489750">
						<ele>107</ele>
						<time>2026-09-04T18:48:25Z</time>
					</trkpt>
					<trkpt lat="50.395010" lon="4.489300">
						<ele>104</ele>
						<time>2026-09-04T18:48:31Z</time>
					</trkpt>
					<trkpt lat="50.394630" lon="4.487630">
						<ele>107</ele>
						<time>2026-09-04T18:48:51Z</time>
					</trkpt>
					<trkpt lat="50.394470" lon="4.486650">
						<ele>106</ele>
						<time>2026-09-04T18:49:02Z</time>
					</trkpt>
					<trkpt lat="50.394210" lon="4.485360">
						<ele>101</ele>
						<time>2026-09-04T18:49:17Z</time>
					</trkpt>
					<trkpt lat="50.394170" lon="4.485140">
						<ele>100</ele>
						<time>2026-09-04T18:49:20Z</time>
					</trkpt>
					<trkpt lat="50.393970" lon="4.484090">
						<ele>104</ele>
						<time>2026-09-04T18:49:32Z</time>
					</trkpt>
					<trkpt lat="50.393880" lon="4.483630">
						<ele>104</ele>
						<time>2026-09-04T18:49:38Z</time>
					</trkpt>
					<trkpt lat="50.393860" lon="4.483530">
						<ele>104</ele>
						<time>2026-09-04T18:49:39Z</time>
					</trkpt>
					<trkpt lat="50.393550" lon="4.481890">
						<ele>103</ele>
						<time>2026-09-04T18:49:59Z</time>
					</trkpt>
					<trkpt lat="50.393460" lon="4.481420">
						<ele>103</ele>
						<time>2026-09-04T18:50:04Z</time>
					</trkpt>
					<trkpt lat="50.393350" lon="4.480690">
						<ele>102</ele>
						<time>2026-09-04T18:50:13Z</time>
					</trkpt>
					<trkpt lat="50.393340" lon="4.480600">
						<ele>102</ele>
						<time>2026-09-04T18:50:14Z</time>
					</trkpt>
					<trkpt lat="50.393240" lon="4.479920">
						<ele>102</ele>
						<time>2026-09-04T18:50:22Z</time>
					</trkpt>
					<trkpt lat="50.392830" lon="4.477790">
						<ele>104</ele>
						<time>2026-09-04T18:50:47Z</time>
					</trkpt>
					<trkpt lat="50.392760" lon="4.477500">
						<ele>103</ele>
						<time>2026-09-04T18:50:50Z</time>
					</trkpt>
					<trkpt lat="50.392670" lon="4.477010">
						<ele>104</ele>
						<time>2026-09-04T18:50:56Z</time>
					</trkpt>
					<trkpt lat="50.392610" lon="4.476750">
						<ele>105</ele>
						<time>2026-09-04T18:50:59Z</time>
					</trkpt>
					<trkpt lat="50.392590" lon="4.476660">
						<ele>105</ele>
						<time>2026-09-04T18:51:00Z</time>
					</trkpt>
					<trkpt lat="50.392550" lon="4.476260">
						<ele>105</ele>
						<time>2026-09-04T18:51:05Z</time>
					</trkpt>
					<trkpt lat="50.392510" lon="4.475470">
						<ele>105</ele>
						<time>2026-09-04T18:51:14Z</time>
					</trkpt>
					<trkpt lat="50.392450" lon="4.474630">
						<ele>105</ele>
						<time>2026-09-04T18:51:23Z</time>
					</trkpt>
					<trkpt lat="50.392410" lon="4.473660">
						<ele>105</ele>
						<time>2026-09-04T18:51:35Z</time>
					</trkpt>
					<trkpt lat="50.392390" lon="4.473130">
						<ele>106</ele>
						<time>2026-09-04T18:51:41Z</time>
					</trkpt>
					<trkpt lat="50.392380" lon="4.471610">
						<ele>105</ele>
						<time>2026-09-04T18:51:58Z</time>
					</trkpt>
					<trkpt lat="50.392380" lon="4.470920">
						<ele>103</ele>
						<time>2026-09-04T18:52:06Z</time>
					</trkpt>
					<trkpt lat="50.392420" lon="4.470100">
						<ele>105</ele>
						<time>2026-09-04T18:52:15Z</time>
					</trkpt>
					<trkpt lat="50.392470" lon="4.469350">
						<ele>104</ele>
						<time>2026-09-04T18:52:23Z</time>
					</trkpt>
					<trkpt lat="50.392480" lon="4.469110">
						<ele>104</ele>
						<time>2026-09-04T18:52:26Z</time>
					</trkpt>
					<trkpt lat="50.392490" lon="4.468870">
						<ele>103</ele>
						<time>2026-09-04T18:52:29Z</time>
					</trkpt>
					<trkpt lat="50.392500" lon="4.468650">
						<ele>103</ele>
						<time>2026-09-04T18:52:31Z</time>
					</trkpt>
					<trkpt lat="50.392490" lon="4.468280">
						<ele>102</ele>
						<time>2026-09-04T18:52:36Z</time>
					</trkpt>
					<trkpt lat="50.392460" lon="4.467830">
						<ele>102</ele>
						<time>2026-09-04T18:52:41Z</time>
					</trkpt>
					<trkpt lat="50.392410" lon="4.467420">
						<ele>102</ele>
						<time>2026-09-04T18:52:46Z</time>
					</trkpt>
					<trkpt lat="50.392390" lon="4.467250">
						<ele>102</ele>
						<time>2026-09-04T18:52:47Z</time>
					</trkpt>
					<trkpt lat="50.392370" lon="4.467140">
						<ele>102</ele>
						<time>2026-09-04T18:52:49Z</time>
					</trkpt>
					<trkpt lat="50.392350" lon="4.467000">
						<ele>102</ele>
						<time>2026-09-04T18:52:50Z</time>
					</trkpt>
					<trkpt lat="50.392170" lon="4.465980">
						<ele>103</ele>
						<time>2026-09-04T18:53:02Z</time>
					</trkpt>
					<trkpt lat="50.392170" lon="4.465850">
						<ele>103</ele>
						<time>2026-09-04T18:53:04Z</time>
					</trkpt>
					<trkpt lat="50.392120" lon="4.464950">
						<ele>105</ele>
						<time>2026-09-04T18:53:14Z</time>
					</trkpt>
					<trkpt lat="50.392070" lon="4.463560">
						<ele>106</ele>
						<time>2026-09-04T18:53:30Z</time>
					</trkpt>
					<trkpt lat="50.392050" lon="4.463100">
						<ele>106</ele>
						<time>2026-09-04T18:53:35Z</time>
					</trkpt>
					<trkpt lat="50.392000" lon="4.462320">
						<ele>106</ele>
						<time>2026-09-04T18:53:44Z</time>
					</trkpt>
					<trkpt lat="50.391960" lon="4.461740">
						<ele>107</ele>
						<time>2026-09-04T18:53:51Z</time>
					</trkpt>
					<trkpt lat="50.391550" lon="4.459780">
						<ele>112</ele>
						<time>2026-09-04T18:54:14Z</time>
					</trkpt>
					<trkpt lat="50.391390" lon="4.459030">
						<ele>113</ele>
						<time>2026-09-04T18:54:23Z</time>
					</trkpt>
					<trkpt lat="50.391370" lon="4.458900">
						<ele>113</ele>
						<time>2026-09-04T18:54:25Z</time>
					</trkpt>
					<trkpt lat="50.391260" lon="4.458340">
						<ele>113</ele>
						<time>2026-09-04T18:54:31Z</time>
					</trkpt>
					<trkpt lat="50.391250" lon="4.458090">
						<ele>113</ele>
						<time>2026-09-04T18:54:34Z</time>
					</trkpt>
					<trkpt lat="50.391270" lon="4.457800">
						<ele>113</ele>
						<time>2026-09-04T18:54:37Z</time>
					</trkpt>
					<trkpt lat="50.391310" lon="4.457560">
						<ele>112</ele>
						<time>2026-09-04T18:54:40Z</time>
					</trkpt>
					<trkpt lat="50.391340" lon="4.457460">
						<ele>112</ele>
						<time>2026-09-04T18:54:41Z</time>
					</trkpt>
					<trkpt lat="50.391400" lon="4.457340">
						<ele>112</ele>
						<time>2026-09-04T18:54:43Z</time>
					</trkpt>
					<trkpt lat="50.391700" lon="4.456810">
						<ele>110</ele>
						<time>2026-09-04T18:54:51Z</time>
					</trkpt>
					<trkpt lat="50.391990" lon="4.456270">
						<ele>109</ele>
						<time>2026-09-04T18:54:59Z</time>
					</trkpt>
					<trkpt lat="50.392240" lon="4.455830">
						<ele>108</ele>
						<time>2026-09-04T18:55:06Z</time>
					</trkpt>
					<trkpt lat="50.392550" lon="4.455300">
						<ele>107</ele>
						<time>2026-09-04T18:55:14Z</time>
					</trkpt>
					<trkpt lat="50.392590" lon="4.455210">
						<ele>107</ele>
						<time>2026-09-04T18:55:15Z</time>
					</trkpt>
					<trkpt lat="50.392680" lon="4.454920">
						<ele>107</ele>
						<time>2026-09-04T18:55:19Z</time>
					</trkpt>
					<trkpt lat="50.392720" lon="4.454790">
						<ele>107</ele>
						<time>2026-09-04T18:55:21Z</time>
					</trkpt>
					<trkpt lat="50.392740" lon="4.454710">
						<ele>107</ele>
						<time>2026-09-04T18:55:22Z</time>
					</trkpt>
					<trkpt lat="50.392740" lon="4.454630">
						<ele>107</ele>
						<time>2026-09-04T18:55:22Z</time>
					</trkpt>
					<trkpt lat="50.392730" lon="4.454500">
						<ele>107</ele>
						<time>2026-09-04T18:55:24Z</time>
					</trkpt>
					<trkpt lat="50.392720" lon="4.454450">
						<ele>107</ele>
						<time>2026-09-04T18:55:25Z</time>
					</trkpt>
					<trkpt lat="50.392630" lon="4.454000">
						<ele>108</ele>
						<time>2026-09-04T18:55:30Z</time>
					</trkpt>
					<trkpt lat="50.392580" lon="4.453660">
						<ele>108</ele>
						<time>2026-09-04T18:55:34Z</time>
					</trkpt>
					<trkpt lat="50.392550" lon="4.453460">
						<ele>109</ele>
						<time>2026-09-04T18:55:36Z</time>
					</trkpt>
					<trkpt lat="50.392510" lon="4.453280">
						<ele>109</ele>
						<time>2026-09-04T18:55:38Z</time>
					</trkpt>
					<trkpt lat="50.392260" lon="4.452280">
						<ele>110</ele>
						<time>2026-09-04T18:55:51Z</time>
					</trkpt>
					<trkpt lat="50.392170" lon="4.451960">
						<ele>109</ele>
						<time>2026-09-04T18:55:54Z</time>
					</trkpt>
					<trkpt lat="50.392090" lon="4.451650">
						<ele>110</ele>
						<time>2026-09-04T18:55:58Z</time>
					</trkpt>
					<trkpt lat="50.392130" lon="4.451600">
						<ele>110</ele>
						<time>2026-09-04T18:55:59Z</time>
					</trkpt>
					<trkpt lat="50.392230" lon="4.451380">
						<ele>110</ele>
						<time>2026-09-04T18:56:02Z</time>
					</trkpt>
					<trkpt lat="50.392570" lon="4.450660">
						<ele>112</ele>
						<time>2026-09-04T18:56:12Z</time>
					</trkpt>
					<trkpt lat="50.392650" lon="4.450400">
						<ele>113</ele>
						<time>2026-09-04T18:56:16Z</time>
					</trkpt>
					<trkpt lat="50.392710" lon="4.450140">
						<ele>114</ele>
						<time>2026-09-04T18:56:19Z</time>
					</trkpt>
					<trkpt lat="50.392800" lon="4.449510">
						<ele>116</ele>
						<time>2026-09-04T18:56:26Z</time>
					</trkpt>
					<trkpt lat="50.392920" lon="4.448630">
						<ele>119</ele>
						<time>2026-09-04T18:56:36Z</time>
					</trkpt>
					<trkpt lat="50.392950" lon="4.448250">
						<ele>119</ele>
						<time>2026-09-04T18:56:41Z</time>
					</trkpt>
					<trkpt lat="50.392980" lon="4.447130">
						<ele>119</ele>
						<time>2026-09-04T18:56:53Z</time>
					</trkpt>
					<trkpt lat="50.392580" lon="4.445130">
						<ele>122</ele>
						<time>2026-09-04T18:57:17Z</time>
					</trkpt>
					<trkpt lat="50.392330" lon="4.443830">
						<ele>121</ele>
						<time>2026-09-04T18:57:33Z</time>
					</trkpt>
					<trkpt lat="50.392310" lon="4.443740">
						<ele>121</ele>
						<time>2026-09-04T18:57:34Z</time>
					</trkpt>
					<trkpt lat="50.392000" lon="4.442290">
						<ele>123</ele>
						<time>2026-09-04T18:57:51Z</time>
					</trkpt>
					<trkpt lat="50.391610" lon="4.440490">
						<ele>128</ele>
						<time>2026-09-04T18:58:13Z</time>
					</trkpt>
					<trkpt lat="50.391380" lon="4.439490">
						<ele>129</ele>
						<time>2026-09-04T18:58:25Z</time>
					</trkpt>
					<trkpt lat="50.391360" lon="4.439390">
						<ele>129</ele>
						<time>2026-09-04T18:58:26Z</time>
					</trkpt>
					<trkpt lat="50.391060" lon="4.438060">
						<ele>128</ele>
						<time>2026-09-04T18:58:42Z</time>
					</trkpt>
					<trkpt lat="50.391060" lon="4.437960">
						<ele>128</ele>
						<time>2026-09-04T18:58:43Z</time>
					</trkpt>
					<trkpt lat="50.391090" lon="4.437830">
						<ele>128</ele>
						<time>2026-09-04T18:58:45Z</time>
					</trkpt>
					<trkpt lat="50.390890" lon="4.437590">
						<ele>127</ele>
						<time>2026-09-04T18:58:49Z</time>
					</trkpt>
					<trkpt lat="50.390810" lon="4.437490">
						<ele>127</ele>
						<time>2026-09-04T18:58:51Z</time>
					</trkpt>
					<trkpt lat="50.390500" lon="4.437140">
						<ele>128</ele>
						<time>2026-09-04T18:58:58Z</time>
					</trkpt>
					<trkpt lat="50.389980" lon="4.436560">
						<ele>129</ele>
						<time>2026-09-04T18:59:09Z</time>
					</trkpt>
					<trkpt lat="50.389640" lon="4.436180">
						<ele>130</ele>
						<time>2026-09-04T18:59:16Z</time>
					</trkpt>
					<trkpt lat="50.388630" lon="4.435050">
						<ele>132</ele>
						<time>2026-09-04T18:59:39Z</time>
					</trkpt>
					<trkpt lat="50.388540" lon="4.434950">
						<ele>133</ele>
						<time>2026-09-04T18:59:40Z</time>
					</trkpt>
					<trkpt lat="50.388510" lon="4.434910">
						<ele>133</ele>
						<time>2026-09-04T18:59:41Z</time>
					</trkpt>
					<trkpt lat="50.388210" lon="4.434580">
						<ele>134</ele>
						<time>2026-09-04T18:59:48Z</time>
					</trkpt>
					<trkpt lat="50.387260" lon="4.433500">
						<ele>139</ele>
						<time>2026-09-04T19:00:09Z</time>
					</trkpt>
					<trkpt lat="50.386880" lon="4.433090">
						<ele>141</ele>
						<time>2026-09-04T19:00:17Z</time>
					</trkpt>
					<trkpt lat="50.386490" lon="4.432680">
						<ele>142</ele>
						<time>2026-09-04T19:00:25Z</time>
					</trkpt>
					<trkpt lat="50.386300" lon="4.432440">
						<ele>142</ele>
						<time>2026-09-04T19:00:29Z</time>
					</trkpt>
					<trkpt lat="50.385460" lon="4.431510">
						<ele>144</ele>
						<time>2026-09-04T19:00:48Z</time>
					</trkpt>
					<trkpt lat="50.385340" lon="4.431380">
						<ele>144</ele>
						<time>2026-09-04T19:00:50Z</time>
					</trkpt>
					<trkpt lat="50.384690" lon="4.430670">
						<ele>147</ele>
						<time>2026-09-04T19:01:04Z</time>
					</trkpt>
					<trkpt lat="50.383850" lon="4.429720">
						<ele>148</ele>
						<time>2026-09-04T19:01:23Z</time>
					</trkpt>
					<trkpt lat="50.381940" lon="4.427590">
						<ele>154</ele>
						<time>2026-09-04T19:02:05Z</time>
					</trkpt>
					<trkpt lat="50.381680" lon="4.427310">
						<ele>154</ele>
						<time>2026-09-04T19:02:10Z</time>
					</trkpt>
					<trkpt lat="50.381590" lon="4.427210">
						<ele>154</ele>
						<time>2026-09-04T19:02:12Z</time>
					</trkpt>
					<trkpt lat="50.381360" lon="4.426970">
						<ele>155</ele>
						<time>2026-09-04T19:02:17Z</time>
					</trkpt>
					<trkpt lat="50.381000" lon="4.426580">
						<ele>156</ele>
						<time>2026-09-04T19:02:25Z</time>
					</trkpt>
					<trkpt lat="50.380890" lon="4.426450">
						<ele>156</ele>
						<time>2026-09-04T19:02:27Z</time>
					</trkpt>
					<trkpt lat="50.380800" lon="4.426330">
						<ele>156</ele>
						<time>2026-09-04T19:02:29Z</time>
					</trkpt>
					<trkpt lat="50.380810" lon="4.426250">
						<ele>156</ele>
						<time>2026-09-04T19:02:30Z</time>
					</trkpt>
					<trkpt lat="50.380640" lon="4.426000">
						<ele>157</ele>
						<time>2026-09-04T19:02:34Z</time>
					</trkpt>
					<trkpt lat="50.380600" lon="4.426010">
						<ele>157</ele>
						<time>2026-09-04T19:02:35Z</time>
					</trkpt>
					<trkpt lat="50.380290" lon="4.425550">
						<ele>158</ele>
						<time>2026-09-04T19:02:43Z</time>
					</trkpt>
					<trkpt lat="50.380160" lon="4.425330">
						<ele>158</ele>
						<time>2026-09-04T19:02:46Z</time>
					</trkpt>
					<trkpt lat="50.380080" lon="4.425190">
						<ele>159</ele>
						<time>2026-09-04T19:02:48Z</time>
					</trkpt>
					<trkpt lat="50.380060" lon="4.425160">
						<ele>159</ele>
						<time>2026-09-04T19:02:49Z</time>
					</trkpt>
					<trkpt lat="50.379970" lon="4.424980">
						<ele>159</ele>
						<time>2026-09-04T19:02:51Z</time>
					</trkpt>
					<trkpt lat="50.378890" lon="4.422900">
						<ele>162</ele>
						<time>2026-09-04T19:03:22Z</time>
					</trkpt>
					<trkpt lat="50.378510" lon="4.422190">
						<ele>160</ele>
						<time>2026-09-04T19:03:32Z</time>
					</trkpt>
					<trkpt lat="50.378460" lon="4.422100">
						<ele>160</ele>
						<time>2026-09-04T19:03:34Z</time>
					</trkpt>
					<trkpt lat="50.378310" lon="4.421800">
						<ele>158</ele>
						<time>2026-09-04T19:03:38Z</time>
					</trkpt>
					<trkpt lat="50.377680" lon="4.420660">
						<ele>159</ele>
						<time>2026-09-04T19:03:55Z</time>
					</trkpt>
					<trkpt lat="50.377650" lon="4.420610">
						<ele>159</ele>
						<time>2026-09-04T19:03:56Z</time>
					</trkpt>
					<trkpt lat="50.377210" lon="4.419740">
						<ele>159</ele>
						<time>2026-09-04T19:04:09Z</time>
					</trkpt>
					<trkpt lat="50.376850" lon="4.419050">
						<ele>159</ele>
						<time>2026-09-04T19:04:19Z</time>
					</trkpt>
					<trkpt lat="50.376660" lon="4.418690">
						<ele>159</ele>
						<time>2026-09-04T19:04:24Z</time>
					</trkpt>
					<trkpt lat="50.376410" lon="4.418250">
						<ele>159</ele>
						<time>2026-09-04T19:04:31Z</time>
					</trkpt>
					<trkpt lat="50.376330" lon="4.418110">
						<ele>159</ele>
						<time>2026-09-04T19:04:33Z</time>
					</trkpt>
					<trkpt lat="50.375440" lon="4.416400">
						<ele>159</ele>
						<time>2026-09-04T19:04:58Z</time>
					</trkpt>
					<trkpt lat="50.374720" lon="4.415050">
						<ele>158</ele>
						<time>2026-09-04T19:05:18Z</time>
					</trkpt>
					<trkpt lat="50.373710" lon="4.413180">
						<ele>157</ele>
						<time>2026-09-04T19:05:46Z</time>
					</trkpt>
					<trkpt lat="50.373150" lon="4.412130">
						<ele>155</ele>
						<time>2026-09-04T19:06:01Z</time>
					</trkpt>
					<trkpt lat="50.372310" lon="4.410540">
						<ele>153</ele>
						<time>2026-09-04T19:06:25Z</time>
					</trkpt>
					<trkpt lat="50.372170" lon="4.410290">
						<ele>153</ele>
						<time>2026-09-04T19:06:28Z</time>
					</trkpt>
					<trkpt lat="50.371810" lon="4.409620">
						<ele>150</ele>
						<time>2026-09-04T19:06:38Z</time>
					</trkpt>
					<trkpt lat="50.371710" lon="4.409430">
						<ele>148</ele>
						<time>2026-09-04T19:06:41Z</time>
					</trkpt>
					<trkpt lat="50.370230" lon="4.406650">
						<ele>143</ele>
						<time>2026-09-04T19:07:22Z</time>
					</trkpt>
					<trkpt lat="50.370110" lon="4.406410">
						<ele>142</ele>
						<time>2026-09-04T19:07:26Z</time>
					</trkpt>
					<trkpt lat="50.368920" lon="4.404170">
						<ele>133</ele>
						<time>2026-09-04T19:07:59Z</time>
					</trkpt>
					<trkpt lat="50.368780" lon="4.403830">
						<ele>131</ele>
						<time>2026-09-04T19:08:03Z</time>
					</trkpt>
					<trkpt lat="50.368600" lon="4.403210">
						<ele>128</ele>
						<time>2026-09-04T19:08:11Z</time>
					</trkpt>
					<trkpt lat="50.368540" lon="4.402940">
						<ele>127</ele>
						<time>2026-09-04T19:08:14Z</time>
					</trkpt>
					<trkpt lat="50.368500" lon="4.402610">
						<ele>127</ele>
						<time>2026-09-04T19:08:18Z</time>
					</trkpt>
					<trkpt lat="50.368480" lon="4.402190">
						<ele>126</ele>
						<time>2026-09-04T19:08:23Z</time>
					</trkpt>
					<trkpt lat="50.368490" lon="4.401850">
						<ele>125</ele>
						<time>2026-09-04T19:08:27Z</time>
					</trkpt>
					<trkpt lat="50.368510" lon="4.401600">
						<ele>124</ele>
						<time>2026-09-04T19:08:30Z</time>
					</trkpt>
					<trkpt lat="50.368570" lon="4.400250">
						<ele>119</ele>
						<time>2026-09-04T19:08:45Z</time>
					</trkpt>
					<trkpt lat="50.368630" lon="4.398900">
						<ele>117</ele>
						<time>2026-09-04T19:09:00Z</time>
					</trkpt>
					<trkpt lat="50.368640" lon="4.398740">
						<ele>117</ele>
						<time>2026-09-04T19:09:02Z</time>
					</trkpt>
					<trkpt lat="50.368680" lon="4.398180">
						<ele>117</ele>
						<time>2026-09-04T19:09:09Z</time>
					</trkpt>
					<trkpt lat="50.368470" lon="4.397980">
						<ele>115</ele>
						<time>2026-09-04T19:09:13Z</time>
					</trkpt>
					<trkpt lat="50.368350" lon="4.397850">
						<ele>115</ele>
						<time>2026-09-04T19:09:16Z</time>
					</trkpt>
					<trkpt lat="50.368220" lon="4.397690">
						<ele>115</ele>
						<time>2026-09-04T19:09:18Z</time>
					</trkpt>
					<trkpt lat="50.368080" lon="4.397500">
						<ele>115</ele>
						<time>2026-09-04T19:09:22Z</time>
					</trkpt>
					<trkpt lat="50.367940" lon="4.397330">
						<ele>115</ele>
						<time>2026-09-04T19:09:25Z</time>
					</trkpt>
					<trkpt lat="50.367750" lon="4.397090">
						<ele>115</ele>
						<time>2026-09-04T19:09:29Z</time>
					</trkpt>
					<trkpt lat="50.367660" lon="4.396980">
						<ele>114</ele>
						<time>2026-09-04T19:09:31Z</time>
					</trkpt>
					<trkpt lat="50.367450" lon="4.396710">
						<ele>114</ele>
						<time>2026-09-04T19:09:36Z</time>
					</trkpt>
					<trkpt lat="50.366660" lon="4.395720">
						<ele>118</ele>
						<time>2026-09-04T19:09:54Z</time>
					</trkpt>
					<trkpt lat="50.366610" lon="4.395660">
						<ele>118</ele>
						<time>2026-09-04T19:09:55Z</time>
					</trkpt>
					<trkpt lat="50.365810" lon="4.394660">
						<ele>122</ele>
						<time>2026-09-04T19:10:13Z</time>
					</trkpt>
					<trkpt lat="50.365760" lon="4.394600">
						<ele>122</ele>
						<time>2026-09-04T19:10:15Z</time>
					</trkpt>
					<trkpt lat="50.365000" lon="4.393640">
						<ele>127</ele>
						<time>2026-09-04T19:10:32Z</time>
					</trkpt>
					<trkpt lat="50.364950" lon="4.393580">
						<ele>127</ele>
						<time>2026-09-04T19:10:33Z</time>
					</trkpt>
					<trkpt lat="50.364600" lon="4.393140">
						<ele>130</ele>
						<time>2026-09-04T19:10:41Z</time>
					</trkpt>
					<trkpt lat="50.364060" lon="4.392480">
						<ele>135</ele>
						<time>2026-09-04T19:10:53Z</time>
					</trkpt>
					<trkpt lat="50.364010" lon="4.392420">
						<ele>135</ele>
						<time>2026-09-04T19:10:54Z</time>
					</trkpt>
					<trkpt lat="50.363910" lon="4.392350">
						<ele>136</ele>
						<time>2026-09-04T19:10:56Z</time>
					</trkpt>
					<trkpt lat="50.363760" lon="4.392290">
						<ele>138</ele>
						<time>2026-09-04T19:10:59Z</time>
					</trkpt>
					<trkpt lat="50.363670" lon="4.392280">
						<ele>138</ele>
						<time>2026-09-04T19:11:01Z</time>
					</trkpt>
					<trkpt lat="50.363520" lon="4.392330">
						<ele>139</ele>
						<time>2026-09-04T19:11:03Z</time>
					</trkpt>
					<trkpt lat="50.363330" lon="4.392460">
						<ele>141</ele>
						<time>2026-09-04T19:11:07Z</time>
					</trkpt>
					<trkpt lat="50.362030" lon="4.393620">
						<ele>147</ele>
						<time>2026-09-04T19:11:34Z</time>
					</trkpt>
					<trkpt lat="50.361530" lon="4.394060">
						<ele>149</ele>
						<time>2026-09-04T19:11:44Z</time>
					</trkpt>
					<trkpt lat="50.361370" lon="4.394170">
						<ele>150</ele>
						<time>2026-09-04T19:11:47Z</time>
					</trkpt>
					<trkpt lat="50.361290" lon="4.394170">
						<ele>150</ele>
						<time>2026-09-04T19:11:48Z</time>
					</trkpt>
					<trkpt lat="50.361250" lon="4.394140">
						<ele>151</ele>
						<time>2026-09-04T19:11:49Z</time>
					</trkpt>
					<trkpt lat="50.361210" lon="4.394100">
						<ele>151</ele>
						<time>2026-09-04T19:11:50Z</time>
					</trkpt>
					<trkpt lat="50.361190" lon="4.394050">
						<ele>151</ele>
						<time>2026-09-04T19:11:51Z</time>
					</trkpt>
					<trkpt lat="50.361180" lon="4.394000">
						<ele>152</ele>
						<time>2026-09-04T19:11:51Z</time>
					</trkpt>
					<trkpt lat="50.361190" lon="4.393820">
						<ele>152</ele>
						<time>2026-09-04T19:11:53Z</time>
					</trkpt>
					<trkpt lat="50.361200" lon="4.393690">
						<ele>153</ele>
						<time>2026-09-04T19:11:55Z</time>
					</trkpt>
					<trkpt lat="50.361920" lon="4.389920">
						<ele>163</ele>
						<time>2026-09-04T19:12:39Z</time>
					</trkpt>
					<trkpt lat="50.361930" lon="4.389830">
						<ele>163</ele>
						<time>2026-09-04T19:12:41Z</time>
					</trkpt>
					<trkpt lat="50.361920" lon="4.389720">
						<ele>163</ele>
						<time>2026-09-04T19:12:42Z</time>
					</trkpt>
					<trkpt lat="50.361880" lon="4.389610">
						<ele>164</ele>
						<time>2026-09-04T19:12:43Z</time>
					</trkpt>
					<trkpt lat="50.361800" lon="4.389550">
						<ele>165</ele>
						<time>2026-09-04T19:12:45Z</time>
					</trkpt>
					<trkpt lat="50.361760" lon="4.389550">
						<ele>166</ele>
						<time>2026-09-04T19:12:46Z</time>
					</trkpt>
					<trkpt lat="50.361670" lon="4.389580">
						<ele>167</ele>
						<time>2026-09-04T19:12:47Z</time>
					</trkpt>
					<trkpt lat="50.361630" lon="4.389610">
						<ele>167</ele>
						<time>2026-09-04T19:12:48Z</time>
					</trkpt>
					<trkpt lat="50.360980" lon="4.390500">
						<ele>172</ele>
						<time>2026-09-04T19:13:03Z</time>
					</trkpt>
					<trkpt lat="50.359760" lon="4.392110">
						<ele>176</ele>
						<time>2026-09-04T19:13:32Z</time>
					</trkpt>
					<trkpt lat="50.359700" lon="4.392180">
						<ele>175</ele>
						<time>2026-09-04T19:13:33Z</time>
					</trkpt>
					<trkpt lat="50.359600" lon="4.392230">
						<ele>175</ele>
						<time>2026-09-04T19:13:35Z</time>
					</trkpt>
					<trkpt lat="50.359550" lon="4.392230">
						<ele>176</ele>
						<time>2026-09-04T19:13:36Z</time>
					</trkpt>
					<trkpt lat="50.359510" lon="4.392210">
						<ele>176</ele>
						<time>2026-09-04T19:13:37Z</time>
					</trkpt>
					<trkpt lat="50.359460" lon="4.392170">
						<ele>177</ele>
						<time>2026-09-04T19:13:38Z</time>
					</trkpt>
					<trkpt lat="50.359430" lon="4.392120">
						<ele>177</ele>
						<time>2026-09-04T19:13:38Z</time>
					</trkpt>
					<trkpt lat="50.359400" lon="4.392040">
						<ele>178</ele>
						<time>2026-09-04T19:13:39Z</time>
					</trkpt>
					<trkpt lat="50.359390" lon="4.391960">
						<ele>179</ele>
						<time>2026-09-04T19:13:40Z</time>
					</trkpt>
					<trkpt lat="50.359390" lon="4.391880">
						<ele>180</ele>
						<time>2026-09-04T19:13:41Z</time>
					</trkpt>
					<trkpt lat="50.359400" lon="4.391760">
						<ele>181</ele>
						<time>2026-09-04T19:13:43Z</time>
					</trkpt>
					<trkpt lat="50.359610" lon="4.390630">
						<ele>186</ele>
						<time>2026-09-04T19:13:56Z</time>
					</trkpt>
					<trkpt lat="50.359630" lon="4.390480">
						<ele>187</ele>
						<time>2026-09-04T19:13:58Z</time>
					</trkpt>
					<trkpt lat="50.359630" lon="4.390210">
						<ele>188</ele>
						<time>2026-09-04T19:14:01Z</time>
					</trkpt>
					<trkpt lat="50.359610" lon="4.389990">
						<ele>190</ele>
						<time>2026-09-04T19:14:03Z</time>
					</trkpt>
					<trkpt lat="50.359590" lon="4.389870">
						<ele>191</ele>
						<time>2026-09-04T19:14:05Z</time>
					</trkpt>
					<trkpt lat="50.359520" lon="4.389630">
						<ele>193</ele>
						<time>2026-09-04T19:14:08Z</time>
					</trkpt>
					<trkpt lat="50.359420" lon="4.389380">
						<ele>196</ele>
						<time>2026-09-04T19:14:11Z</time>
					</trkpt>
					<trkpt lat="50.358830" lon="4.388270">
						<ele>203</ele>
						<time>2026-09-04T19:14:27Z</time>
					</trkpt>
					<trkpt lat="50.358390" lon="4.387440">
						<ele>206</ele>
						<time>2026-09-04T19:14:40Z</time>
					</trkpt>
					<trkpt lat="50.357650" lon="4.386070">
						<ele>207</ele>
						<time>2026-09-04T19:15:00Z</time>
					</trkpt>
					<trkpt lat="50.356030" lon="4.383040">
						<ele>213</ele>
						<time>2026-09-04T19:15:45Z</time>
					</trkpt>
					<trkpt lat="50.355950" lon="4.382900">
						<ele>214</ele>
						<time>2026-09-04T19:15:47Z</time>
					</trkpt>
					<trkpt lat="50.354100" lon="4.379440">
						<ele>221</ele>
						<time>2026-09-04T19:16:38Z</time>
					</trkpt>
					<trkpt lat="50.353790" lon="4.378800">
						<ele>221</ele>
						<time>2026-09-04T19:16:47Z</time>
					</trkpt>
					<trkpt lat="50.353760" lon="4.378720">
						<ele>220</ele>
						<time>2026-09-04T19:16:48Z</time>
					</trkpt>
					<trkpt lat="50.353720" lon="4.378540">
						<ele>220</ele>
						<time>2026-09-04T19:16:51Z</time>
					</trkpt>
					<trkpt lat="50.353730" lon="4.378480">
						<ele>220</ele>
						<time>2026-09-04T19:16:51Z</time>
					</trkpt>
					<trkpt lat="50.353790" lon="4.378350">
						<ele>220</ele>
						<time>2026-09-04T19:16:53Z</time>
					</trkpt>
					<trkpt lat="50.353870" lon="4.378220">
						<ele>220</ele>
						<time>2026-09-04T19:16:55Z</time>
					</trkpt>
					<trkpt lat="50.353950" lon="4.378190">
						<ele>220</ele>
						<time>2026-09-04T19:16:57Z</time>
					</trkpt>
					<trkpt lat="50.354030" lon="4.378190">
						<ele>220</ele>
						<time>2026-09-04T19:16:58Z</time>
					</trkpt>
					<trkpt lat="50.354650" lon="4.378430">
						<ele>221</ele>
						<time>2026-09-04T19:17:09Z</time>
					</trkpt>
					<trkpt lat="50.355270" lon="4.378420">
						<ele>221</ele>
						<time>2026-09-04T19:17:20Z</time>
					</trkpt>
					<trkpt lat="50.356380" lon="4.378460">
						<ele>214</ele>
						<time>2026-09-04T19:17:40Z</time>
					</trkpt>
					<trkpt lat="50.356560" lon="4.378460">
						<ele>212</ele>
						<time>2026-09-04T19:17:43Z</time>
					</trkpt>
					<trkpt lat="50.356680" lon="4.378460">
						<ele>211</ele>
						<time>2026-09-04T19:17:46Z</time>
					</trkpt>
					<trkpt lat="50.356960" lon="4.378410">
						<ele>211</ele>
						<time>2026-09-04T19:17:51Z</time>
					</trkpt>
					<trkpt lat="50.357110" lon="4.378370">
						<ele>210</ele>
						<time>2026-09-04T19:17:53Z</time>
					</trkpt>
					<trkpt lat="50.357240" lon="4.378310">
						<ele>210</ele>
						<time>2026-09-04T19:17:56Z</time>
					</trkpt>
					<trkpt lat="50.357370" lon="4.378250">
						<ele>210</ele>
						<time>2026-09-04T19:17:58Z</time>
					</trkpt>
					<trkpt lat="50.357520" lon="4.378140">
						<ele>210</ele>
						<time>2026-09-04T19:18:01Z</time>
					</trkpt>
					<trkpt lat="50.357950" lon="4.377760">
						<ele>210</ele>
						<time>2026-09-04T19:18:10Z</time>
					</trkpt>
					<trkpt lat="50.358190" lon="4.377550">
						<ele>209</ele>
						<time>2026-09-04T19:18:15Z</time>
					</trkpt>
					<trkpt lat="50.358440" lon="4.377350">
						<ele>209</ele>
						<time>2026-09-04T19:18:20Z</time>
					</trkpt>
					<trkpt lat="50.358670" lon="4.377240">
						<ele>208</ele>
						<time>2026-09-04T19:18:24Z</time>
					</trkpt>
					<trkpt lat="50.359050" lon="4.377090">
						<ele>207</ele>
						<time>2026-09-04T19:18:31Z</time>
					</trkpt>
					<trkpt lat="50.359860" lon="4.376790">
						<ele>206</ele>
						<time>2026-09-04T19:18:46Z</time>
					</trkpt>
					<trkpt lat="50.361250" lon="4.376330">
						<ele>205</ele>
						<time>2026-09-04T19:19:11Z</time>
					</trkpt>
					<trkpt lat="50.361700" lon="4.376220">
						<ele>206</ele>
						<time>2026-09-04T19:19:19Z</time>
					</trkpt>
					<trkpt lat="50.362690" lon="4.375850">
						<ele>202</ele>
						<time>2026-09-04T19:19:37Z</time>
					</trkpt>
					<trkpt lat="50.362880" lon="4.375760">
						<ele>202</ele>
						<time>2026-09-04T19:19:41Z</time>
					</trkpt>
					<trkpt lat="50.363620" lon="4.375440">
						<ele>200</ele>
						<time>2026-09-04T19:19:54Z</time>
					</trkpt>
					<trkpt lat="50.364510" lon="4.375030">
						<ele>199</ele>
						<time>2026-09-04T19:20:11Z</time>
					</trkpt>
					<trkpt lat="50.365120" lon="4.374750">
						<ele>198</ele>
						<time>2026-09-04T19:20:22Z</time>
					</trkpt>
					<trkpt lat="50.365340" lon="4.374610">
						<ele>198</ele>
						<time>2026-09-04T19:20:27Z</time>
					</trkpt>
					<trkpt lat="50.365480" lon="4.374490">
						<ele>197</ele>
						<time>2026-09-04T19:20:29Z</time>
					</trkpt>
					<trkpt lat="50.365590" lon="4.374380">
						<ele>197</ele>
						<time>2026-09-04T19:20:32Z</time>
					</trkpt>
					<trkpt lat="50.365730" lon="4.374180">
						<ele>197</ele>
						<time>2026-09-04T19:20:35Z</time>
					</trkpt>
					<trkpt lat="50.365860" lon="4.373930">
						<ele>198</ele>
						<time>2026-09-04T19:20:39Z</time>
					</trkpt>
					<trkpt lat="50.366030" lon="4.373660">
						<ele>198</ele>
						<time>2026-09-04T19:20:43Z</time>
					</trkpt>
					<trkpt lat="50.366790" lon="4.372420">
						<ele>198</ele>
						<time>2026-09-04T19:21:03Z</time>
					</trkpt>
					<trkpt lat="50.366930" lon="4.372160">
						<ele>198</ele>
						<time>2026-09-04T19:21:06Z</time>
					</trkpt>
					<trkpt lat="50.367130" lon="4.371860">
						<ele>198</ele>
						<time>2026-09-04T19:21:11Z</time>
					</trkpt>
					<trkpt lat="50.367250" lon="4.371730">
						<ele>197</ele>
						<time>2026-09-04T19:21:14Z</time>
					</trkpt>
					<trkpt lat="50.368180" lon="4.370790">
						<ele>195</ele>
						<time>2026-09-04T19:21:34Z</time>
					</trkpt>
					<trkpt lat="50.368280" lon="4.370700">
						<ele>195</ele>
						<time>2026-09-04T19:21:36Z</time>
					</trkpt>
					<trkpt lat="50.368360" lon="4.370630">
						<ele>194</ele>
						<time>2026-09-04T19:21:37Z</time>
					</trkpt>
					<trkpt lat="50.368610" lon="4.369230">
						<ele>195</ele>
						<time>2026-09-04T19:21:54Z</time>
					</trkpt>
					<trkpt lat="50.368700" lon="4.368670">
						<ele>194</ele>
						<time>2026-09-04T19:22:00Z</time>
					</trkpt>
					<trkpt lat="50.368760" lon="4.368430">
						<ele>194</ele>
						<time>2026-09-04T19:22:03Z</time>
					</trkpt>
					<trkpt lat="50.368790" lon="4.368350">
						<ele>194</ele>
						<time>2026-09-04T19:22:04Z</time>
					</trkpt>
					<trkpt lat="50.368610" lon="4.368000">
						<ele>195</ele>
						<time>2026-09-04T19:22:09Z</time>
					</trkpt>
					<trkpt lat="50.368540" lon="4.367900">
						<ele>195</ele>
						<time>2026-09-04T19:22:11Z</time>
					</trkpt>
					<trkpt lat="50.368480" lon="4.367840">
						<ele>195</ele>
						<time>2026-09-04T19:22:12Z</time>
					</trkpt>
					<trkpt lat="50.368350" lon="4.367760">
						<ele>196</ele>
						<time>2026-09-04T19:22:15Z</time>
					</trkpt>
					<trkpt lat="50.367960" lon="4.367580">
						<ele>198</ele>
						<time>2026-09-04T19:22:22Z</time>
					</trkpt>
					<trkpt lat="50.367760" lon="4.367450">
						<ele>199</ele>
						<time>2026-09-04T19:22:26Z</time>
					</trkpt>
					<trkpt lat="50.367560" lon="4.367260">
						<ele>200</ele>
						<time>2026-09-04T19:22:30Z</time>
					</trkpt>
					<trkpt lat="50.367120" lon="4.366660">
						<ele>202</ele>
						<time>2026-09-04T19:22:40Z</time>
					</trkpt>
					<trkpt lat="50.367090" lon="4.366390">
						<ele>203</ele>
						<time>2026-09-04T19:22:44Z</time>
					</trkpt>
					<trkpt lat="50.366850" lon="4.365100">
						<ele>203</ele>
						<time>2026-09-04T19:22:59Z</time>
					</trkpt>
					<trkpt lat="50.366770" lon="4.364670">
						<ele>203</ele>
						<time>2026-09-04T19:23:04Z</time>
					</trkpt>
					<trkpt lat="50.366660" lon="4.364000">
						<ele>202</ele>
						<time>2026-09-04T19:23:12Z</time>
					</trkpt>
					<trkpt lat="50.366520" lon="4.363310">
						<ele>201</ele>
						<time>2026-09-04T19:23:20Z</time>
					</trkpt>
					<trkpt lat="50.366590" lon="4.363170">
						<ele>201</ele>
						<time>2026-09-04T19:23:22Z</time>
					</trkpt>
					<trkpt lat="50.366670" lon="4.362880">
						<ele>201</ele>
						<time>2026-09-04T19:23:26Z</time>
					</trkpt>
					<trkpt lat="50.366930" lon="4.361960">
						<ele>201</ele>
						<time>2026-09-04T19:23:37Z</time>
					</trkpt>
					<trkpt lat="50.368020" lon="4.358040">
						<ele>197</ele>
						<time>2026-09-04T19:24:26Z</time>
					</trkpt>
					<trkpt lat="50.368540" lon="4.356220">
						<ele>192</ele>
						<time>2026-09-04T19:24:48Z</time>
					</trkpt>
					<trkpt lat="50.369450" lon="4.352970">
						<ele>192</ele>
						<time>2026-09-04T19:25:28Z</time>
					</trkpt>
					<trkpt lat="50.369820" lon="4.351650">
						<ele>192</ele>
						<time>2026-09-04T19:25:45Z</time>
					</trkpt>
					<trkpt lat="50.369940" lon="4.351240">
						<ele>192</ele>
						<time>2026-09-04T19:25:50Z</time>
					</trkpt>
					<trkpt lat="50.369970" lon="4.351190">
						<ele>192</ele>
						<time>2026-09-04T19:25:51Z</time>
					</trkpt>
					<trkpt lat="50.370030" lon="4.351170">
						<ele>192</ele>
						<time>2026-09-04T19:25:52Z</time>
					</trkpt>
					<trkpt lat="50.370610" lon="4.351170">
						<ele>192</ele>
						<time>2026-09-04T19:26:02Z</time>
					</trkpt>
					<trkpt lat="50.370780" lon="4.351200">
						<ele>192</ele>
						<time>2026-09-04T19:26:05Z</time>
					</trkpt>
					<trkpt lat="50.371090" lon="4.351190">
						<ele>192</ele>
						<time>2026-09-04T19:26:11Z</time>
					</trkpt>
					<trkpt lat="50.372070" lon="4.351240">
						<ele>195</ele>
						<time>2026-09-04T19:26:28Z</time>
					</trkpt>
					<trkpt lat="50.372150" lon="4.351280">
						<ele>195</ele>
						<time>2026-09-04T19:26:30Z</time>
					</trkpt>
					<trkpt lat="50.372250" lon="4.351350">
						<ele>195</ele>
						<time>2026-09-04T19:26:32Z</time>
					</trkpt>
					<trkpt lat="50.372330" lon="4.351430">
						<ele>195</ele>
						<time>2026-09-04T19:26:33Z</time>
					</trkpt>
					<trkpt lat="50.372440" lon="4.351560">
						<ele>194</ele>
						<time>2026-09-04T19:26:36Z</time>
					</trkpt>
					<trkpt lat="50.372480" lon="4.351640">
						<ele>194</ele>
						<time>2026-09-04T19:26:37Z</time>
					</trkpt>
					<trkpt lat="50.372510" lon="4.351730">
						<ele>194</ele>
						<time>2026-09-04T19:26:38Z</time>
					</trkpt>
					<trkpt lat="50.372870" lon="4.353090">
						<ele>192</ele>
						<time>2026-09-04T19:26:55Z</time>
					</trkpt>
					<trkpt lat="50.373320" lon="4.354830">
						<ele>192</ele>
						<time>2026-09-04T19:27:16Z</time>
					</trkpt>
					<trkpt lat="50.373380" lon="4.355070">
						<ele>192</ele>
						<time>2026-09-04T19:27:19Z</time>
					</trkpt>
					<trkpt lat="50.373390" lon="4.355120">
						<ele>192</ele>
						<time>2026-09-04T19:27:20Z</time>
					</trkpt>
					<trkpt lat="50.373380" lon="4.355220">
						<ele>192</ele>
						<time>2026-09-04T19:27:21Z</time>
					</trkpt>
					<trkpt lat="50.373190" lon="4.355630">
						<ele>192</ele>
						<time>2026-09-04T19:27:26Z</time>
					</trkpt>
					<trkpt lat="50.372560" lon="4.357120">
						<ele>194</ele>
						<time>2026-09-04T19:27:47Z</time>
					</trkpt>
					<trkpt lat="50.372350" lon="4.357610">
						<ele>195</ele>
						<time>2026-09-04T19:27:53Z</time>
					</trkpt>
					<trkpt lat="50.371440" lon="4.359830">
						<ele>196</ele>
						<time>2026-09-04T19:28:23Z</time>
					</trkpt>
					<trkpt lat="50.371290" lon="4.360210">
						<ele>196</ele>
						<time>2026-09-04T19:28:28Z</time>
					</trkpt>
					<trkpt lat="50.371160" lon="4.360490">
						<ele>196</ele>
						<time>2026-09-04T19:28:32Z</time>
					</trkpt>
					</trkseg>
				</trk>
			</gpx>